<?xml version="1.0" encoding="UTF-8" standalone="no" ?>
<gpx xmlns="http://www.topografix.com/GPX/1/1" xmlns:xsi="http://www.w3.org/2001/XMLSchema-instance" xsi:schemaLocation="http://www.topografix.com/GPX/1/1 http://www.topografix.com/GPX/1/1/gpx.xsd" version="1.1" creator="VisuGPX - https://www.visugpx.com">
  <metadata>
    <name>Champmoireau 7km</name>
  </metadata>
  <trk>
    <name><![CDATA[Champmoireau 7km_1]]></name>
    <trkseg>
      <trkpt lat="46.3421" lon="-0.53543">
        <ele>44.8</ele>
        <time>2013-02-21T14:04:42Z</time>
      </trkpt>
      <trkpt lat="46.3421" lon="-0.53543">
        <ele>44.8</ele>
        <time>2013-02-21T14:04:47Z</time>
      </trkpt>
      <trkpt lat="46.34212" lon="-0.53542">
        <ele>44.8</ele>
        <time>2013-02-21T14:04:52Z</time>
      </trkpt>
      <trkpt lat="46.34212" lon="-0.53542">
        <ele>44.8</ele>
        <time>2013-02-21T14:04:57Z</time>
      </trkpt>
      <trkpt lat="46.34212" lon="-0.53542">
        <ele>44.8</ele>
        <time>2013-02-21T14:05:02Z</time>
      </trkpt>
      <trkpt lat="46.34211" lon="-0.53543">
        <ele>44.8</ele>
        <time>2013-02-21T14:05:32Z</time>
      </trkpt>
      <trkpt lat="46.34211" lon="-0.53543">
        <ele>44.8</ele>
        <time>2013-02-21T14:05:37Z</time>
      </trkpt>
      <trkpt lat="46.34212" lon="-0.53545">
        <ele>44.8</ele>
        <time>2013-02-21T14:05:42Z</time>
      </trkpt>
      <trkpt lat="46.34213" lon="-0.53551">
        <ele>37.37713</ele>
        <time>2013-02-21T14:05:47Z</time>
      </trkpt>
      <trkpt lat="46.34215" lon="-0.53555">
        <ele>37.37713</ele>
        <time>2013-02-21T14:05:52Z</time>
      </trkpt>
      <trkpt lat="46.34216" lon="-0.53561">
        <ele>37.37713</ele>
        <time>2013-02-21T14:05:57Z</time>
      </trkpt>
      <trkpt lat="46.34219" lon="-0.53565">
        <ele>37.567856</ele>
        <time>2013-02-21T14:06:02Z</time>
      </trkpt>
      <trkpt lat="46.34221" lon="-0.53571">
        <ele>37.567856</ele>
        <time>2013-02-21T14:06:07Z</time>
      </trkpt>
      <trkpt lat="46.34221" lon="-0.53577">
        <ele>37.010475</ele>
        <time>2013-02-21T14:06:12Z</time>
      </trkpt>
      <trkpt lat="46.34223" lon="-0.53582">
        <ele>37.010475</ele>
        <time>2013-02-21T14:06:17Z</time>
      </trkpt>
      <trkpt lat="46.34225" lon="-0.53587">
        <ele>37.010475</ele>
        <time>2013-02-21T14:06:22Z</time>
      </trkpt>
      <trkpt lat="46.34226" lon="-0.53593">
        <ele>36.822876</ele>
        <time>2013-02-21T14:06:27Z</time>
      </trkpt>
      <trkpt lat="46.34228" lon="-0.536">
        <ele>36.822876</ele>
        <time>2013-02-21T14:06:32Z</time>
      </trkpt>
      <trkpt lat="46.34228" lon="-0.53609">
        <ele>36.597317</ele>
        <time>2013-02-21T14:06:37Z</time>
      </trkpt>
      <trkpt lat="46.34231" lon="-0.53616">
        <ele>36.597317</ele>
        <time>2013-02-21T14:06:42Z</time>
      </trkpt>
      <trkpt lat="46.34234" lon="-0.53625">
        <ele>36.298676</ele>
        <time>2013-02-21T14:06:47Z</time>
      </trkpt>
      <trkpt lat="46.34236" lon="-0.53633">
        <ele>36.298676</ele>
        <time>2013-02-21T14:06:52Z</time>
      </trkpt>
      <trkpt lat="46.34237" lon="-0.5364">
        <ele>35.630283</ele>
        <time>2013-02-21T14:06:57Z</time>
      </trkpt>
      <trkpt lat="46.34239" lon="-0.53646">
        <ele>35.630283</ele>
        <time>2013-02-21T14:07:02Z</time>
      </trkpt>
      <trkpt lat="46.34239" lon="-0.53652">
        <ele>35.630283</ele>
        <time>2013-02-21T14:07:07Z</time>
      </trkpt>
      <trkpt lat="46.34242" lon="-0.5366">
        <ele>34.91058</ele>
        <time>2013-02-21T14:07:12Z</time>
      </trkpt>
      <trkpt lat="46.34245" lon="-0.53666">
        <ele>34.91058</ele>
        <time>2013-02-21T14:07:17Z</time>
      </trkpt>
      <trkpt lat="46.34247" lon="-0.53674">
        <ele>34.403053</ele>
        <time>2013-02-21T14:07:22Z</time>
      </trkpt>
      <trkpt lat="46.3425" lon="-0.53681">
        <ele>34.403053</ele>
        <time>2013-02-21T14:07:27Z</time>
      </trkpt>
      <trkpt lat="46.3425" lon="-0.53691">
        <ele>34.418674</ele>
        <time>2013-02-21T14:07:32Z</time>
      </trkpt>
      <trkpt lat="46.34253" lon="-0.53699">
        <ele>34.418674</ele>
        <time>2013-02-21T14:07:37Z</time>
      </trkpt>
      <trkpt lat="46.34256" lon="-0.53706">
        <ele>34.40628</ele>
        <time>2013-02-21T14:07:42Z</time>
      </trkpt>
      <trkpt lat="46.34259" lon="-0.53712">
        <ele>34.40628</ele>
        <time>2013-02-21T14:07:47Z</time>
      </trkpt>
      <trkpt lat="46.34258" lon="-0.53715">
        <ele>34.40628</ele>
        <time>2013-02-21T14:07:52Z</time>
      </trkpt>
      <trkpt lat="46.34257" lon="-0.53718">
        <ele>34.018337</ele>
        <time>2013-02-21T14:07:57Z</time>
      </trkpt>
      <trkpt lat="46.34261" lon="-0.53731">
        <ele>34.123463</ele>
        <time>2013-02-21T14:08:02Z</time>
      </trkpt>
      <trkpt lat="46.34266" lon="-0.53739">
        <ele>34.123463</ele>
        <time>2013-02-21T14:08:07Z</time>
      </trkpt>
      <trkpt lat="46.34269" lon="-0.53749">
        <ele>34.280567</ele>
        <time>2013-02-21T14:08:12Z</time>
      </trkpt>
      <trkpt lat="46.34271" lon="-0.53755">
        <ele>34.280567</ele>
        <time>2013-02-21T14:08:17Z</time>
      </trkpt>
      <trkpt lat="46.34272" lon="-0.53765">
        <ele>34.185436</ele>
        <time>2013-02-21T14:08:22Z</time>
      </trkpt>
      <trkpt lat="46.34276" lon="-0.53773">
        <ele>34.185436</ele>
        <time>2013-02-21T14:08:27Z</time>
      </trkpt>
      <trkpt lat="46.34278" lon="-0.53783">
        <ele>33.96294</ele>
        <time>2013-02-21T14:08:32Z</time>
      </trkpt>
      <trkpt lat="46.34279" lon="-0.5379">
        <ele>33.96294</ele>
        <time>2013-02-21T14:08:37Z</time>
      </trkpt>
      <trkpt lat="46.34282" lon="-0.53799">
        <ele>33.645214</ele>
        <time>2013-02-21T14:08:42Z</time>
      </trkpt>
      <trkpt lat="46.34286" lon="-0.53804">
        <ele>33.645214</ele>
        <time>2013-02-21T14:08:47Z</time>
      </trkpt>
      <trkpt lat="46.34289" lon="-0.53812">
        <ele>33.326237</ele>
        <time>2013-02-21T14:08:52Z</time>
      </trkpt>
      <trkpt lat="46.34289" lon="-0.5382">
        <ele>33.326237</ele>
        <time>2013-02-21T14:08:57Z</time>
      </trkpt>
      <trkpt lat="46.34292" lon="-0.53828">
        <ele>33.34295</ele>
        <time>2013-02-21T14:09:02Z</time>
      </trkpt>
      <trkpt lat="46.34294" lon="-0.53836">
        <ele>33.34295</ele>
        <time>2013-02-21T14:09:07Z</time>
      </trkpt>
      <trkpt lat="46.34297" lon="-0.53845">
        <ele>33.45331</ele>
        <time>2013-02-21T14:09:12Z</time>
      </trkpt>
      <trkpt lat="46.34299" lon="-0.53852">
        <ele>33.45331</ele>
        <time>2013-02-21T14:09:17Z</time>
      </trkpt>
      <trkpt lat="46.34302" lon="-0.53861">
        <ele>33.306175</ele>
        <time>2013-02-21T14:09:22Z</time>
      </trkpt>
      <trkpt lat="46.34305" lon="-0.53868">
        <ele>33.306175</ele>
        <time>2013-02-21T14:09:27Z</time>
      </trkpt>
      <trkpt lat="46.34307" lon="-0.53875">
        <ele>32.840347</ele>
        <time>2013-02-21T14:09:32Z</time>
      </trkpt>
      <trkpt lat="46.34308" lon="-0.53884">
        <ele>32.840347</ele>
        <time>2013-02-21T14:09:37Z</time>
      </trkpt>
      <trkpt lat="46.34311" lon="-0.53891">
        <ele>32.482937</ele>
        <time>2013-02-21T14:09:42Z</time>
      </trkpt>
      <trkpt lat="46.34313" lon="-0.539">
        <ele>32.482937</ele>
        <time>2013-02-21T14:09:47Z</time>
      </trkpt>
      <trkpt lat="46.34314" lon="-0.53908">
        <ele>32.222507</ele>
        <time>2013-02-21T14:09:52Z</time>
      </trkpt>
      <trkpt lat="46.34317" lon="-0.53916">
        <ele>32.222507</ele>
        <time>2013-02-21T14:09:57Z</time>
      </trkpt>
      <trkpt lat="46.3432" lon="-0.53924">
        <ele>32.0925</ele>
        <time>2013-02-21T14:10:02Z</time>
      </trkpt>
      <trkpt lat="46.34322" lon="-0.53932">
        <ele>32.0925</ele>
        <time>2013-02-21T14:10:07Z</time>
      </trkpt>
      <trkpt lat="46.34324" lon="-0.5394">
        <ele>31.935244</ele>
        <time>2013-02-21T14:10:12Z</time>
      </trkpt>
      <trkpt lat="46.34326" lon="-0.53948">
        <ele>31.935244</ele>
        <time>2013-02-21T14:10:17Z</time>
      </trkpt>
      <trkpt lat="46.3433" lon="-0.53955">
        <ele>31.739237</ele>
        <time>2013-02-21T14:10:22Z</time>
      </trkpt>
      <trkpt lat="46.34331" lon="-0.53962">
        <ele>31.739237</ele>
        <time>2013-02-21T14:10:27Z</time>
      </trkpt>
      <trkpt lat="46.34333" lon="-0.53971">
        <ele>31.719927</ele>
        <time>2013-02-21T14:10:32Z</time>
      </trkpt>
      <trkpt lat="46.34336" lon="-0.53978">
        <ele>31.719927</ele>
        <time>2013-02-21T14:10:37Z</time>
      </trkpt>
      <trkpt lat="46.3434" lon="-0.53983">
        <ele>31.538635</ele>
        <time>2013-02-21T14:10:42Z</time>
      </trkpt>
      <trkpt lat="46.34344" lon="-0.53988">
        <ele>31.538635</ele>
        <time>2013-02-21T14:10:47Z</time>
      </trkpt>
      <trkpt lat="46.34346" lon="-0.53999">
        <ele>31.36276</ele>
        <time>2013-02-21T14:10:52Z</time>
      </trkpt>
      <trkpt lat="46.34348" lon="-0.54008">
        <ele>31.36276</ele>
        <time>2013-02-21T14:10:57Z</time>
      </trkpt>
      <trkpt lat="46.3435" lon="-0.54018">
        <ele>31.678167</ele>
        <time>2013-02-21T14:11:02Z</time>
      </trkpt>
      <trkpt lat="46.34353" lon="-0.54026">
        <ele>31.678167</ele>
        <time>2013-02-21T14:11:07Z</time>
      </trkpt>
      <trkpt lat="46.34355" lon="-0.54032">
        <ele>32.502285</ele>
        <time>2013-02-21T14:11:12Z</time>
      </trkpt>
      <trkpt lat="46.34358" lon="-0.5404">
        <ele>32.502285</ele>
        <time>2013-02-21T14:11:17Z</time>
      </trkpt>
      <trkpt lat="46.3436" lon="-0.54049">
        <ele>33.117607</ele>
        <time>2013-02-21T14:11:22Z</time>
      </trkpt>
      <trkpt lat="46.34362" lon="-0.54057">
        <ele>33.117607</ele>
        <time>2013-02-21T14:11:27Z</time>
      </trkpt>
      <trkpt lat="46.34364" lon="-0.54065">
        <ele>33.802166</ele>
        <time>2013-02-21T14:11:32Z</time>
      </trkpt>
      <trkpt lat="46.34367" lon="-0.54072">
        <ele>33.802166</ele>
        <time>2013-02-21T14:11:37Z</time>
      </trkpt>
      <trkpt lat="46.3437" lon="-0.5408">
        <ele>34.29935</ele>
        <time>2013-02-21T14:11:42Z</time>
      </trkpt>
      <trkpt lat="46.34372" lon="-0.54086">
        <ele>34.29935</ele>
        <time>2013-02-21T14:11:47Z</time>
      </trkpt>
      <trkpt lat="46.34375" lon="-0.54093">
        <ele>34.91405</ele>
        <time>2013-02-21T14:11:52Z</time>
      </trkpt>
      <trkpt lat="46.34378" lon="-0.541">
        <ele>34.91405</ele>
        <time>2013-02-21T14:11:57Z</time>
      </trkpt>
      <trkpt lat="46.34381" lon="-0.54109">
        <ele>35.56728</ele>
        <time>2013-02-21T14:12:02Z</time>
      </trkpt>
      <trkpt lat="46.34383" lon="-0.54117">
        <ele>35.56728</ele>
        <time>2013-02-21T14:12:07Z</time>
      </trkpt>
      <trkpt lat="46.34386" lon="-0.54124">
        <ele>35.77284</ele>
        <time>2013-02-21T14:12:12Z</time>
      </trkpt>
      <trkpt lat="46.34388" lon="-0.54131">
        <ele>35.77284</ele>
        <time>2013-02-21T14:12:17Z</time>
      </trkpt>
      <trkpt lat="46.3439" lon="-0.54139">
        <ele>35.855045</ele>
        <time>2013-02-21T14:12:22Z</time>
      </trkpt>
      <trkpt lat="46.34393" lon="-0.54149">
        <ele>35.855045</ele>
        <time>2013-02-21T14:12:27Z</time>
      </trkpt>
      <trkpt lat="46.34396" lon="-0.54155">
        <ele>36.007317</ele>
        <time>2013-02-21T14:12:32Z</time>
      </trkpt>
      <trkpt lat="46.344" lon="-0.54162">
        <ele>36.007317</ele>
        <time>2013-02-21T14:12:37Z</time>
      </trkpt>
      <trkpt lat="46.34402" lon="-0.54169">
        <ele>36.22518</ele>
        <time>2013-02-21T14:12:42Z</time>
      </trkpt>
      <trkpt lat="46.34405" lon="-0.54177">
        <ele>36.22518</ele>
        <time>2013-02-21T14:12:47Z</time>
      </trkpt>
      <trkpt lat="46.34408" lon="-0.54182">
        <ele>36.47505</ele>
        <time>2013-02-21T14:12:52Z</time>
      </trkpt>
      <trkpt lat="46.34411" lon="-0.54188">
        <ele>36.47505</ele>
        <time>2013-02-21T14:12:57Z</time>
      </trkpt>
      <trkpt lat="46.34415" lon="-0.54193">
        <ele>36.7396</ele>
        <time>2013-02-21T14:13:02Z</time>
      </trkpt>
      <trkpt lat="46.34418" lon="-0.542">
        <ele>36.7396</ele>
        <time>2013-02-21T14:13:07Z</time>
      </trkpt>
      <trkpt lat="46.34422" lon="-0.54204">
        <ele>36.869625</ele>
        <time>2013-02-21T14:13:12Z</time>
      </trkpt>
      <trkpt lat="46.34424" lon="-0.54215">
        <ele>36.869625</ele>
        <time>2013-02-21T14:13:17Z</time>
      </trkpt>
      <trkpt lat="46.34428" lon="-0.54222">
        <ele>36.85836</ele>
        <time>2013-02-21T14:13:22Z</time>
      </trkpt>
      <trkpt lat="46.3443" lon="-0.54232">
        <ele>36.85836</ele>
        <time>2013-02-21T14:13:27Z</time>
      </trkpt>
      <trkpt lat="46.34432" lon="-0.5424">
        <ele>36.84935</ele>
        <time>2013-02-21T14:13:32Z</time>
      </trkpt>
      <trkpt lat="46.34435" lon="-0.54246">
        <ele>36.84935</ele>
        <time>2013-02-21T14:13:37Z</time>
      </trkpt>
      <trkpt lat="46.34439" lon="-0.54252">
        <ele>36.828083</ele>
        <time>2013-02-21T14:13:42Z</time>
      </trkpt>
      <trkpt lat="46.34443" lon="-0.54258">
        <ele>36.828083</ele>
        <time>2013-02-21T14:13:47Z</time>
      </trkpt>
      <trkpt lat="46.34445" lon="-0.54265">
        <ele>36.736</ele>
        <time>2013-02-21T14:13:52Z</time>
      </trkpt>
      <trkpt lat="46.34448" lon="-0.54272">
        <ele>36.736</ele>
        <time>2013-02-21T14:13:57Z</time>
      </trkpt>
      <trkpt lat="46.34452" lon="-0.54279">
        <ele>36.458614</ele>
        <time>2013-02-21T14:14:02Z</time>
      </trkpt>
      <trkpt lat="46.34455" lon="-0.54283">
        <ele>36.458614</ele>
        <time>2013-02-21T14:14:07Z</time>
      </trkpt>
      <trkpt lat="46.34458" lon="-0.54288">
        <ele>36.372566</ele>
        <time>2013-02-21T14:14:12Z</time>
      </trkpt>
      <trkpt lat="46.34463" lon="-0.54292">
        <ele>36.372566</ele>
        <time>2013-02-21T14:14:17Z</time>
      </trkpt>
      <trkpt lat="46.34465" lon="-0.54302">
        <ele>36.01211</ele>
        <time>2013-02-21T14:14:22Z</time>
      </trkpt>
      <trkpt lat="46.34466" lon="-0.54308">
        <ele>36.01211</ele>
        <time>2013-02-21T14:14:27Z</time>
      </trkpt>
      <trkpt lat="46.34468" lon="-0.54315">
        <ele>36.33568</ele>
        <time>2013-02-21T14:14:32Z</time>
      </trkpt>
      <trkpt lat="46.34471" lon="-0.54322">
        <ele>36.33568</ele>
        <time>2013-02-21T14:14:37Z</time>
      </trkpt>
      <trkpt lat="46.34473" lon="-0.54329">
        <ele>36.520412</ele>
        <time>2013-02-21T14:14:42Z</time>
      </trkpt>
      <trkpt lat="46.34475" lon="-0.54335">
        <ele>36.520412</ele>
        <time>2013-02-21T14:14:47Z</time>
      </trkpt>
      <trkpt lat="46.34476" lon="-0.54338">
        <ele>36.520412</ele>
        <time>2013-02-21T14:14:52Z</time>
      </trkpt>
      <trkpt lat="46.34481" lon="-0.54344">
        <ele>36.92375</ele>
        <time>2013-02-21T14:14:57Z</time>
      </trkpt>
      <trkpt lat="46.34482" lon="-0.54351">
        <ele>36.92375</ele>
        <time>2013-02-21T14:15:02Z</time>
      </trkpt>
      <trkpt lat="46.34485" lon="-0.54358">
        <ele>37.10534</ele>
        <time>2013-02-21T14:15:07Z</time>
      </trkpt>
      <trkpt lat="46.34489" lon="-0.54362">
        <ele>37.10534</ele>
        <time>2013-02-21T14:15:12Z</time>
      </trkpt>
      <trkpt lat="46.34491" lon="-0.54369">
        <ele>37.59433</ele>
        <time>2013-02-21T14:15:17Z</time>
      </trkpt>
      <trkpt lat="46.34493" lon="-0.54377">
        <ele>37.59433</ele>
        <time>2013-02-21T14:15:22Z</time>
      </trkpt>
      <trkpt lat="46.34497" lon="-0.54384">
        <ele>38.004074</ele>
        <time>2013-02-21T14:15:27Z</time>
      </trkpt>
      <trkpt lat="46.34499" lon="-0.54391">
        <ele>38.004074</ele>
        <time>2013-02-21T14:15:32Z</time>
      </trkpt>
      <trkpt lat="46.34501" lon="-0.54398">
        <ele>37.950077</ele>
        <time>2013-02-21T14:15:37Z</time>
      </trkpt>
      <trkpt lat="46.34503" lon="-0.54405">
        <ele>37.950077</ele>
        <time>2013-02-21T14:15:42Z</time>
      </trkpt>
      <trkpt lat="46.34506" lon="-0.54411">
        <ele>38.1291</ele>
        <time>2013-02-21T14:15:47Z</time>
      </trkpt>
      <trkpt lat="46.34507" lon="-0.54417">
        <ele>38.1291</ele>
        <time>2013-02-21T14:15:52Z</time>
      </trkpt>
      <trkpt lat="46.34512" lon="-0.54423">
        <ele>38.477135</ele>
        <time>2013-02-21T14:15:57Z</time>
      </trkpt>
      <trkpt lat="46.34514" lon="-0.54429">
        <ele>38.477135</ele>
        <time>2013-02-21T14:16:02Z</time>
      </trkpt>
      <trkpt lat="46.34518" lon="-0.54437">
        <ele>38.62222</ele>
        <time>2013-02-21T14:16:07Z</time>
      </trkpt>
      <trkpt lat="46.34522" lon="-0.54443">
        <ele>38.62222</ele>
        <time>2013-02-21T14:16:12Z</time>
      </trkpt>
      <trkpt lat="46.34524" lon="-0.54449">
        <ele>39.041473</ele>
        <time>2013-02-21T14:16:17Z</time>
      </trkpt>
      <trkpt lat="46.34526" lon="-0.54456">
        <ele>39.041473</ele>
        <time>2013-02-21T14:16:22Z</time>
      </trkpt>
      <trkpt lat="46.34528" lon="-0.54462">
        <ele>39.252243</ele>
        <time>2013-02-21T14:16:27Z</time>
      </trkpt>
      <trkpt lat="46.3453" lon="-0.54469">
        <ele>39.252243</ele>
        <time>2013-02-21T14:16:32Z</time>
      </trkpt>
      <trkpt lat="46.34534" lon="-0.54476">
        <ele>39.271317</ele>
        <time>2013-02-21T14:16:37Z</time>
      </trkpt>
      <trkpt lat="46.34536" lon="-0.54482">
        <ele>39.271317</ele>
        <time>2013-02-21T14:16:42Z</time>
      </trkpt>
      <trkpt lat="46.3454" lon="-0.5449">
        <ele>39.070362</ele>
        <time>2013-02-21T14:16:47Z</time>
      </trkpt>
      <trkpt lat="46.34543" lon="-0.54495">
        <ele>39.070362</ele>
        <time>2013-02-21T14:16:52Z</time>
      </trkpt>
      <trkpt lat="46.34546" lon="-0.54501">
        <ele>38.947594</ele>
        <time>2013-02-21T14:16:57Z</time>
      </trkpt>
      <trkpt lat="46.34548" lon="-0.54508">
        <ele>38.947594</ele>
        <time>2013-02-21T14:17:02Z</time>
      </trkpt>
      <trkpt lat="46.3455" lon="-0.54515">
        <ele>38.79461</ele>
        <time>2013-02-21T14:17:07Z</time>
      </trkpt>
      <trkpt lat="46.34553" lon="-0.54521">
        <ele>38.79461</ele>
        <time>2013-02-21T14:17:12Z</time>
      </trkpt>
      <trkpt lat="46.34556" lon="-0.54526">
        <ele>38.24838</ele>
        <time>2013-02-21T14:17:17Z</time>
      </trkpt>
      <trkpt lat="46.34558" lon="-0.54533">
        <ele>38.24838</ele>
        <time>2013-02-21T14:17:22Z</time>
      </trkpt>
      <trkpt lat="46.34561" lon="-0.54541">
        <ele>37.98516</ele>
        <time>2013-02-21T14:17:27Z</time>
      </trkpt>
      <trkpt lat="46.34563" lon="-0.54549">
        <ele>37.98516</ele>
        <time>2013-02-21T14:17:32Z</time>
      </trkpt>
      <trkpt lat="46.34565" lon="-0.54556">
        <ele>37.44365</ele>
        <time>2013-02-21T14:17:37Z</time>
      </trkpt>
      <trkpt lat="46.34568" lon="-0.54563">
        <ele>37.44365</ele>
        <time>2013-02-21T14:17:42Z</time>
      </trkpt>
      <trkpt lat="46.34571" lon="-0.54568">
        <ele>36.895065</ele>
        <time>2013-02-21T14:17:47Z</time>
      </trkpt>
      <trkpt lat="46.34574" lon="-0.54574">
        <ele>36.895065</ele>
        <time>2013-02-21T14:17:52Z</time>
      </trkpt>
      <trkpt lat="46.34577" lon="-0.54581">
        <ele>36.356186</ele>
        <time>2013-02-21T14:17:57Z</time>
      </trkpt>
      <trkpt lat="46.34579" lon="-0.54591">
        <ele>36.356186</ele>
        <time>2013-02-21T14:18:02Z</time>
      </trkpt>
      <trkpt lat="46.34581" lon="-0.54597">
        <ele>36.060265</ele>
        <time>2013-02-21T14:18:07Z</time>
      </trkpt>
      <trkpt lat="46.34584" lon="-0.54604">
        <ele>36.060265</ele>
        <time>2013-02-21T14:18:12Z</time>
      </trkpt>
      <trkpt lat="46.34587" lon="-0.54611">
        <ele>35.626957</ele>
        <time>2013-02-21T14:18:17Z</time>
      </trkpt>
      <trkpt lat="46.34591" lon="-0.54619">
        <ele>35.626957</ele>
        <time>2013-02-21T14:18:22Z</time>
      </trkpt>
      <trkpt lat="46.34593" lon="-0.54626">
        <ele>35.19859</ele>
        <time>2013-02-21T14:18:27Z</time>
      </trkpt>
      <trkpt lat="46.34596" lon="-0.54634">
        <ele>35.19859</ele>
        <time>2013-02-21T14:18:32Z</time>
      </trkpt>
      <trkpt lat="46.34599" lon="-0.5464">
        <ele>34.732723</ele>
        <time>2013-02-21T14:18:37Z</time>
      </trkpt>
      <trkpt lat="46.34601" lon="-0.54648">
        <ele>34.732723</ele>
        <time>2013-02-21T14:18:42Z</time>
      </trkpt>
      <trkpt lat="46.34603" lon="-0.54656">
        <ele>34.465027</ele>
        <time>2013-02-21T14:18:47Z</time>
      </trkpt>
      <trkpt lat="46.34607" lon="-0.54662">
        <ele>34.465027</ele>
        <time>2013-02-21T14:18:52Z</time>
      </trkpt>
      <trkpt lat="46.3461" lon="-0.5467">
        <ele>34.26581</ele>
        <time>2013-02-21T14:18:57Z</time>
      </trkpt>
      <trkpt lat="46.34614" lon="-0.54677">
        <ele>34.26581</ele>
        <time>2013-02-21T14:19:02Z</time>
      </trkpt>
      <trkpt lat="46.34617" lon="-0.54684">
        <ele>34.15951</ele>
        <time>2013-02-21T14:19:07Z</time>
      </trkpt>
      <trkpt lat="46.34621" lon="-0.54691">
        <ele>34.15951</ele>
        <time>2013-02-21T14:19:12Z</time>
      </trkpt>
      <trkpt lat="46.34623" lon="-0.54699">
        <ele>33.908646</ele>
        <time>2013-02-21T14:19:17Z</time>
      </trkpt>
      <trkpt lat="46.34626" lon="-0.54706">
        <ele>33.908646</ele>
        <time>2013-02-21T14:19:22Z</time>
      </trkpt>
      <trkpt lat="46.3463" lon="-0.54714">
        <ele>33.65468</ele>
        <time>2013-02-21T14:19:27Z</time>
      </trkpt>
      <trkpt lat="46.34635" lon="-0.54722">
        <ele>33.65468</ele>
        <time>2013-02-21T14:19:32Z</time>
      </trkpt>
      <trkpt lat="46.34636" lon="-0.54729">
        <ele>33.312065</ele>
        <time>2013-02-21T14:19:37Z</time>
      </trkpt>
      <trkpt lat="46.34639" lon="-0.54735">
        <ele>33.312065</ele>
        <time>2013-02-21T14:19:42Z</time>
      </trkpt>
      <trkpt lat="46.34642" lon="-0.54742">
        <ele>33.277786</ele>
        <time>2013-02-21T14:19:47Z</time>
      </trkpt>
      <trkpt lat="46.34644" lon="-0.5475">
        <ele>33.277786</ele>
        <time>2013-02-21T14:19:52Z</time>
      </trkpt>
      <trkpt lat="46.34647" lon="-0.54758">
        <ele>33.61567</ele>
        <time>2013-02-21T14:19:57Z</time>
      </trkpt>
      <trkpt lat="46.34651" lon="-0.54766">
        <ele>33.61567</ele>
        <time>2013-02-21T14:20:02Z</time>
      </trkpt>
      <trkpt lat="46.34654" lon="-0.54774">
        <ele>34.13872</ele>
        <time>2013-02-21T14:20:07Z</time>
      </trkpt>
      <trkpt lat="46.34657" lon="-0.54783">
        <ele>34.13872</ele>
        <time>2013-02-21T14:20:12Z</time>
      </trkpt>
      <trkpt lat="46.3466" lon="-0.54788">
        <ele>34.7165</ele>
        <time>2013-02-21T14:20:17Z</time>
      </trkpt>
      <trkpt lat="46.34663" lon="-0.54795">
        <ele>34.7165</ele>
        <time>2013-02-21T14:20:22Z</time>
      </trkpt>
      <trkpt lat="46.34666" lon="-0.54802">
        <ele>35.055004</ele>
        <time>2013-02-21T14:20:27Z</time>
      </trkpt>
      <trkpt lat="46.34668" lon="-0.54808">
        <ele>35.055004</ele>
        <time>2013-02-21T14:20:32Z</time>
      </trkpt>
      <trkpt lat="46.34668" lon="-0.54809">
        <ele>35.055004</ele>
        <time>2013-02-21T14:20:37Z</time>
      </trkpt>
      <trkpt lat="46.3467" lon="-0.54813">
        <ele>35.055004</ele>
        <time>2013-02-21T14:20:47Z</time>
      </trkpt>
      <trkpt lat="46.34672" lon="-0.54818">
        <ele>35.242916</ele>
        <time>2013-02-21T14:20:52Z</time>
      </trkpt>
      <trkpt lat="46.34674" lon="-0.54824">
        <ele>35.242916</ele>
        <time>2013-02-21T14:20:58Z</time>
      </trkpt>
      <trkpt lat="46.34677" lon="-0.54831">
        <ele>35.377228</ele>
        <time>2013-02-21T14:21:02Z</time>
      </trkpt>
      <trkpt lat="46.3468" lon="-0.54837">
        <ele>35.377228</ele>
        <time>2013-02-21T14:21:07Z</time>
      </trkpt>
      <trkpt lat="46.34682" lon="-0.54843">
        <ele>35.360485</ele>
        <time>2013-02-21T14:21:12Z</time>
      </trkpt>
      <trkpt lat="46.34684" lon="-0.5485">
        <ele>35.360485</ele>
        <time>2013-02-21T14:21:17Z</time>
      </trkpt>
      <trkpt lat="46.34686" lon="-0.54855">
        <ele>35.218163</ele>
        <time>2013-02-21T14:21:22Z</time>
      </trkpt>
      <trkpt lat="46.34689" lon="-0.54862">
        <ele>35.218163</ele>
        <time>2013-02-21T14:21:27Z</time>
      </trkpt>
      <trkpt lat="46.34692" lon="-0.54869">
        <ele>35.204933</ele>
        <time>2013-02-21T14:21:32Z</time>
      </trkpt>
      <trkpt lat="46.34695" lon="-0.54876">
        <ele>35.204933</ele>
        <time>2013-02-21T14:21:37Z</time>
      </trkpt>
      <trkpt lat="46.34698" lon="-0.54883">
        <ele>35.527596</ele>
        <time>2013-02-21T14:21:42Z</time>
      </trkpt>
      <trkpt lat="46.34701" lon="-0.54889">
        <ele>35.527596</ele>
        <time>2013-02-21T14:21:47Z</time>
      </trkpt>
      <trkpt lat="46.34704" lon="-0.54896">
        <ele>35.828804</ele>
        <time>2013-02-21T14:21:52Z</time>
      </trkpt>
      <trkpt lat="46.34707" lon="-0.54903">
        <ele>35.828804</ele>
        <time>2013-02-21T14:21:57Z</time>
      </trkpt>
      <trkpt lat="46.34709" lon="-0.5491">
        <ele>35.95054</ele>
        <time>2013-02-21T14:22:02Z</time>
      </trkpt>
      <trkpt lat="46.34711" lon="-0.54918">
        <ele>35.95054</ele>
        <time>2013-02-21T14:22:07Z</time>
      </trkpt>
      <trkpt lat="46.34713" lon="-0.54926">
        <ele>36.0642</ele>
        <time>2013-02-21T14:22:12Z</time>
      </trkpt>
      <trkpt lat="46.34717" lon="-0.54933">
        <ele>36.0642</ele>
        <time>2013-02-21T14:22:17Z</time>
      </trkpt>
      <trkpt lat="46.34719" lon="-0.54941">
        <ele>36.054592</ele>
        <time>2013-02-21T14:22:22Z</time>
      </trkpt>
      <trkpt lat="46.34723" lon="-0.54948">
        <ele>36.054592</ele>
        <time>2013-02-21T14:22:27Z</time>
      </trkpt>
      <trkpt lat="46.34725" lon="-0.54956">
        <ele>35.873016</ele>
        <time>2013-02-21T14:22:32Z</time>
      </trkpt>
      <trkpt lat="46.34727" lon="-0.54962">
        <ele>35.873016</ele>
        <time>2013-02-21T14:22:37Z</time>
      </trkpt>
      <trkpt lat="46.3473" lon="-0.54969">
        <ele>35.84988</ele>
        <time>2013-02-21T14:22:42Z</time>
      </trkpt>
      <trkpt lat="46.34733" lon="-0.54976">
        <ele>35.84988</ele>
        <time>2013-02-21T14:22:47Z</time>
      </trkpt>
      <trkpt lat="46.34735" lon="-0.54981">
        <ele>36.14663</ele>
        <time>2013-02-21T14:22:52Z</time>
      </trkpt>
      <trkpt lat="46.34738" lon="-0.54986">
        <ele>36.14663</ele>
        <time>2013-02-21T14:22:57Z</time>
      </trkpt>
      <trkpt lat="46.3474" lon="-0.54993">
        <ele>36.34938</ele>
        <time>2013-02-21T14:23:02Z</time>
      </trkpt>
      <trkpt lat="46.34742" lon="-0.54999">
        <ele>36.34938</ele>
        <time>2013-02-21T14:23:07Z</time>
      </trkpt>
      <trkpt lat="46.34746" lon="-0.55006">
        <ele>36.724052</ele>
        <time>2013-02-21T14:23:12Z</time>
      </trkpt>
      <trkpt lat="46.34749" lon="-0.55014">
        <ele>36.724052</ele>
        <time>2013-02-21T14:23:17Z</time>
      </trkpt>
      <trkpt lat="46.34752" lon="-0.5502">
        <ele>37.127075</ele>
        <time>2013-02-21T14:23:22Z</time>
      </trkpt>
      <trkpt lat="46.34754" lon="-0.55027">
        <ele>37.127075</ele>
        <time>2013-02-21T14:23:27Z</time>
      </trkpt>
      <trkpt lat="46.34755" lon="-0.5503">
        <ele>37.127075</ele>
        <time>2013-02-21T14:23:32Z</time>
      </trkpt>
      <trkpt lat="46.34758" lon="-0.55036">
        <ele>37.5696</ele>
        <time>2013-02-21T14:23:37Z</time>
      </trkpt>
      <trkpt lat="46.34762" lon="-0.55043">
        <ele>37.5696</ele>
        <time>2013-02-21T14:23:42Z</time>
      </trkpt>
      <trkpt lat="46.34764" lon="-0.55052">
        <ele>37.932064</ele>
        <time>2013-02-21T14:23:47Z</time>
      </trkpt>
      <trkpt lat="46.34768" lon="-0.55059">
        <ele>37.932064</ele>
        <time>2013-02-21T14:23:52Z</time>
      </trkpt>
      <trkpt lat="46.34771" lon="-0.55065">
        <ele>38.24817</ele>
        <time>2013-02-21T14:23:57Z</time>
      </trkpt>
      <trkpt lat="46.34773" lon="-0.55072">
        <ele>38.24817</ele>
        <time>2013-02-21T14:24:02Z</time>
      </trkpt>
      <trkpt lat="46.34776" lon="-0.55078">
        <ele>38.50602</ele>
        <time>2013-02-21T14:24:07Z</time>
      </trkpt>
      <trkpt lat="46.34778" lon="-0.55085">
        <ele>38.50602</ele>
        <time>2013-02-21T14:24:12Z</time>
      </trkpt>
      <trkpt lat="46.3478" lon="-0.55093">
        <ele>38.795727</ele>
        <time>2013-02-21T14:24:17Z</time>
      </trkpt>
      <trkpt lat="46.34783" lon="-0.551">
        <ele>38.795727</ele>
        <time>2013-02-21T14:24:22Z</time>
      </trkpt>
      <trkpt lat="46.34785" lon="-0.55107">
        <ele>38.969967</ele>
        <time>2013-02-21T14:24:27Z</time>
      </trkpt>
      <trkpt lat="46.34789" lon="-0.55113">
        <ele>38.969967</ele>
        <time>2013-02-21T14:24:32Z</time>
      </trkpt>
      <trkpt lat="46.34792" lon="-0.5512">
        <ele>38.77726</ele>
        <time>2013-02-21T14:24:37Z</time>
      </trkpt>
      <trkpt lat="46.34795" lon="-0.55125">
        <ele>38.77726</ele>
        <time>2013-02-21T14:24:42Z</time>
      </trkpt>
      <trkpt lat="46.34797" lon="-0.55133">
        <ele>38.85083</ele>
        <time>2013-02-21T14:24:47Z</time>
      </trkpt>
      <trkpt lat="46.348" lon="-0.5514">
        <ele>38.85083</ele>
        <time>2013-02-21T14:24:52Z</time>
      </trkpt>
      <trkpt lat="46.34802" lon="-0.55147">
        <ele>38.59424</ele>
        <time>2013-02-21T14:24:57Z</time>
      </trkpt>
      <trkpt lat="46.34805" lon="-0.55154">
        <ele>38.59424</ele>
        <time>2013-02-21T14:25:02Z</time>
      </trkpt>
      <trkpt lat="46.34807" lon="-0.55161">
        <ele>38.335377</ele>
        <time>2013-02-21T14:25:07Z</time>
      </trkpt>
      <trkpt lat="46.34809" lon="-0.55168">
        <ele>38.335377</ele>
        <time>2013-02-21T14:25:12Z</time>
      </trkpt>
      <trkpt lat="46.34813" lon="-0.55175">
        <ele>38.853764</ele>
        <time>2013-02-21T14:25:17Z</time>
      </trkpt>
      <trkpt lat="46.34815" lon="-0.55182">
        <ele>38.853764</ele>
        <time>2013-02-21T14:25:22Z</time>
      </trkpt>
      <trkpt lat="46.34818" lon="-0.55188">
        <ele>39.211494</ele>
        <time>2013-02-21T14:25:27Z</time>
      </trkpt>
      <trkpt lat="46.3482" lon="-0.55193">
        <ele>39.211494</ele>
        <time>2013-02-21T14:25:32Z</time>
      </trkpt>
      <trkpt lat="46.34824" lon="-0.55201">
        <ele>39.621346</ele>
        <time>2013-02-21T14:25:37Z</time>
      </trkpt>
      <trkpt lat="46.34826" lon="-0.55207">
        <ele>39.621346</ele>
        <time>2013-02-21T14:25:42Z</time>
      </trkpt>
      <trkpt lat="46.34829" lon="-0.55214">
        <ele>39.905518</ele>
        <time>2013-02-21T14:25:47Z</time>
      </trkpt>
      <trkpt lat="46.34831" lon="-0.55222">
        <ele>39.905518</ele>
        <time>2013-02-21T14:25:52Z</time>
      </trkpt>
      <trkpt lat="46.34834" lon="-0.5523">
        <ele>40.072636</ele>
        <time>2013-02-21T14:25:57Z</time>
      </trkpt>
      <trkpt lat="46.34837" lon="-0.55237">
        <ele>40.072636</ele>
        <time>2013-02-21T14:26:02Z</time>
      </trkpt>
      <trkpt lat="46.34841" lon="-0.55244">
        <ele>40.40489</ele>
        <time>2013-02-21T14:26:07Z</time>
      </trkpt>
      <trkpt lat="46.34844" lon="-0.55251">
        <ele>40.40489</ele>
        <time>2013-02-21T14:26:12Z</time>
      </trkpt>
      <trkpt lat="46.34848" lon="-0.55257">
        <ele>40.658794</ele>
        <time>2013-02-21T14:26:17Z</time>
      </trkpt>
      <trkpt lat="46.34849" lon="-0.55265">
        <ele>40.658794</ele>
        <time>2013-02-21T14:26:22Z</time>
      </trkpt>
      <trkpt lat="46.34852" lon="-0.55271">
        <ele>41.08464</ele>
        <time>2013-02-21T14:26:27Z</time>
      </trkpt>
      <trkpt lat="46.34854" lon="-0.55279">
        <ele>41.08464</ele>
        <time>2013-02-21T14:26:32Z</time>
      </trkpt>
      <trkpt lat="46.34858" lon="-0.55286">
        <ele>41.58236</ele>
        <time>2013-02-21T14:26:37Z</time>
      </trkpt>
      <trkpt lat="46.34859" lon="-0.55294">
        <ele>41.58236</ele>
        <time>2013-02-21T14:26:42Z</time>
      </trkpt>
      <trkpt lat="46.34863" lon="-0.55302">
        <ele>41.655506</ele>
        <time>2013-02-21T14:26:47Z</time>
      </trkpt>
      <trkpt lat="46.34865" lon="-0.55309">
        <ele>41.655506</ele>
        <time>2013-02-21T14:26:52Z</time>
      </trkpt>
      <trkpt lat="46.3487" lon="-0.55314">
        <ele>42.24333</ele>
        <time>2013-02-21T14:26:57Z</time>
      </trkpt>
      <trkpt lat="46.34872" lon="-0.55321">
        <ele>42.24333</ele>
        <time>2013-02-21T14:27:02Z</time>
      </trkpt>
      <trkpt lat="46.34875" lon="-0.55329">
        <ele>42.917522</ele>
        <time>2013-02-21T14:27:07Z</time>
      </trkpt>
      <trkpt lat="46.34879" lon="-0.55335">
        <ele>42.917522</ele>
        <time>2013-02-21T14:27:12Z</time>
      </trkpt>
      <trkpt lat="46.34881" lon="-0.55341">
        <ele>43.324295</ele>
        <time>2013-02-21T14:27:17Z</time>
      </trkpt>
      <trkpt lat="46.34885" lon="-0.55346">
        <ele>43.324295</ele>
        <time>2013-02-21T14:27:22Z</time>
      </trkpt>
      <trkpt lat="46.34887" lon="-0.55354">
        <ele>43.42485</ele>
        <time>2013-02-21T14:27:27Z</time>
      </trkpt>
      <trkpt lat="46.34889" lon="-0.55363">
        <ele>43.42485</ele>
        <time>2013-02-21T14:27:32Z</time>
      </trkpt>
      <trkpt lat="46.34892" lon="-0.55372">
        <ele>43.429127</ele>
        <time>2013-02-21T14:27:37Z</time>
      </trkpt>
      <trkpt lat="46.34894" lon="-0.55379">
        <ele>43.429127</ele>
        <time>2013-02-21T14:27:42Z</time>
      </trkpt>
      <trkpt lat="46.34896" lon="-0.55385">
        <ele>43.157223</ele>
        <time>2013-02-21T14:27:47Z</time>
      </trkpt>
      <trkpt lat="46.349" lon="-0.55392">
        <ele>43.157223</ele>
        <time>2013-02-21T14:27:52Z</time>
      </trkpt>
      <trkpt lat="46.34903" lon="-0.554">
        <ele>42.875587</ele>
        <time>2013-02-21T14:27:57Z</time>
      </trkpt>
      <trkpt lat="46.34906" lon="-0.55409">
        <ele>42.875587</ele>
        <time>2013-02-21T14:28:02Z</time>
      </trkpt>
      <trkpt lat="46.34909" lon="-0.55417">
        <ele>42.38439</ele>
        <time>2013-02-21T14:28:07Z</time>
      </trkpt>
      <trkpt lat="46.34911" lon="-0.55422">
        <ele>42.38439</ele>
        <time>2013-02-21T14:28:12Z</time>
      </trkpt>
      <trkpt lat="46.34914" lon="-0.55429">
        <ele>41.94583</ele>
        <time>2013-02-21T14:28:17Z</time>
      </trkpt>
      <trkpt lat="46.34917" lon="-0.55437">
        <ele>41.94583</ele>
        <time>2013-02-21T14:28:22Z</time>
      </trkpt>
      <trkpt lat="46.3492" lon="-0.55444">
        <ele>41.413586</ele>
        <time>2013-02-21T14:28:27Z</time>
      </trkpt>
      <trkpt lat="46.34922" lon="-0.5545">
        <ele>41.413586</ele>
        <time>2013-02-21T14:28:32Z</time>
      </trkpt>
      <trkpt lat="46.34925" lon="-0.55456">
        <ele>40.88293</ele>
        <time>2013-02-21T14:28:37Z</time>
      </trkpt>
      <trkpt lat="46.34928" lon="-0.55462">
        <ele>40.88293</ele>
        <time>2013-02-21T14:28:42Z</time>
      </trkpt>
      <trkpt lat="46.34931" lon="-0.5547">
        <ele>40.355667</ele>
        <time>2013-02-21T14:28:47Z</time>
      </trkpt>
      <trkpt lat="46.34933" lon="-0.55477">
        <ele>40.355667</ele>
        <time>2013-02-21T14:28:52Z</time>
      </trkpt>
      <trkpt lat="46.34935" lon="-0.55483">
        <ele>39.660503</ele>
        <time>2013-02-21T14:28:57Z</time>
      </trkpt>
      <trkpt lat="46.34937" lon="-0.5549">
        <ele>39.660503</ele>
        <time>2013-02-21T14:29:03Z</time>
      </trkpt>
      <trkpt lat="46.3494" lon="-0.55497">
        <ele>39.143578</ele>
        <time>2013-02-21T14:29:07Z</time>
      </trkpt>
      <trkpt lat="46.34942" lon="-0.55502">
        <ele>39.143578</ele>
        <time>2013-02-21T14:29:12Z</time>
      </trkpt>
      <trkpt lat="46.34945" lon="-0.55509">
        <ele>39.038612</ele>
        <time>2013-02-21T14:29:17Z</time>
      </trkpt>
      <trkpt lat="46.34948" lon="-0.55514">
        <ele>39.038612</ele>
        <time>2013-02-21T14:29:22Z</time>
      </trkpt>
      <trkpt lat="46.34949" lon="-0.55516">
        <ele>39.038612</ele>
        <time>2013-02-21T14:29:27Z</time>
      </trkpt>
      <trkpt lat="46.34949" lon="-0.55517">
        <ele>39.038612</ele>
        <time>2013-02-21T14:29:32Z</time>
      </trkpt>
      <trkpt lat="46.34949" lon="-0.55518">
        <ele>39.038612</ele>
        <time>2013-02-21T14:29:37Z</time>
      </trkpt>
      <trkpt lat="46.34949" lon="-0.55519">
        <ele>39.038612</ele>
        <time>2013-02-21T14:29:42Z</time>
      </trkpt>
      <trkpt lat="46.34951" lon="-0.55525">
        <ele>39.056595</ele>
        <time>2013-02-21T14:29:47Z</time>
      </trkpt>
      <trkpt lat="46.34954" lon="-0.55529">
        <ele>39.056595</ele>
        <time>2013-02-21T14:29:52Z</time>
      </trkpt>
      <trkpt lat="46.34957" lon="-0.55536">
        <ele>39.04465</ele>
        <time>2013-02-21T14:29:57Z</time>
      </trkpt>
      <trkpt lat="46.3496" lon="-0.55543">
        <ele>39.04465</ele>
        <time>2013-02-21T14:30:02Z</time>
      </trkpt>
      <trkpt lat="46.34963" lon="-0.5555">
        <ele>39.062958</ele>
        <time>2013-02-21T14:30:07Z</time>
      </trkpt>
      <trkpt lat="46.34966" lon="-0.55558">
        <ele>39.062958</ele>
        <time>2013-02-21T14:30:12Z</time>
      </trkpt>
      <trkpt lat="46.34968" lon="-0.55566">
        <ele>39.195984</ele>
        <time>2013-02-21T14:30:17Z</time>
      </trkpt>
      <trkpt lat="46.34972" lon="-0.55574">
        <ele>39.195984</ele>
        <time>2013-02-21T14:30:22Z</time>
      </trkpt>
      <trkpt lat="46.34975" lon="-0.55583">
        <ele>39.291073</ele>
        <time>2013-02-21T14:30:27Z</time>
      </trkpt>
      <trkpt lat="46.34978" lon="-0.55589">
        <ele>39.291073</ele>
        <time>2013-02-21T14:30:32Z</time>
      </trkpt>
      <trkpt lat="46.34981" lon="-0.55596">
        <ele>39.322155</ele>
        <time>2013-02-21T14:30:37Z</time>
      </trkpt>
      <trkpt lat="46.34984" lon="-0.55602">
        <ele>39.322155</ele>
        <time>2013-02-21T14:30:42Z</time>
      </trkpt>
      <trkpt lat="46.34986" lon="-0.55608">
        <ele>39.380516</ele>
        <time>2013-02-21T14:30:47Z</time>
      </trkpt>
      <trkpt lat="46.3499" lon="-0.55614">
        <ele>39.380516</ele>
        <time>2013-02-21T14:30:52Z</time>
      </trkpt>
      <trkpt lat="46.34992" lon="-0.55622">
        <ele>39.320076</ele>
        <time>2013-02-21T14:30:57Z</time>
      </trkpt>
      <trkpt lat="46.34994" lon="-0.55629">
        <ele>39.320076</ele>
        <time>2013-02-21T14:31:02Z</time>
      </trkpt>
      <trkpt lat="46.34997" lon="-0.55637">
        <ele>39.58225</ele>
        <time>2013-02-21T14:31:07Z</time>
      </trkpt>
      <trkpt lat="46.35" lon="-0.55643">
        <ele>39.58225</ele>
        <time>2013-02-21T14:31:12Z</time>
      </trkpt>
      <trkpt lat="46.35003" lon="-0.55651">
        <ele>40.43099</ele>
        <time>2013-02-21T14:31:17Z</time>
      </trkpt>
      <trkpt lat="46.35007" lon="-0.55657">
        <ele>40.43099</ele>
        <time>2013-02-21T14:31:22Z</time>
      </trkpt>
      <trkpt lat="46.3501" lon="-0.55664">
        <ele>41.230106</ele>
        <time>2013-02-21T14:31:27Z</time>
      </trkpt>
      <trkpt lat="46.35013" lon="-0.55671">
        <ele>41.230106</ele>
        <time>2013-02-21T14:31:32Z</time>
      </trkpt>
      <trkpt lat="46.35016" lon="-0.55679">
        <ele>41.894684</ele>
        <time>2013-02-21T14:31:37Z</time>
      </trkpt>
      <trkpt lat="46.35019" lon="-0.55687">
        <ele>41.894684</ele>
        <time>2013-02-21T14:31:42Z</time>
      </trkpt>
      <trkpt lat="46.3502" lon="-0.55695">
        <ele>42.15906</ele>
        <time>2013-02-21T14:31:47Z</time>
      </trkpt>
      <trkpt lat="46.35023" lon="-0.55701">
        <ele>42.15906</ele>
        <time>2013-02-21T14:31:52Z</time>
      </trkpt>
      <trkpt lat="46.35027" lon="-0.55709">
        <ele>42.614098</ele>
        <time>2013-02-21T14:31:57Z</time>
      </trkpt>
      <trkpt lat="46.3503" lon="-0.55718">
        <ele>42.614098</ele>
        <time>2013-02-21T14:32:02Z</time>
      </trkpt>
      <trkpt lat="46.35033" lon="-0.55725">
        <ele>43.172604</ele>
        <time>2013-02-21T14:32:07Z</time>
      </trkpt>
      <trkpt lat="46.35035" lon="-0.55731">
        <ele>43.172604</ele>
        <time>2013-02-21T14:32:12Z</time>
      </trkpt>
      <trkpt lat="46.35037" lon="-0.5574">
        <ele>43.652637</ele>
        <time>2013-02-21T14:32:17Z</time>
      </trkpt>
      <trkpt lat="46.35041" lon="-0.55746">
        <ele>43.652637</ele>
        <time>2013-02-21T14:32:22Z</time>
      </trkpt>
      <trkpt lat="46.35043" lon="-0.55756">
        <ele>44.159687</ele>
        <time>2013-02-21T14:32:27Z</time>
      </trkpt>
      <trkpt lat="46.35047" lon="-0.55762">
        <ele>44.159687</ele>
        <time>2013-02-21T14:32:32Z</time>
      </trkpt>
      <trkpt lat="46.35049" lon="-0.55768">
        <ele>44.820232</ele>
        <time>2013-02-21T14:32:37Z</time>
      </trkpt>
      <trkpt lat="46.35051" lon="-0.55778">
        <ele>44.820232</ele>
        <time>2013-02-21T14:32:42Z</time>
      </trkpt>
      <trkpt lat="46.35054" lon="-0.55786">
        <ele>45.088146</ele>
        <time>2013-02-21T14:32:47Z</time>
      </trkpt>
      <trkpt lat="46.35057" lon="-0.55792">
        <ele>45.088146</ele>
        <time>2013-02-21T14:32:52Z</time>
      </trkpt>
      <trkpt lat="46.3506" lon="-0.558">
        <ele>45.39527</ele>
        <time>2013-02-21T14:32:57Z</time>
      </trkpt>
      <trkpt lat="46.35064" lon="-0.55807">
        <ele>45.39527</ele>
        <time>2013-02-21T14:33:02Z</time>
      </trkpt>
      <trkpt lat="46.35066" lon="-0.55815">
        <ele>45.132847</ele>
        <time>2013-02-21T14:33:07Z</time>
      </trkpt>
      <trkpt lat="46.35068" lon="-0.55823">
        <ele>45.132847</ele>
        <time>2013-02-21T14:33:12Z</time>
      </trkpt>
      <trkpt lat="46.35071" lon="-0.55829">
        <ele>44.87694</ele>
        <time>2013-02-21T14:33:17Z</time>
      </trkpt>
      <trkpt lat="46.35075" lon="-0.55836">
        <ele>44.87694</ele>
        <time>2013-02-21T14:33:22Z</time>
      </trkpt>
      <trkpt lat="46.35079" lon="-0.55842">
        <ele>44.325447</ele>
        <time>2013-02-21T14:33:27Z</time>
      </trkpt>
      <trkpt lat="46.35085" lon="-0.55845">
        <ele>44.325447</ele>
        <time>2013-02-21T14:33:32Z</time>
      </trkpt>
      <trkpt lat="46.3509" lon="-0.55845">
        <ele>43.703686</ele>
        <time>2013-02-21T14:33:37Z</time>
      </trkpt>
      <trkpt lat="46.35096" lon="-0.55844">
        <ele>43.703686</ele>
        <time>2013-02-21T14:33:42Z</time>
      </trkpt>
      <trkpt lat="46.35101" lon="-0.55841">
        <ele>43.177402</ele>
        <time>2013-02-21T14:33:47Z</time>
      </trkpt>
      <trkpt lat="46.35107" lon="-0.55838">
        <ele>43.177402</ele>
        <time>2013-02-21T14:33:52Z</time>
      </trkpt>
      <trkpt lat="46.35112" lon="-0.55834">
        <ele>42.755775</ele>
        <time>2013-02-21T14:33:57Z</time>
      </trkpt>
      <trkpt lat="46.35117" lon="-0.55831">
        <ele>42.755775</ele>
        <time>2013-02-21T14:34:02Z</time>
      </trkpt>
      <trkpt lat="46.35122" lon="-0.55829">
        <ele>42.432606</ele>
        <time>2013-02-21T14:34:07Z</time>
      </trkpt>
      <trkpt lat="46.35126" lon="-0.55825">
        <ele>42.432606</ele>
        <time>2013-02-21T14:34:12Z</time>
      </trkpt>
      <trkpt lat="46.35131" lon="-0.55823">
        <ele>42.25951</ele>
        <time>2013-02-21T14:34:17Z</time>
      </trkpt>
      <trkpt lat="46.35136" lon="-0.55819">
        <ele>42.25951</ele>
        <time>2013-02-21T14:34:22Z</time>
      </trkpt>
      <trkpt lat="46.35141" lon="-0.55817">
        <ele>42.168587</ele>
        <time>2013-02-21T14:34:27Z</time>
      </trkpt>
      <trkpt lat="46.35146" lon="-0.55814">
        <ele>42.168587</ele>
        <time>2013-02-21T14:34:32Z</time>
      </trkpt>
      <trkpt lat="46.35152" lon="-0.55811">
        <ele>42.154327</ele>
        <time>2013-02-21T14:34:37Z</time>
      </trkpt>
      <trkpt lat="46.35157" lon="-0.55808">
        <ele>42.154327</ele>
        <time>2013-02-21T14:34:42Z</time>
      </trkpt>
      <trkpt lat="46.35161" lon="-0.55804">
        <ele>42.211403</ele>
        <time>2013-02-21T14:34:47Z</time>
      </trkpt>
      <trkpt lat="46.35166" lon="-0.55801">
        <ele>42.211403</ele>
        <time>2013-02-21T14:34:52Z</time>
      </trkpt>
      <trkpt lat="46.3517" lon="-0.55799">
        <ele>42.32024</ele>
        <time>2013-02-21T14:34:57Z</time>
      </trkpt>
      <trkpt lat="46.35176" lon="-0.55796">
        <ele>42.32024</ele>
        <time>2013-02-21T14:35:02Z</time>
      </trkpt>
      <trkpt lat="46.3518" lon="-0.55793">
        <ele>42.476963</ele>
        <time>2013-02-21T14:35:07Z</time>
      </trkpt>
      <trkpt lat="46.35185" lon="-0.5579">
        <ele>42.476963</ele>
        <time>2013-02-21T14:35:12Z</time>
      </trkpt>
      <trkpt lat="46.3519" lon="-0.55787">
        <ele>42.620193</ele>
        <time>2013-02-21T14:35:17Z</time>
      </trkpt>
      <trkpt lat="46.35195" lon="-0.55784">
        <ele>42.620193</ele>
        <time>2013-02-21T14:35:22Z</time>
      </trkpt>
      <trkpt lat="46.35199" lon="-0.55781">
        <ele>42.69308</ele>
        <time>2013-02-21T14:35:27Z</time>
      </trkpt>
      <trkpt lat="46.35204" lon="-0.55779">
        <ele>42.69308</ele>
        <time>2013-02-21T14:35:32Z</time>
      </trkpt>
      <trkpt lat="46.35209" lon="-0.55775">
        <ele>42.830486</ele>
        <time>2013-02-21T14:35:37Z</time>
      </trkpt>
      <trkpt lat="46.35213" lon="-0.55773">
        <ele>42.830486</ele>
        <time>2013-02-21T14:35:42Z</time>
      </trkpt>
      <trkpt lat="46.35218" lon="-0.5577">
        <ele>42.99866</ele>
        <time>2013-02-21T14:35:47Z</time>
      </trkpt>
      <trkpt lat="46.35223" lon="-0.55767">
        <ele>42.99866</ele>
        <time>2013-02-21T14:35:52Z</time>
      </trkpt>
      <trkpt lat="46.35228" lon="-0.55764">
        <ele>43.166225</ele>
        <time>2013-02-21T14:35:57Z</time>
      </trkpt>
      <trkpt lat="46.35232" lon="-0.55761">
        <ele>43.166225</ele>
        <time>2013-02-21T14:36:02Z</time>
      </trkpt>
      <trkpt lat="46.35237" lon="-0.55758">
        <ele>43.332935</ele>
        <time>2013-02-21T14:36:07Z</time>
      </trkpt>
      <trkpt lat="46.3524" lon="-0.55756">
        <ele>43.332935</ele>
        <time>2013-02-21T14:36:12Z</time>
      </trkpt>
      <trkpt lat="46.35241" lon="-0.55754">
        <ele>43.332935</ele>
        <time>2013-02-21T14:36:17Z</time>
      </trkpt>
      <trkpt lat="46.35244" lon="-0.55754">
        <ele>43.332935</ele>
        <time>2013-02-21T14:36:22Z</time>
      </trkpt>
      <trkpt lat="46.35249" lon="-0.55757">
        <ele>43.585026</ele>
        <time>2013-02-21T14:36:27Z</time>
      </trkpt>
      <trkpt lat="46.3525" lon="-0.55761">
        <ele>43.585026</ele>
        <time>2013-02-21T14:36:32Z</time>
      </trkpt>
      <trkpt lat="46.35253" lon="-0.55767">
        <ele>43.585026</ele>
        <time>2013-02-21T14:36:37Z</time>
      </trkpt>
      <trkpt lat="46.35254" lon="-0.55771">
        <ele>44.088623</ele>
        <time>2013-02-21T14:36:42Z</time>
      </trkpt>
      <trkpt lat="46.35255" lon="-0.55779">
        <ele>44.088623</ele>
        <time>2013-02-21T14:36:47Z</time>
      </trkpt>
      <trkpt lat="46.35256" lon="-0.55786">
        <ele>44.550198</ele>
        <time>2013-02-21T14:36:52Z</time>
      </trkpt>
      <trkpt lat="46.35257" lon="-0.55792">
        <ele>44.550198</ele>
        <time>2013-02-21T14:36:57Z</time>
      </trkpt>
      <trkpt lat="46.35259" lon="-0.55799">
        <ele>44.784367</ele>
        <time>2013-02-21T14:37:02Z</time>
      </trkpt>
      <trkpt lat="46.3526" lon="-0.55807">
        <ele>44.784367</ele>
        <time>2013-02-21T14:37:07Z</time>
      </trkpt>
      <trkpt lat="46.35261" lon="-0.55815">
        <ele>44.85059</ele>
        <time>2013-02-21T14:37:12Z</time>
      </trkpt>
      <trkpt lat="46.35263" lon="-0.55822">
        <ele>44.85059</ele>
        <time>2013-02-21T14:37:17Z</time>
      </trkpt>
      <trkpt lat="46.35264" lon="-0.55829">
        <ele>44.47298</ele>
        <time>2013-02-21T14:37:22Z</time>
      </trkpt>
      <trkpt lat="46.35265" lon="-0.55839">
        <ele>44.47298</ele>
        <time>2013-02-21T14:37:27Z</time>
      </trkpt>
      <trkpt lat="46.35265" lon="-0.55847">
        <ele>44.146538</ele>
        <time>2013-02-21T14:37:32Z</time>
      </trkpt>
      <trkpt lat="46.35266" lon="-0.55855">
        <ele>44.146538</ele>
        <time>2013-02-21T14:37:37Z</time>
      </trkpt>
      <trkpt lat="46.35267" lon="-0.55865">
        <ele>43.76773</ele>
        <time>2013-02-21T14:37:42Z</time>
      </trkpt>
      <trkpt lat="46.35268" lon="-0.55872">
        <ele>43.76773</ele>
        <time>2013-02-21T14:37:47Z</time>
      </trkpt>
      <trkpt lat="46.35268" lon="-0.55882">
        <ele>43.615467</ele>
        <time>2013-02-21T14:37:52Z</time>
      </trkpt>
      <trkpt lat="46.35268" lon="-0.5589">
        <ele>43.615467</ele>
        <time>2013-02-21T14:37:57Z</time>
      </trkpt>
      <trkpt lat="46.35268" lon="-0.55897">
        <ele>43.587246</ele>
        <time>2013-02-21T14:38:02Z</time>
      </trkpt>
      <trkpt lat="46.35266" lon="-0.55904">
        <ele>43.587246</ele>
        <time>2013-02-21T14:38:07Z</time>
      </trkpt>
      <trkpt lat="46.35266" lon="-0.55911">
        <ele>43.44363</ele>
        <time>2013-02-21T14:38:12Z</time>
      </trkpt>
      <trkpt lat="46.35266" lon="-0.55919">
        <ele>43.44363</ele>
        <time>2013-02-21T14:38:17Z</time>
      </trkpt>
      <trkpt lat="46.35266" lon="-0.55922">
        <ele>43.44363</ele>
        <time>2013-02-21T14:38:22Z</time>
      </trkpt>
      <trkpt lat="46.35268" lon="-0.55928">
        <ele>43.10721</ele>
        <time>2013-02-21T14:38:27Z</time>
      </trkpt>
      <trkpt lat="46.35266" lon="-0.55935">
        <ele>43.10721</ele>
        <time>2013-02-21T14:38:32Z</time>
      </trkpt>
      <trkpt lat="46.35266" lon="-0.55942">
        <ele>42.881462</ele>
        <time>2013-02-21T14:38:37Z</time>
      </trkpt>
      <trkpt lat="46.35265" lon="-0.55951">
        <ele>42.881462</ele>
        <time>2013-02-21T14:38:42Z</time>
      </trkpt>
      <trkpt lat="46.35265" lon="-0.55957">
        <ele>42.744637</ele>
        <time>2013-02-21T14:38:47Z</time>
      </trkpt>
      <trkpt lat="46.35265" lon="-0.55962">
        <ele>42.744637</ele>
        <time>2013-02-21T14:38:52Z</time>
      </trkpt>
      <trkpt lat="46.35265" lon="-0.55971">
        <ele>42.445732</ele>
        <time>2013-02-21T14:38:57Z</time>
      </trkpt>
      <trkpt lat="46.35265" lon="-0.55977">
        <ele>42.445732</ele>
        <time>2013-02-21T14:39:02Z</time>
      </trkpt>
      <trkpt lat="46.35266" lon="-0.55985">
        <ele>42.012028</ele>
        <time>2013-02-21T14:39:07Z</time>
      </trkpt>
      <trkpt lat="46.35266" lon="-0.55993">
        <ele>42.012028</ele>
        <time>2013-02-21T14:39:12Z</time>
      </trkpt>
      <trkpt lat="46.35267" lon="-0.56">
        <ele>41.42593</ele>
        <time>2013-02-21T14:39:17Z</time>
      </trkpt>
      <trkpt lat="46.35267" lon="-0.56009">
        <ele>41.42593</ele>
        <time>2013-02-21T14:39:22Z</time>
      </trkpt>
      <trkpt lat="46.35268" lon="-0.56018">
        <ele>40.80124</ele>
        <time>2013-02-21T14:39:27Z</time>
      </trkpt>
      <trkpt lat="46.35269" lon="-0.56025">
        <ele>40.80124</ele>
        <time>2013-02-21T14:39:32Z</time>
      </trkpt>
      <trkpt lat="46.35271" lon="-0.56033">
        <ele>39.83998</ele>
        <time>2013-02-21T14:39:37Z</time>
      </trkpt>
      <trkpt lat="46.35272" lon="-0.5604">
        <ele>39.83998</ele>
        <time>2013-02-21T14:39:42Z</time>
      </trkpt>
      <trkpt lat="46.35272" lon="-0.56047">
        <ele>38.97313</ele>
        <time>2013-02-21T14:39:47Z</time>
      </trkpt>
      <trkpt lat="46.35273" lon="-0.56055">
        <ele>38.97313</ele>
        <time>2013-02-21T14:39:52Z</time>
      </trkpt>
      <trkpt lat="46.35274" lon="-0.56065">
        <ele>38.325882</ele>
        <time>2013-02-21T14:39:57Z</time>
      </trkpt>
      <trkpt lat="46.35277" lon="-0.56071">
        <ele>38.325882</ele>
        <time>2013-02-21T14:40:02Z</time>
      </trkpt>
      <trkpt lat="46.35279" lon="-0.5608">
        <ele>38.028015</ele>
        <time>2013-02-21T14:40:07Z</time>
      </trkpt>
      <trkpt lat="46.35282" lon="-0.56088">
        <ele>38.028015</ele>
        <time>2013-02-21T14:40:12Z</time>
      </trkpt>
      <trkpt lat="46.35285" lon="-0.56096">
        <ele>38.083458</ele>
        <time>2013-02-21T14:40:17Z</time>
      </trkpt>
      <trkpt lat="46.35288" lon="-0.56104">
        <ele>38.083458</ele>
        <time>2013-02-21T14:40:22Z</time>
      </trkpt>
      <trkpt lat="46.3529" lon="-0.56111">
        <ele>37.918373</ele>
        <time>2013-02-21T14:40:27Z</time>
      </trkpt>
      <trkpt lat="46.35293" lon="-0.56118">
        <ele>37.918373</ele>
        <time>2013-02-21T14:40:32Z</time>
      </trkpt>
      <trkpt lat="46.35295" lon="-0.56124">
        <ele>37.89516</ele>
        <time>2013-02-21T14:40:37Z</time>
      </trkpt>
      <trkpt lat="46.35298" lon="-0.56131">
        <ele>37.89516</ele>
        <time>2013-02-21T14:40:42Z</time>
      </trkpt>
      <trkpt lat="46.35299" lon="-0.5614">
        <ele>38.03212</ele>
        <time>2013-02-21T14:40:47Z</time>
      </trkpt>
      <trkpt lat="46.353" lon="-0.56147">
        <ele>38.03212</ele>
        <time>2013-02-21T14:40:52Z</time>
      </trkpt>
      <trkpt lat="46.35303" lon="-0.56154">
        <ele>37.971027</ele>
        <time>2013-02-21T14:40:57Z</time>
      </trkpt>
      <trkpt lat="46.35306" lon="-0.56162">
        <ele>37.971027</ele>
        <time>2013-02-21T14:41:02Z</time>
      </trkpt>
      <trkpt lat="46.35309" lon="-0.56169">
        <ele>38.057842</ele>
        <time>2013-02-21T14:41:07Z</time>
      </trkpt>
      <trkpt lat="46.35312" lon="-0.56176">
        <ele>38.057842</ele>
        <time>2013-02-21T14:41:12Z</time>
      </trkpt>
      <trkpt lat="46.35314" lon="-0.56184">
        <ele>38.050625</ele>
        <time>2013-02-21T14:41:17Z</time>
      </trkpt>
      <trkpt lat="46.35316" lon="-0.56192">
        <ele>38.050625</ele>
        <time>2013-02-21T14:41:22Z</time>
      </trkpt>
      <trkpt lat="46.35319" lon="-0.56199">
        <ele>37.92721</ele>
        <time>2013-02-21T14:41:27Z</time>
      </trkpt>
      <trkpt lat="46.35321" lon="-0.56208">
        <ele>37.92721</ele>
        <time>2013-02-21T14:41:32Z</time>
      </trkpt>
      <trkpt lat="46.35323" lon="-0.56216">
        <ele>37.76825</ele>
        <time>2013-02-21T14:41:37Z</time>
      </trkpt>
      <trkpt lat="46.35325" lon="-0.56223">
        <ele>37.76825</ele>
        <time>2013-02-21T14:41:42Z</time>
      </trkpt>
      <trkpt lat="46.35326" lon="-0.56231">
        <ele>37.648544</ele>
        <time>2013-02-21T14:41:47Z</time>
      </trkpt>
      <trkpt lat="46.35328" lon="-0.5624">
        <ele>37.648544</ele>
        <time>2013-02-21T14:41:52Z</time>
      </trkpt>
      <trkpt lat="46.35329" lon="-0.56248">
        <ele>37.52199</ele>
        <time>2013-02-21T14:41:57Z</time>
      </trkpt>
      <trkpt lat="46.3533" lon="-0.56257">
        <ele>37.52199</ele>
        <time>2013-02-21T14:42:02Z</time>
      </trkpt>
      <trkpt lat="46.35331" lon="-0.56265">
        <ele>37.244995</ele>
        <time>2013-02-21T14:42:07Z</time>
      </trkpt>
      <trkpt lat="46.35332" lon="-0.56274">
        <ele>37.244995</ele>
        <time>2013-02-21T14:42:12Z</time>
      </trkpt>
      <trkpt lat="46.35333" lon="-0.56282">
        <ele>36.90109</ele>
        <time>2013-02-21T14:42:17Z</time>
      </trkpt>
      <trkpt lat="46.35332" lon="-0.56292">
        <ele>36.90109</ele>
        <time>2013-02-21T14:42:22Z</time>
      </trkpt>
      <trkpt lat="46.35332" lon="-0.563">
        <ele>36.784008</ele>
        <time>2013-02-21T14:42:27Z</time>
      </trkpt>
      <trkpt lat="46.35332" lon="-0.56308">
        <ele>36.784008</ele>
        <time>2013-02-21T14:42:32Z</time>
      </trkpt>
      <trkpt lat="46.35331" lon="-0.56316">
        <ele>36.41588</ele>
        <time>2013-02-21T14:42:37Z</time>
      </trkpt>
      <trkpt lat="46.3533" lon="-0.56325">
        <ele>36.41588</ele>
        <time>2013-02-21T14:42:42Z</time>
      </trkpt>
      <trkpt lat="46.35329" lon="-0.56332">
        <ele>36.16164</ele>
        <time>2013-02-21T14:42:47Z</time>
      </trkpt>
      <trkpt lat="46.35327" lon="-0.56341">
        <ele>36.16164</ele>
        <time>2013-02-21T14:42:52Z</time>
      </trkpt>
      <trkpt lat="46.35325" lon="-0.56349">
        <ele>35.955585</ele>
        <time>2013-02-21T14:42:57Z</time>
      </trkpt>
      <trkpt lat="46.35324" lon="-0.56358">
        <ele>35.955585</ele>
        <time>2013-02-21T14:43:02Z</time>
      </trkpt>
      <trkpt lat="46.35322" lon="-0.56366">
        <ele>35.664635</ele>
        <time>2013-02-21T14:43:07Z</time>
      </trkpt>
      <trkpt lat="46.3532" lon="-0.56373">
        <ele>35.664635</ele>
        <time>2013-02-21T14:43:12Z</time>
      </trkpt>
      <trkpt lat="46.35319" lon="-0.56382">
        <ele>35.309803</ele>
        <time>2013-02-21T14:43:17Z</time>
      </trkpt>
      <trkpt lat="46.35319" lon="-0.56389">
        <ele>35.309803</ele>
        <time>2013-02-21T14:43:22Z</time>
      </trkpt>
      <trkpt lat="46.3532" lon="-0.56395">
        <ele>34.953968</ele>
        <time>2013-02-21T14:43:27Z</time>
      </trkpt>
      <trkpt lat="46.35325" lon="-0.56396">
        <ele>34.953968</ele>
        <time>2013-02-21T14:43:32Z</time>
      </trkpt>
      <trkpt lat="46.3533" lon="-0.56393">
        <ele>34.352753</ele>
        <time>2013-02-21T14:43:37Z</time>
      </trkpt>
      <trkpt lat="46.35336" lon="-0.56389">
        <ele>34.352753</ele>
        <time>2013-02-21T14:43:42Z</time>
      </trkpt>
      <trkpt lat="46.35341" lon="-0.56386">
        <ele>34.130646</ele>
        <time>2013-02-21T14:43:47Z</time>
      </trkpt>
      <trkpt lat="46.35345" lon="-0.56382">
        <ele>34.130646</ele>
        <time>2013-02-21T14:43:52Z</time>
      </trkpt>
      <trkpt lat="46.3535" lon="-0.56378">
        <ele>34.000523</ele>
        <time>2013-02-21T14:43:57Z</time>
      </trkpt>
      <trkpt lat="46.35354" lon="-0.56374">
        <ele>34.000523</ele>
        <time>2013-02-21T14:44:02Z</time>
      </trkpt>
      <trkpt lat="46.3536" lon="-0.56371">
        <ele>33.9843</ele>
        <time>2013-02-21T14:44:07Z</time>
      </trkpt>
      <trkpt lat="46.35364" lon="-0.56368">
        <ele>33.9843</ele>
        <time>2013-02-21T14:44:12Z</time>
      </trkpt>
      <trkpt lat="46.35369" lon="-0.56364">
        <ele>34.145176</ele>
        <time>2013-02-21T14:44:17Z</time>
      </trkpt>
      <trkpt lat="46.35374" lon="-0.56362">
        <ele>34.145176</ele>
        <time>2013-02-21T14:44:22Z</time>
      </trkpt>
      <trkpt lat="46.3538" lon="-0.56359">
        <ele>34.339455</ele>
        <time>2013-02-21T14:44:27Z</time>
      </trkpt>
      <trkpt lat="46.35385" lon="-0.56355">
        <ele>34.339455</ele>
        <time>2013-02-21T14:44:32Z</time>
      </trkpt>
      <trkpt lat="46.3539" lon="-0.56352">
        <ele>34.621235</ele>
        <time>2013-02-21T14:44:37Z</time>
      </trkpt>
      <trkpt lat="46.35396" lon="-0.56348">
        <ele>34.621235</ele>
        <time>2013-02-21T14:44:42Z</time>
      </trkpt>
      <trkpt lat="46.354" lon="-0.56345">
        <ele>35.069214</ele>
        <time>2013-02-21T14:44:47Z</time>
      </trkpt>
      <trkpt lat="46.35404" lon="-0.56342">
        <ele>35.069214</ele>
        <time>2013-02-21T14:44:52Z</time>
      </trkpt>
      <trkpt lat="46.35408" lon="-0.5634">
        <ele>35.51085</ele>
        <time>2013-02-21T14:44:57Z</time>
      </trkpt>
      <trkpt lat="46.35412" lon="-0.56337">
        <ele>35.51085</ele>
        <time>2013-02-21T14:45:02Z</time>
      </trkpt>
      <trkpt lat="46.35417" lon="-0.56334">
        <ele>35.916</ele>
        <time>2013-02-21T14:45:07Z</time>
      </trkpt>
      <trkpt lat="46.35422" lon="-0.56331">
        <ele>35.916</ele>
        <time>2013-02-21T14:45:12Z</time>
      </trkpt>
      <trkpt lat="46.35426" lon="-0.56327">
        <ele>36.271267</ele>
        <time>2013-02-21T14:45:17Z</time>
      </trkpt>
      <trkpt lat="46.35431" lon="-0.56324">
        <ele>36.271267</ele>
        <time>2013-02-21T14:45:22Z</time>
      </trkpt>
      <trkpt lat="46.35435" lon="-0.56322">
        <ele>36.93907</ele>
        <time>2013-02-21T14:45:27Z</time>
      </trkpt>
      <trkpt lat="46.3544" lon="-0.56319">
        <ele>36.93907</ele>
        <time>2013-02-21T14:45:32Z</time>
      </trkpt>
      <trkpt lat="46.35445" lon="-0.56317">
        <ele>37.822025</ele>
        <time>2013-02-21T14:45:37Z</time>
      </trkpt>
      <trkpt lat="46.35448" lon="-0.56315">
        <ele>37.822025</ele>
        <time>2013-02-21T14:45:42Z</time>
      </trkpt>
      <trkpt lat="46.35453" lon="-0.56314">
        <ele>37.822025</ele>
        <time>2013-02-21T14:45:47Z</time>
      </trkpt>
      <trkpt lat="46.35458" lon="-0.56312">
        <ele>38.90137</ele>
        <time>2013-02-21T14:45:52Z</time>
      </trkpt>
      <trkpt lat="46.35463" lon="-0.5631">
        <ele>38.90137</ele>
        <time>2013-02-21T14:45:57Z</time>
      </trkpt>
      <trkpt lat="46.35469" lon="-0.56309">
        <ele>40.043926</ele>
        <time>2013-02-21T14:46:02Z</time>
      </trkpt>
      <trkpt lat="46.35475" lon="-0.56308">
        <ele>40.043926</ele>
        <time>2013-02-21T14:46:07Z</time>
      </trkpt>
      <trkpt lat="46.35482" lon="-0.56307">
        <ele>41.140553</ele>
        <time>2013-02-21T14:46:12Z</time>
      </trkpt>
      <trkpt lat="46.35487" lon="-0.56307">
        <ele>41.140553</ele>
        <time>2013-02-21T14:46:17Z</time>
      </trkpt>
      <trkpt lat="46.35492" lon="-0.56307">
        <ele>42.133553</ele>
        <time>2013-02-21T14:46:22Z</time>
      </trkpt>
      <trkpt lat="46.35497" lon="-0.56307">
        <ele>42.133553</ele>
        <time>2013-02-21T14:46:27Z</time>
      </trkpt>
      <trkpt lat="46.35503" lon="-0.56307">
        <ele>43.07068</ele>
        <time>2013-02-21T14:46:32Z</time>
      </trkpt>
      <trkpt lat="46.35508" lon="-0.56305">
        <ele>43.07068</ele>
        <time>2013-02-21T14:46:37Z</time>
      </trkpt>
      <trkpt lat="46.35514" lon="-0.56307">
        <ele>44.08286</ele>
        <time>2013-02-21T14:46:42Z</time>
      </trkpt>
      <trkpt lat="46.3552" lon="-0.56308">
        <ele>44.08286</ele>
        <time>2013-02-21T14:46:47Z</time>
      </trkpt>
      <trkpt lat="46.35523" lon="-0.56309">
        <ele>45.175972</ele>
        <time>2013-02-21T14:46:52Z</time>
      </trkpt>
      <trkpt lat="46.35529" lon="-0.5631">
        <ele>45.175972</ele>
        <time>2013-02-21T14:46:57Z</time>
      </trkpt>
      <trkpt lat="46.35535" lon="-0.56311">
        <ele>46.326477</ele>
        <time>2013-02-21T14:47:02Z</time>
      </trkpt>
      <trkpt lat="46.35541" lon="-0.56312">
        <ele>46.326477</ele>
        <time>2013-02-21T14:47:07Z</time>
      </trkpt>
      <trkpt lat="46.35546" lon="-0.56312">
        <ele>47.281902</ele>
        <time>2013-02-21T14:47:12Z</time>
      </trkpt>
      <trkpt lat="46.35551" lon="-0.56312">
        <ele>47.281902</ele>
        <time>2013-02-21T14:47:17Z</time>
      </trkpt>
      <trkpt lat="46.35556" lon="-0.56311">
        <ele>48.255684</ele>
        <time>2013-02-21T14:47:22Z</time>
      </trkpt>
      <trkpt lat="46.3556" lon="-0.56309">
        <ele>48.255684</ele>
        <time>2013-02-21T14:47:27Z</time>
      </trkpt>
      <trkpt lat="46.35565" lon="-0.56307">
        <ele>49.229446</ele>
        <time>2013-02-21T14:47:32Z</time>
      </trkpt>
      <trkpt lat="46.3557" lon="-0.56305">
        <ele>49.229446</ele>
        <time>2013-02-21T14:47:37Z</time>
      </trkpt>
      <trkpt lat="46.35574" lon="-0.56304">
        <ele>49.984478</ele>
        <time>2013-02-21T14:47:42Z</time>
      </trkpt>
      <trkpt lat="46.35579" lon="-0.56302">
        <ele>49.984478</ele>
        <time>2013-02-21T14:47:47Z</time>
      </trkpt>
      <trkpt lat="46.35584" lon="-0.563">
        <ele>50.49177</ele>
        <time>2013-02-21T14:47:52Z</time>
      </trkpt>
      <trkpt lat="46.35588" lon="-0.56297">
        <ele>50.49177</ele>
        <time>2013-02-21T14:47:57Z</time>
      </trkpt>
      <trkpt lat="46.35594" lon="-0.56295">
        <ele>50.89815</ele>
        <time>2013-02-21T14:48:02Z</time>
      </trkpt>
      <trkpt lat="46.35599" lon="-0.56293">
        <ele>50.89815</ele>
        <time>2013-02-21T14:48:07Z</time>
      </trkpt>
      <trkpt lat="46.35602" lon="-0.56291">
        <ele>50.89815</ele>
        <time>2013-02-21T14:48:12Z</time>
      </trkpt>
      <trkpt lat="46.35608" lon="-0.56289">
        <ele>51.498547</ele>
        <time>2013-02-21T14:48:17Z</time>
      </trkpt>
      <trkpt lat="46.35614" lon="-0.56287">
        <ele>51.498547</ele>
        <time>2013-02-21T14:48:22Z</time>
      </trkpt>
      <trkpt lat="46.35618" lon="-0.56285">
        <ele>52.075768</ele>
        <time>2013-02-21T14:48:27Z</time>
      </trkpt>
      <trkpt lat="46.35623" lon="-0.56282">
        <ele>52.075768</ele>
        <time>2013-02-21T14:48:32Z</time>
      </trkpt>
      <trkpt lat="46.35629" lon="-0.5628">
        <ele>52.861053</ele>
        <time>2013-02-21T14:48:37Z</time>
      </trkpt>
      <trkpt lat="46.35634" lon="-0.56278">
        <ele>52.861053</ele>
        <time>2013-02-21T14:48:42Z</time>
      </trkpt>
      <trkpt lat="46.35639" lon="-0.56275">
        <ele>53.59258</ele>
        <time>2013-02-21T14:48:47Z</time>
      </trkpt>
      <trkpt lat="46.35643" lon="-0.56273">
        <ele>53.59258</ele>
        <time>2013-02-21T14:48:52Z</time>
      </trkpt>
      <trkpt lat="46.35647" lon="-0.56271">
        <ele>53.59258</ele>
        <time>2013-02-21T14:48:57Z</time>
      </trkpt>
      <trkpt lat="46.35652" lon="-0.5627">
        <ele>54.10003</ele>
        <time>2013-02-21T14:49:02Z</time>
      </trkpt>
      <trkpt lat="46.35656" lon="-0.56268">
        <ele>54.10003</ele>
        <time>2013-02-21T14:49:07Z</time>
      </trkpt>
      <trkpt lat="46.35661" lon="-0.56266">
        <ele>54.341576</ele>
        <time>2013-02-21T14:49:12Z</time>
      </trkpt>
      <trkpt lat="46.35666" lon="-0.56265">
        <ele>54.341576</ele>
        <time>2013-02-21T14:49:17Z</time>
      </trkpt>
      <trkpt lat="46.3567" lon="-0.56263">
        <ele>54.553097</ele>
        <time>2013-02-21T14:49:22Z</time>
      </trkpt>
      <trkpt lat="46.35675" lon="-0.56261">
        <ele>54.553097</ele>
        <time>2013-02-21T14:49:27Z</time>
      </trkpt>
      <trkpt lat="46.35681" lon="-0.56259">
        <ele>54.737106</ele>
        <time>2013-02-21T14:49:32Z</time>
      </trkpt>
      <trkpt lat="46.35685" lon="-0.56258">
        <ele>54.737106</ele>
        <time>2013-02-21T14:49:37Z</time>
      </trkpt>
      <trkpt lat="46.35691" lon="-0.56256">
        <ele>54.91049</ele>
        <time>2013-02-21T14:49:42Z</time>
      </trkpt>
      <trkpt lat="46.35697" lon="-0.56254">
        <ele>54.91049</ele>
        <time>2013-02-21T14:49:47Z</time>
      </trkpt>
      <trkpt lat="46.35702" lon="-0.56252">
        <ele>55.04572</ele>
        <time>2013-02-21T14:49:52Z</time>
      </trkpt>
      <trkpt lat="46.35706" lon="-0.5625">
        <ele>55.04572</ele>
        <time>2013-02-21T14:49:57Z</time>
      </trkpt>
      <trkpt lat="46.35712" lon="-0.56249">
        <ele>55.218338</ele>
        <time>2013-02-21T14:50:02Z</time>
      </trkpt>
      <trkpt lat="46.35718" lon="-0.56248">
        <ele>55.218338</ele>
        <time>2013-02-21T14:50:07Z</time>
      </trkpt>
      <trkpt lat="46.35722" lon="-0.56246">
        <ele>55.52708</ele>
        <time>2013-02-21T14:50:12Z</time>
      </trkpt>
      <trkpt lat="46.35728" lon="-0.56245">
        <ele>55.52708</ele>
        <time>2013-02-21T14:50:18Z</time>
      </trkpt>
      <trkpt lat="46.35734" lon="-0.56243">
        <ele>55.86133</ele>
        <time>2013-02-21T14:50:22Z</time>
      </trkpt>
      <trkpt lat="46.35739" lon="-0.56243">
        <ele>55.86133</ele>
        <time>2013-02-21T14:50:27Z</time>
      </trkpt>
      <trkpt lat="46.35743" lon="-0.56242">
        <ele>56.33472</ele>
        <time>2013-02-21T14:50:32Z</time>
      </trkpt>
      <trkpt lat="46.35748" lon="-0.56242">
        <ele>56.33472</ele>
        <time>2013-02-21T14:50:37Z</time>
      </trkpt>
      <trkpt lat="46.35755" lon="-0.5624">
        <ele>56.778366</ele>
        <time>2013-02-21T14:50:42Z</time>
      </trkpt>
      <trkpt lat="46.35759" lon="-0.56238">
        <ele>56.778366</ele>
        <time>2013-02-21T14:50:47Z</time>
      </trkpt>
      <trkpt lat="46.35766" lon="-0.56237">
        <ele>57.295296</ele>
        <time>2013-02-21T14:50:52Z</time>
      </trkpt>
      <trkpt lat="46.35771" lon="-0.56235">
        <ele>57.295296</ele>
        <time>2013-02-21T14:50:57Z</time>
      </trkpt>
      <trkpt lat="46.35776" lon="-0.56235">
        <ele>57.418755</ele>
        <time>2013-02-21T14:51:02Z</time>
      </trkpt>
      <trkpt lat="46.35781" lon="-0.56234">
        <ele>57.418755</ele>
        <time>2013-02-21T14:51:07Z</time>
      </trkpt>
      <trkpt lat="46.35789" lon="-0.56235">
        <ele>57.726177</ele>
        <time>2013-02-21T14:51:12Z</time>
      </trkpt>
      <trkpt lat="46.35792" lon="-0.56235">
        <ele>57.726177</ele>
        <time>2013-02-21T14:51:17Z</time>
      </trkpt>
      <trkpt lat="46.35798" lon="-0.56233">
        <ele>57.726177</ele>
        <time>2013-02-21T14:51:22Z</time>
      </trkpt>
      <trkpt lat="46.35803" lon="-0.56233">
        <ele>58.074757</ele>
        <time>2013-02-21T14:51:27Z</time>
      </trkpt>
      <trkpt lat="46.35808" lon="-0.56231">
        <ele>58.074757</ele>
        <time>2013-02-21T14:51:32Z</time>
      </trkpt>
      <trkpt lat="46.35814" lon="-0.5623">
        <ele>58.70677</ele>
        <time>2013-02-21T14:51:37Z</time>
      </trkpt>
      <trkpt lat="46.35819" lon="-0.5623">
        <ele>58.70677</ele>
        <time>2013-02-21T14:51:42Z</time>
      </trkpt>
      <trkpt lat="46.35824" lon="-0.56229">
        <ele>59.053307</ele>
        <time>2013-02-21T14:51:47Z</time>
      </trkpt>
      <trkpt lat="46.35831" lon="-0.56228">
        <ele>59.053307</ele>
        <time>2013-02-21T14:51:52Z</time>
      </trkpt>
      <trkpt lat="46.35837" lon="-0.56227">
        <ele>59.423904</ele>
        <time>2013-02-21T14:51:57Z</time>
      </trkpt>
      <trkpt lat="46.35842" lon="-0.56225">
        <ele>59.423904</ele>
        <time>2013-02-21T14:52:02Z</time>
      </trkpt>
      <trkpt lat="46.35848" lon="-0.56223">
        <ele>60.076477</ele>
        <time>2013-02-21T14:52:07Z</time>
      </trkpt>
      <trkpt lat="46.35853" lon="-0.56222">
        <ele>60.076477</ele>
        <time>2013-02-21T14:52:12Z</time>
      </trkpt>
      <trkpt lat="46.35858" lon="-0.56222">
        <ele>60.65837</ele>
        <time>2013-02-21T14:52:17Z</time>
      </trkpt>
      <trkpt lat="46.35864" lon="-0.56221">
        <ele>60.65837</ele>
        <time>2013-02-21T14:52:22Z</time>
      </trkpt>
      <trkpt lat="46.35867" lon="-0.5622">
        <ele>60.958324</ele>
        <time>2013-02-21T14:52:27Z</time>
      </trkpt>
      <trkpt lat="46.35871" lon="-0.56218">
        <ele>60.958324</ele>
        <time>2013-02-21T14:52:32Z</time>
      </trkpt>
      <trkpt lat="46.35877" lon="-0.56216">
        <ele>60.93992</ele>
        <time>2013-02-21T14:52:37Z</time>
      </trkpt>
      <trkpt lat="46.35882" lon="-0.56216">
        <ele>60.93992</ele>
        <time>2013-02-21T14:52:42Z</time>
      </trkpt>
      <trkpt lat="46.35888" lon="-0.56216">
        <ele>60.743244</ele>
        <time>2013-02-21T14:52:47Z</time>
      </trkpt>
      <trkpt lat="46.35895" lon="-0.56217">
        <ele>60.743244</ele>
        <time>2013-02-21T14:52:52Z</time>
      </trkpt>
      <trkpt lat="46.359" lon="-0.56215">
        <ele>60.570656</ele>
        <time>2013-02-21T14:52:57Z</time>
      </trkpt>
      <trkpt lat="46.35905" lon="-0.56213">
        <ele>60.570656</ele>
        <time>2013-02-21T14:53:02Z</time>
      </trkpt>
      <trkpt lat="46.35911" lon="-0.56213">
        <ele>60.508705</ele>
        <time>2013-02-21T14:53:07Z</time>
      </trkpt>
      <trkpt lat="46.35916" lon="-0.56211">
        <ele>60.508705</ele>
        <time>2013-02-21T14:53:12Z</time>
      </trkpt>
      <trkpt lat="46.35921" lon="-0.5621">
        <ele>60.23374</ele>
        <time>2013-02-21T14:53:17Z</time>
      </trkpt>
      <trkpt lat="46.35927" lon="-0.56209">
        <ele>60.23374</ele>
        <time>2013-02-21T14:53:22Z</time>
      </trkpt>
      <trkpt lat="46.35932" lon="-0.56208">
        <ele>59.734707</ele>
        <time>2013-02-21T14:53:27Z</time>
      </trkpt>
      <trkpt lat="46.35938" lon="-0.56207">
        <ele>59.734707</ele>
        <time>2013-02-21T14:53:32Z</time>
      </trkpt>
      <trkpt lat="46.35943" lon="-0.56206">
        <ele>58.915497</ele>
        <time>2013-02-21T14:53:37Z</time>
      </trkpt>
      <trkpt lat="46.35949" lon="-0.56204">
        <ele>58.915497</ele>
        <time>2013-02-21T14:53:42Z</time>
      </trkpt>
      <trkpt lat="46.35955" lon="-0.56202">
        <ele>58.077038</ele>
        <time>2013-02-21T14:53:47Z</time>
      </trkpt>
      <trkpt lat="46.35959" lon="-0.56201">
        <ele>58.077038</ele>
        <time>2013-02-21T14:53:52Z</time>
      </trkpt>
      <trkpt lat="46.35964" lon="-0.562">
        <ele>57.31082</ele>
        <time>2013-02-21T14:53:57Z</time>
      </trkpt>
      <trkpt lat="46.3597" lon="-0.56199">
        <ele>57.31082</ele>
        <time>2013-02-21T14:54:02Z</time>
      </trkpt>
      <trkpt lat="46.35976" lon="-0.56199">
        <ele>56.52845</ele>
        <time>2013-02-21T14:54:07Z</time>
      </trkpt>
      <trkpt lat="46.3598" lon="-0.56195">
        <ele>56.52845</ele>
        <time>2013-02-21T14:54:12Z</time>
      </trkpt>
      <trkpt lat="46.35986" lon="-0.56193">
        <ele>55.720066</ele>
        <time>2013-02-21T14:54:17Z</time>
      </trkpt>
      <trkpt lat="46.35992" lon="-0.5619">
        <ele>55.720066</ele>
        <time>2013-02-21T14:54:22Z</time>
      </trkpt>
      <trkpt lat="46.35997" lon="-0.56187">
        <ele>54.977432</ele>
        <time>2013-02-21T14:54:27Z</time>
      </trkpt>
      <trkpt lat="46.36002" lon="-0.56186">
        <ele>54.977432</ele>
        <time>2013-02-21T14:54:32Z</time>
      </trkpt>
      <trkpt lat="46.36008" lon="-0.56184">
        <ele>54.529438</ele>
        <time>2013-02-21T14:54:37Z</time>
      </trkpt>
      <trkpt lat="46.36013" lon="-0.56182">
        <ele>54.529438</ele>
        <time>2013-02-21T14:54:42Z</time>
      </trkpt>
      <trkpt lat="46.36018" lon="-0.56182">
        <ele>53.63614</ele>
        <time>2013-02-21T14:54:47Z</time>
      </trkpt>
      <trkpt lat="46.36023" lon="-0.5618">
        <ele>53.63614</ele>
        <time>2013-02-21T14:54:52Z</time>
      </trkpt>
      <trkpt lat="46.36029" lon="-0.56178">
        <ele>52.737183</ele>
        <time>2013-02-21T14:54:57Z</time>
      </trkpt>
      <trkpt lat="46.36034" lon="-0.56177">
        <ele>52.737183</ele>
        <time>2013-02-21T14:55:02Z</time>
      </trkpt>
      <trkpt lat="46.36039" lon="-0.56175">
        <ele>51.649014</ele>
        <time>2013-02-21T14:55:07Z</time>
      </trkpt>
      <trkpt lat="46.36044" lon="-0.56174">
        <ele>51.649014</ele>
        <time>2013-02-21T14:55:12Z</time>
      </trkpt>
      <trkpt lat="46.3605" lon="-0.56173">
        <ele>50.663162</ele>
        <time>2013-02-21T14:55:17Z</time>
      </trkpt>
      <trkpt lat="46.36055" lon="-0.5617">
        <ele>50.663162</ele>
        <time>2013-02-21T14:55:22Z</time>
      </trkpt>
      <trkpt lat="46.3606" lon="-0.56166">
        <ele>49.703518</ele>
        <time>2013-02-21T14:55:27Z</time>
      </trkpt>
      <trkpt lat="46.36065" lon="-0.56162">
        <ele>49.703518</ele>
        <time>2013-02-21T14:55:32Z</time>
      </trkpt>
      <trkpt lat="46.36068" lon="-0.56156">
        <ele>49.131725</ele>
        <time>2013-02-21T14:55:37Z</time>
      </trkpt>
      <trkpt lat="46.36072" lon="-0.5615">
        <ele>49.131725</ele>
        <time>2013-02-21T14:55:42Z</time>
      </trkpt>
      <trkpt lat="46.36075" lon="-0.56142">
        <ele>48.575546</ele>
        <time>2013-02-21T14:55:47Z</time>
      </trkpt>
      <trkpt lat="46.36077" lon="-0.56135">
        <ele>48.575546</ele>
        <time>2013-02-21T14:55:52Z</time>
      </trkpt>
      <trkpt lat="46.3608" lon="-0.56128">
        <ele>48.035812</ele>
        <time>2013-02-21T14:55:57Z</time>
      </trkpt>
      <trkpt lat="46.36081" lon="-0.56121">
        <ele>48.035812</ele>
        <time>2013-02-21T14:56:02Z</time>
      </trkpt>
      <trkpt lat="46.36081" lon="-0.56112">
        <ele>47.743748</ele>
        <time>2013-02-21T14:56:07Z</time>
      </trkpt>
      <trkpt lat="46.36081" lon="-0.56104">
        <ele>47.743748</ele>
        <time>2013-02-21T14:56:12Z</time>
      </trkpt>
      <trkpt lat="46.36082" lon="-0.56097">
        <ele>47.768696</ele>
        <time>2013-02-21T14:56:17Z</time>
      </trkpt>
      <trkpt lat="46.36084" lon="-0.5609">
        <ele>47.768696</ele>
        <time>2013-02-21T14:56:22Z</time>
      </trkpt>
      <trkpt lat="46.36086" lon="-0.56081">
        <ele>48.073048</ele>
        <time>2013-02-21T14:56:27Z</time>
      </trkpt>
      <trkpt lat="46.36089" lon="-0.56072">
        <ele>48.073048</ele>
        <time>2013-02-21T14:56:32Z</time>
      </trkpt>
      <trkpt lat="46.36092" lon="-0.56062">
        <ele>49.183144</ele>
        <time>2013-02-21T14:56:37Z</time>
      </trkpt>
      <trkpt lat="46.36093" lon="-0.56055">
        <ele>49.183144</ele>
        <time>2013-02-21T14:56:42Z</time>
      </trkpt>
      <trkpt lat="46.36092" lon="-0.56049">
        <ele>49.59559</ele>
        <time>2013-02-21T14:56:47Z</time>
      </trkpt>
      <trkpt lat="46.36094" lon="-0.5604">
        <ele>49.59559</ele>
        <time>2013-02-21T14:56:52Z</time>
      </trkpt>
      <trkpt lat="46.36096" lon="-0.56034">
        <ele>49.86483</ele>
        <time>2013-02-21T14:56:57Z</time>
      </trkpt>
      <trkpt lat="46.36096" lon="-0.56025">
        <ele>49.86483</ele>
        <time>2013-02-21T14:57:02Z</time>
      </trkpt>
      <trkpt lat="46.36096" lon="-0.56018">
        <ele>49.856438</ele>
        <time>2013-02-21T14:57:07Z</time>
      </trkpt>
      <trkpt lat="46.361" lon="-0.5601">
        <ele>49.856438</ele>
        <time>2013-02-21T14:57:12Z</time>
      </trkpt>
      <trkpt lat="46.36101" lon="-0.56004">
        <ele>50.195965</ele>
        <time>2013-02-21T14:57:17Z</time>
      </trkpt>
      <trkpt lat="46.36102" lon="-0.55997">
        <ele>50.195965</ele>
        <time>2013-02-21T14:57:22Z</time>
      </trkpt>
      <trkpt lat="46.36102" lon="-0.55989">
        <ele>50.193825</ele>
        <time>2013-02-21T14:57:27Z</time>
      </trkpt>
      <trkpt lat="46.36103" lon="-0.55981">
        <ele>50.193825</ele>
        <time>2013-02-21T14:57:32Z</time>
      </trkpt>
      <trkpt lat="46.36104" lon="-0.55975">
        <ele>50.1055</ele>
        <time>2013-02-21T14:57:37Z</time>
      </trkpt>
      <trkpt lat="46.36106" lon="-0.55969">
        <ele>50.1055</ele>
        <time>2013-02-21T14:57:42Z</time>
      </trkpt>
      <trkpt lat="46.36107" lon="-0.55963">
        <ele>50.1055</ele>
        <time>2013-02-21T14:57:47Z</time>
      </trkpt>
      <trkpt lat="46.36108" lon="-0.55957">
        <ele>50.484966</ele>
        <time>2013-02-21T14:57:52Z</time>
      </trkpt>
      <trkpt lat="46.36109" lon="-0.55951">
        <ele>50.484966</ele>
        <time>2013-02-21T14:57:57Z</time>
      </trkpt>
      <trkpt lat="46.36111" lon="-0.55943">
        <ele>50.820976</ele>
        <time>2013-02-21T14:58:02Z</time>
      </trkpt>
      <trkpt lat="46.36113" lon="-0.55935">
        <ele>50.820976</ele>
        <time>2013-02-21T14:58:07Z</time>
      </trkpt>
      <trkpt lat="46.36116" lon="-0.55927">
        <ele>51.50461</ele>
        <time>2013-02-21T14:58:12Z</time>
      </trkpt>
      <trkpt lat="46.36118" lon="-0.55919">
        <ele>51.50461</ele>
        <time>2013-02-21T14:58:17Z</time>
      </trkpt>
      <trkpt lat="46.36119" lon="-0.55913">
        <ele>51.72992</ele>
        <time>2013-02-21T14:58:22Z</time>
      </trkpt>
      <trkpt lat="46.36123" lon="-0.55905">
        <ele>51.72992</ele>
        <time>2013-02-21T14:58:27Z</time>
      </trkpt>
      <trkpt lat="46.36126" lon="-0.55899">
        <ele>52.408726</ele>
        <time>2013-02-21T14:58:32Z</time>
      </trkpt>
      <trkpt lat="46.3613" lon="-0.55893">
        <ele>52.408726</ele>
        <time>2013-02-21T14:58:37Z</time>
      </trkpt>
      <trkpt lat="46.36134" lon="-0.55889">
        <ele>53.649628</ele>
        <time>2013-02-21T14:58:42Z</time>
      </trkpt>
      <trkpt lat="46.36136" lon="-0.55882">
        <ele>53.649628</ele>
        <time>2013-02-21T14:58:47Z</time>
      </trkpt>
      <trkpt lat="46.36135" lon="-0.55876">
        <ele>54.75906</ele>
        <time>2013-02-21T14:58:52Z</time>
      </trkpt>
      <trkpt lat="46.36133" lon="-0.55869">
        <ele>54.75906</ele>
        <time>2013-02-21T14:58:57Z</time>
      </trkpt>
      <trkpt lat="46.36132" lon="-0.55862">
        <ele>55.325363</ele>
        <time>2013-02-21T14:59:02Z</time>
      </trkpt>
      <trkpt lat="46.36131" lon="-0.55858">
        <ele>55.325363</ele>
        <time>2013-02-21T14:59:07Z</time>
      </trkpt>
      <trkpt lat="46.36131" lon="-0.55859">
        <ele>55.325363</ele>
        <time>2013-02-21T14:59:12Z</time>
      </trkpt>
      <trkpt lat="46.3613" lon="-0.55849">
        <ele>55.74687</ele>
        <time>2013-02-21T14:59:17Z</time>
      </trkpt>
      <trkpt lat="46.3613" lon="-0.55842">
        <ele>55.74687</ele>
        <time>2013-02-21T14:59:22Z</time>
      </trkpt>
      <trkpt lat="46.36129" lon="-0.55833">
        <ele>56.43631</ele>
        <time>2013-02-21T14:59:27Z</time>
      </trkpt>
      <trkpt lat="46.36127" lon="-0.55826">
        <ele>56.43631</ele>
        <time>2013-02-21T14:59:32Z</time>
      </trkpt>
      <trkpt lat="46.36127" lon="-0.55818">
        <ele>57.011585</ele>
        <time>2013-02-21T14:59:37Z</time>
      </trkpt>
      <trkpt lat="46.36126" lon="-0.5581">
        <ele>57.011585</ele>
        <time>2013-02-21T14:59:42Z</time>
      </trkpt>
      <trkpt lat="46.36125" lon="-0.55802">
        <ele>57.364006</ele>
        <time>2013-02-21T14:59:47Z</time>
      </trkpt>
      <trkpt lat="46.36125" lon="-0.55795">
        <ele>57.364006</ele>
        <time>2013-02-21T14:59:52Z</time>
      </trkpt>
      <trkpt lat="46.36125" lon="-0.55788">
        <ele>57.95557</ele>
        <time>2013-02-21T14:59:57Z</time>
      </trkpt>
      <trkpt lat="46.36125" lon="-0.55779">
        <ele>57.95557</ele>
        <time>2013-02-21T15:00:02Z</time>
      </trkpt>
      <trkpt lat="46.36123" lon="-0.55771">
        <ele>58.536373</ele>
        <time>2013-02-21T15:00:07Z</time>
      </trkpt>
      <trkpt lat="46.36122" lon="-0.55763">
        <ele>58.536373</ele>
        <time>2013-02-21T15:00:12Z</time>
      </trkpt>
      <trkpt lat="46.36123" lon="-0.55753">
        <ele>58.802883</ele>
        <time>2013-02-21T15:00:17Z</time>
      </trkpt>
      <trkpt lat="46.36122" lon="-0.55746">
        <ele>58.802883</ele>
        <time>2013-02-21T15:00:22Z</time>
      </trkpt>
      <trkpt lat="46.36122" lon="-0.55738">
        <ele>58.979176</ele>
        <time>2013-02-21T15:00:27Z</time>
      </trkpt>
      <trkpt lat="46.36122" lon="-0.5573">
        <ele>58.979176</ele>
        <time>2013-02-21T15:00:32Z</time>
      </trkpt>
      <trkpt lat="46.36121" lon="-0.55722">
        <ele>59.244343</ele>
        <time>2013-02-21T15:00:37Z</time>
      </trkpt>
      <trkpt lat="46.3612" lon="-0.55714">
        <ele>59.244343</ele>
        <time>2013-02-21T15:00:42Z</time>
      </trkpt>
      <trkpt lat="46.36118" lon="-0.55707">
        <ele>59.375004</ele>
        <time>2013-02-21T15:00:47Z</time>
      </trkpt>
      <trkpt lat="46.36116" lon="-0.55698">
        <ele>59.375004</ele>
        <time>2013-02-21T15:00:52Z</time>
      </trkpt>
      <trkpt lat="46.36116" lon="-0.5569">
        <ele>59.409595</ele>
        <time>2013-02-21T15:00:57Z</time>
      </trkpt>
      <trkpt lat="46.36115" lon="-0.55682">
        <ele>59.409595</ele>
        <time>2013-02-21T15:01:02Z</time>
      </trkpt>
      <trkpt lat="46.36114" lon="-0.55674">
        <ele>59.715485</ele>
        <time>2013-02-21T15:01:07Z</time>
      </trkpt>
      <trkpt lat="46.36112" lon="-0.55666">
        <ele>59.715485</ele>
        <time>2013-02-21T15:01:12Z</time>
      </trkpt>
      <trkpt lat="46.36111" lon="-0.55658">
        <ele>59.983837</ele>
        <time>2013-02-21T15:01:17Z</time>
      </trkpt>
      <trkpt lat="46.36108" lon="-0.55649">
        <ele>59.983837</ele>
        <time>2013-02-21T15:01:22Z</time>
      </trkpt>
      <trkpt lat="46.36107" lon="-0.55642">
        <ele>60.130386</ele>
        <time>2013-02-21T15:01:27Z</time>
      </trkpt>
      <trkpt lat="46.36104" lon="-0.55635">
        <ele>60.130386</ele>
        <time>2013-02-21T15:01:32Z</time>
      </trkpt>
      <trkpt lat="46.36102" lon="-0.55628">
        <ele>60.120674</ele>
        <time>2013-02-21T15:01:37Z</time>
      </trkpt>
      <trkpt lat="46.36101" lon="-0.55625">
        <ele>60.120674</ele>
        <time>2013-02-21T15:01:42Z</time>
      </trkpt>
      <trkpt lat="46.361" lon="-0.5562">
        <ele>60.120674</ele>
        <time>2013-02-21T15:01:47Z</time>
      </trkpt>
      <trkpt lat="46.36097" lon="-0.55612">
        <ele>60.269096</ele>
        <time>2013-02-21T15:01:52Z</time>
      </trkpt>
      <trkpt lat="46.36096" lon="-0.55606">
        <ele>60.269096</ele>
        <time>2013-02-21T15:01:57Z</time>
      </trkpt>
      <trkpt lat="46.36095" lon="-0.55603">
        <ele>60.269096</ele>
        <time>2013-02-21T15:02:02Z</time>
      </trkpt>
      <trkpt lat="46.36092" lon="-0.55595">
        <ele>60.59273</ele>
        <time>2013-02-21T15:02:07Z</time>
      </trkpt>
      <trkpt lat="46.36089" lon="-0.55587">
        <ele>60.59273</ele>
        <time>2013-02-21T15:02:12Z</time>
      </trkpt>
      <trkpt lat="46.36087" lon="-0.55579">
        <ele>60.93401</ele>
        <time>2013-02-21T15:02:17Z</time>
      </trkpt>
      <trkpt lat="46.36085" lon="-0.55571">
        <ele>60.93401</ele>
        <time>2013-02-21T15:02:22Z</time>
      </trkpt>
      <trkpt lat="46.36083" lon="-0.55565">
        <ele>61.69453</ele>
        <time>2013-02-21T15:02:27Z</time>
      </trkpt>
      <trkpt lat="46.3608" lon="-0.55557">
        <ele>61.69453</ele>
        <time>2013-02-21T15:02:32Z</time>
      </trkpt>
      <trkpt lat="46.36077" lon="-0.55551">
        <ele>62.279697</ele>
        <time>2013-02-21T15:02:37Z</time>
      </trkpt>
      <trkpt lat="46.36074" lon="-0.55545">
        <ele>62.279697</ele>
        <time>2013-02-21T15:02:42Z</time>
      </trkpt>
      <trkpt lat="46.36073" lon="-0.55538">
        <ele>62.9029</ele>
        <time>2013-02-21T15:02:47Z</time>
      </trkpt>
      <trkpt lat="46.36069" lon="-0.5553">
        <ele>62.9029</ele>
        <time>2013-02-21T15:02:52Z</time>
      </trkpt>
      <trkpt lat="46.36067" lon="-0.55523">
        <ele>63.560028</ele>
        <time>2013-02-21T15:02:57Z</time>
      </trkpt>
      <trkpt lat="46.36064" lon="-0.55516">
        <ele>63.560028</ele>
        <time>2013-02-21T15:03:02Z</time>
      </trkpt>
      <trkpt lat="46.36063" lon="-0.5551">
        <ele>64.276024</ele>
        <time>2013-02-21T15:03:07Z</time>
      </trkpt>
      <trkpt lat="46.36061" lon="-0.55506">
        <ele>64.276024</ele>
        <time>2013-02-21T15:03:12Z</time>
      </trkpt>
      <trkpt lat="46.36059" lon="-0.55499">
        <ele>64.276024</ele>
        <time>2013-02-21T15:03:17Z</time>
      </trkpt>
      <trkpt lat="46.36058" lon="-0.55493">
        <ele>65.045044</ele>
        <time>2013-02-21T15:03:22Z</time>
      </trkpt>
      <trkpt lat="46.36055" lon="-0.55485">
        <ele>65.045044</ele>
        <time>2013-02-21T15:03:27Z</time>
      </trkpt>
      <trkpt lat="46.36052" lon="-0.55479">
        <ele>65.86157</ele>
        <time>2013-02-21T15:03:32Z</time>
      </trkpt>
      <trkpt lat="46.3605" lon="-0.55472">
        <ele>65.86157</ele>
        <time>2013-02-21T15:03:37Z</time>
      </trkpt>
      <trkpt lat="46.36048" lon="-0.55465">
        <ele>66.59068</ele>
        <time>2013-02-21T15:03:42Z</time>
      </trkpt>
      <trkpt lat="46.36045" lon="-0.55458">
        <ele>66.59068</ele>
        <time>2013-02-21T15:03:47Z</time>
      </trkpt>
      <trkpt lat="46.36042" lon="-0.5545">
        <ele>67.1509</ele>
        <time>2013-02-21T15:03:52Z</time>
      </trkpt>
      <trkpt lat="46.36039" lon="-0.55441">
        <ele>67.1509</ele>
        <time>2013-02-21T15:03:57Z</time>
      </trkpt>
      <trkpt lat="46.36037" lon="-0.55435">
        <ele>67.65459</ele>
        <time>2013-02-21T15:04:02Z</time>
      </trkpt>
      <trkpt lat="46.36035" lon="-0.55431">
        <ele>67.65459</ele>
        <time>2013-02-21T15:04:07Z</time>
      </trkpt>
      <trkpt lat="46.36035" lon="-0.55429">
        <ele>67.65459</ele>
        <time>2013-02-21T15:04:12Z</time>
      </trkpt>
      <trkpt lat="46.36033" lon="-0.55423">
        <ele>68.19162</ele>
        <time>2013-02-21T15:04:17Z</time>
      </trkpt>
      <trkpt lat="46.36029" lon="-0.55414">
        <ele>68.19162</ele>
        <time>2013-02-21T15:04:22Z</time>
      </trkpt>
      <trkpt lat="46.36026" lon="-0.55404">
        <ele>68.657906</ele>
        <time>2013-02-21T15:04:27Z</time>
      </trkpt>
      <trkpt lat="46.36022" lon="-0.55396">
        <ele>68.657906</ele>
        <time>2013-02-21T15:04:32Z</time>
      </trkpt>
      <trkpt lat="46.3602" lon="-0.55389">
        <ele>69.05808</ele>
        <time>2013-02-21T15:04:37Z</time>
      </trkpt>
      <trkpt lat="46.36018" lon="-0.55381">
        <ele>69.05808</ele>
        <time>2013-02-21T15:04:42Z</time>
      </trkpt>
      <trkpt lat="46.36015" lon="-0.55374">
        <ele>69.32465</ele>
        <time>2013-02-21T15:04:47Z</time>
      </trkpt>
      <trkpt lat="46.36013" lon="-0.55366">
        <ele>69.32465</ele>
        <time>2013-02-21T15:04:52Z</time>
      </trkpt>
      <trkpt lat="46.36011" lon="-0.55359">
        <ele>69.61161</ele>
        <time>2013-02-21T15:04:57Z</time>
      </trkpt>
      <trkpt lat="46.36008" lon="-0.55351">
        <ele>69.61161</ele>
        <time>2013-02-21T15:05:02Z</time>
      </trkpt>
      <trkpt lat="46.36006" lon="-0.55345">
        <ele>69.77343</ele>
        <time>2013-02-21T15:05:07Z</time>
      </trkpt>
      <trkpt lat="46.36004" lon="-0.55338">
        <ele>69.77343</ele>
        <time>2013-02-21T15:05:12Z</time>
      </trkpt>
      <trkpt lat="46.36002" lon="-0.55332">
        <ele>69.862976</ele>
        <time>2013-02-21T15:05:17Z</time>
      </trkpt>
      <trkpt lat="46.35999" lon="-0.55325">
        <ele>69.862976</ele>
        <time>2013-02-21T15:05:22Z</time>
      </trkpt>
      <trkpt lat="46.35996" lon="-0.55318">
        <ele>70.17446</ele>
        <time>2013-02-21T15:05:27Z</time>
      </trkpt>
      <trkpt lat="46.35994" lon="-0.55311">
        <ele>70.17446</ele>
        <time>2013-02-21T15:05:32Z</time>
      </trkpt>
      <trkpt lat="46.35992" lon="-0.55303">
        <ele>70.518715</ele>
        <time>2013-02-21T15:05:37Z</time>
      </trkpt>
      <trkpt lat="46.3599" lon="-0.55296">
        <ele>70.518715</ele>
        <time>2013-02-21T15:05:42Z</time>
      </trkpt>
      <trkpt lat="46.35987" lon="-0.55289">
        <ele>70.92217</ele>
        <time>2013-02-21T15:05:47Z</time>
      </trkpt>
      <trkpt lat="46.35985" lon="-0.55285">
        <ele>70.92217</ele>
        <time>2013-02-21T15:05:52Z</time>
      </trkpt>
      <trkpt lat="46.35984" lon="-0.55282">
        <ele>70.92217</ele>
        <time>2013-02-21T15:06:02Z</time>
      </trkpt>
      <trkpt lat="46.35983" lon="-0.55278">
        <ele>71.30828</ele>
        <time>2013-02-21T15:06:07Z</time>
      </trkpt>
      <trkpt lat="46.35981" lon="-0.55272">
        <ele>71.30828</ele>
        <time>2013-02-21T15:06:12Z</time>
      </trkpt>
      <trkpt lat="46.35977" lon="-0.55264">
        <ele>71.217094</ele>
        <time>2013-02-21T15:06:17Z</time>
      </trkpt>
      <trkpt lat="46.35974" lon="-0.55255">
        <ele>71.217094</ele>
        <time>2013-02-21T15:06:22Z</time>
      </trkpt>
      <trkpt lat="46.35972" lon="-0.55248">
        <ele>71.05962</ele>
        <time>2013-02-21T15:06:27Z</time>
      </trkpt>
      <trkpt lat="46.35971" lon="-0.55243">
        <ele>71.05962</ele>
        <time>2013-02-21T15:06:32Z</time>
      </trkpt>
      <trkpt lat="46.35969" lon="-0.55236">
        <ele>71.05962</ele>
        <time>2013-02-21T15:06:37Z</time>
      </trkpt>
      <trkpt lat="46.35967" lon="-0.55229">
        <ele>71.072815</ele>
        <time>2013-02-21T15:06:42Z</time>
      </trkpt>
      <trkpt lat="46.35965" lon="-0.55222">
        <ele>71.072815</ele>
        <time>2013-02-21T15:06:47Z</time>
      </trkpt>
      <trkpt lat="46.35961" lon="-0.55214">
        <ele>71.02896</ele>
        <time>2013-02-21T15:06:52Z</time>
      </trkpt>
      <trkpt lat="46.35958" lon="-0.55207">
        <ele>71.02896</ele>
        <time>2013-02-21T15:06:57Z</time>
      </trkpt>
      <trkpt lat="46.35956" lon="-0.55199">
        <ele>71.0487</ele>
        <time>2013-02-21T15:07:02Z</time>
      </trkpt>
      <trkpt lat="46.35954" lon="-0.55194">
        <ele>71.0487</ele>
        <time>2013-02-21T15:07:07Z</time>
      </trkpt>
      <trkpt lat="46.35953" lon="-0.55188">
        <ele>71.0487</ele>
        <time>2013-02-21T15:07:12Z</time>
      </trkpt>
      <trkpt lat="46.35949" lon="-0.55179">
        <ele>71.08513</ele>
        <time>2013-02-21T15:07:17Z</time>
      </trkpt>
      <trkpt lat="46.35947" lon="-0.55173">
        <ele>71.08513</ele>
        <time>2013-02-21T15:07:22Z</time>
      </trkpt>
      <trkpt lat="46.35943" lon="-0.55166">
        <ele>71.26766</ele>
        <time>2013-02-21T15:07:27Z</time>
      </trkpt>
      <trkpt lat="46.35942" lon="-0.55161">
        <ele>71.26766</ele>
        <time>2013-02-21T15:07:32Z</time>
      </trkpt>
      <trkpt lat="46.35941" lon="-0.5516">
        <ele>71.26766</ele>
        <time>2013-02-21T15:07:37Z</time>
      </trkpt>
      <trkpt lat="46.35942" lon="-0.5516">
        <ele>71.26766</ele>
        <time>2013-02-21T15:07:42Z</time>
      </trkpt>
      <trkpt lat="46.35941" lon="-0.55159">
        <ele>71.26766</ele>
        <time>2013-02-21T15:07:47Z</time>
      </trkpt>
      <trkpt lat="46.3594" lon="-0.55154">
        <ele>71.05287</ele>
        <time>2013-02-21T15:07:57Z</time>
      </trkpt>
      <trkpt lat="46.3594" lon="-0.55149">
        <ele>71.05287</ele>
        <time>2013-02-21T15:08:02Z</time>
      </trkpt>
      <trkpt lat="46.35939" lon="-0.55141">
        <ele>71.05287</ele>
        <time>2013-02-21T15:08:07Z</time>
      </trkpt>
      <trkpt lat="46.35938" lon="-0.55135">
        <ele>70.745384</ele>
        <time>2013-02-21T15:08:12Z</time>
      </trkpt>
      <trkpt lat="46.35935" lon="-0.55126">
        <ele>70.745384</ele>
        <time>2013-02-21T15:08:17Z</time>
      </trkpt>
      <trkpt lat="46.35932" lon="-0.55119">
        <ele>70.584465</ele>
        <time>2013-02-21T15:08:22Z</time>
      </trkpt>
      <trkpt lat="46.35931" lon="-0.55113">
        <ele>70.584465</ele>
        <time>2013-02-21T15:08:27Z</time>
      </trkpt>
      <trkpt lat="46.35928" lon="-0.55105">
        <ele>70.61844</ele>
        <time>2013-02-21T15:08:32Z</time>
      </trkpt>
      <trkpt lat="46.35925" lon="-0.55098">
        <ele>70.61844</ele>
        <time>2013-02-21T15:08:37Z</time>
      </trkpt>
      <trkpt lat="46.35923" lon="-0.55093">
        <ele>70.57448</ele>
        <time>2013-02-21T15:08:42Z</time>
      </trkpt>
      <trkpt lat="46.3592" lon="-0.55086">
        <ele>70.57448</ele>
        <time>2013-02-21T15:08:47Z</time>
      </trkpt>
      <trkpt lat="46.35919" lon="-0.5508">
        <ele>70.58909</ele>
        <time>2013-02-21T15:08:52Z</time>
      </trkpt>
      <trkpt lat="46.35917" lon="-0.55073">
        <ele>70.58909</ele>
        <time>2013-02-21T15:08:57Z</time>
      </trkpt>
      <trkpt lat="46.35914" lon="-0.55065">
        <ele>70.644455</ele>
        <time>2013-02-21T15:09:02Z</time>
      </trkpt>
      <trkpt lat="46.35912" lon="-0.55058">
        <ele>70.644455</ele>
        <time>2013-02-21T15:09:07Z</time>
      </trkpt>
      <trkpt lat="46.35909" lon="-0.55051">
        <ele>70.68069</ele>
        <time>2013-02-21T15:09:12Z</time>
      </trkpt>
      <trkpt lat="46.35906" lon="-0.55045">
        <ele>70.68069</ele>
        <time>2013-02-21T15:09:17Z</time>
      </trkpt>
      <trkpt lat="46.35904" lon="-0.55037">
        <ele>70.67116</ele>
        <time>2013-02-21T15:09:22Z</time>
      </trkpt>
      <trkpt lat="46.35901" lon="-0.55029">
        <ele>70.67116</ele>
        <time>2013-02-21T15:09:27Z</time>
      </trkpt>
      <trkpt lat="46.35899" lon="-0.55023">
        <ele>70.98041</ele>
        <time>2013-02-21T15:09:32Z</time>
      </trkpt>
      <trkpt lat="46.35898" lon="-0.55019">
        <ele>70.98041</ele>
        <time>2013-02-21T15:09:37Z</time>
      </trkpt>
      <trkpt lat="46.35897" lon="-0.55013">
        <ele>70.98041</ele>
        <time>2013-02-21T15:09:42Z</time>
      </trkpt>
      <trkpt lat="46.35894" lon="-0.55005">
        <ele>71.26794</ele>
        <time>2013-02-21T15:09:47Z</time>
      </trkpt>
      <trkpt lat="46.35892" lon="-0.55">
        <ele>71.26794</ele>
        <time>2013-02-21T15:09:52Z</time>
      </trkpt>
      <trkpt lat="46.35889" lon="-0.54992">
        <ele>71.4633</ele>
        <time>2013-02-21T15:09:57Z</time>
      </trkpt>
      <trkpt lat="46.35887" lon="-0.54985">
        <ele>71.4633</ele>
        <time>2013-02-21T15:10:02Z</time>
      </trkpt>
      <trkpt lat="46.35885" lon="-0.54979">
        <ele>71.54469</ele>
        <time>2013-02-21T15:10:07Z</time>
      </trkpt>
      <trkpt lat="46.35882" lon="-0.54973">
        <ele>71.54469</ele>
        <time>2013-02-21T15:10:12Z</time>
      </trkpt>
      <trkpt lat="46.3588" lon="-0.54965">
        <ele>71.63632</ele>
        <time>2013-02-21T15:10:17Z</time>
      </trkpt>
      <trkpt lat="46.35879" lon="-0.54961">
        <ele>71.63632</ele>
        <time>2013-02-21T15:10:22Z</time>
      </trkpt>
      <trkpt lat="46.35875" lon="-0.54953">
        <ele>71.65147</ele>
        <time>2013-02-21T15:10:27Z</time>
      </trkpt>
      <trkpt lat="46.35871" lon="-0.54944">
        <ele>71.65147</ele>
        <time>2013-02-21T15:10:32Z</time>
      </trkpt>
      <trkpt lat="46.35867" lon="-0.54935">
        <ele>71.106445</ele>
        <time>2013-02-21T15:10:37Z</time>
      </trkpt>
      <trkpt lat="46.35865" lon="-0.54927">
        <ele>71.106445</ele>
        <time>2013-02-21T15:10:42Z</time>
      </trkpt>
      <trkpt lat="46.35864" lon="-0.54921">
        <ele>70.46258</ele>
        <time>2013-02-21T15:10:47Z</time>
      </trkpt>
      <trkpt lat="46.35862" lon="-0.54917">
        <ele>70.46258</ele>
        <time>2013-02-21T15:10:52Z</time>
      </trkpt>
      <trkpt lat="46.3586" lon="-0.54911">
        <ele>70.46258</ele>
        <time>2013-02-21T15:10:57Z</time>
      </trkpt>
      <trkpt lat="46.35857" lon="-0.54903">
        <ele>69.94577</ele>
        <time>2013-02-21T15:11:02Z</time>
      </trkpt>
      <trkpt lat="46.35854" lon="-0.54895">
        <ele>69.94577</ele>
        <time>2013-02-21T15:11:07Z</time>
      </trkpt>
      <trkpt lat="46.35851" lon="-0.54883">
        <ele>69.49114</ele>
        <time>2013-02-21T15:11:12Z</time>
      </trkpt>
      <trkpt lat="46.35849" lon="-0.54877">
        <ele>69.49114</ele>
        <time>2013-02-21T15:11:17Z</time>
      </trkpt>
      <trkpt lat="46.35846" lon="-0.54868">
        <ele>69.15366</ele>
        <time>2013-02-21T15:11:22Z</time>
      </trkpt>
      <trkpt lat="46.35843" lon="-0.54859">
        <ele>69.15366</ele>
        <time>2013-02-21T15:11:27Z</time>
      </trkpt>
      <trkpt lat="46.35839" lon="-0.54852">
        <ele>69.11359</ele>
        <time>2013-02-21T15:11:32Z</time>
      </trkpt>
      <trkpt lat="46.35837" lon="-0.54845">
        <ele>69.11359</ele>
        <time>2013-02-21T15:11:37Z</time>
      </trkpt>
      <trkpt lat="46.35834" lon="-0.54836">
        <ele>69.26326</ele>
        <time>2013-02-21T15:11:42Z</time>
      </trkpt>
      <trkpt lat="46.35831" lon="-0.5483">
        <ele>69.26326</ele>
        <time>2013-02-21T15:11:47Z</time>
      </trkpt>
      <trkpt lat="46.3583" lon="-0.54823">
        <ele>69.4447</ele>
        <time>2013-02-21T15:11:52Z</time>
      </trkpt>
      <trkpt lat="46.35828" lon="-0.54818">
        <ele>69.4447</ele>
        <time>2013-02-21T15:11:57Z</time>
      </trkpt>
      <trkpt lat="46.35825" lon="-0.54811">
        <ele>69.58348</ele>
        <time>2013-02-21T15:12:02Z</time>
      </trkpt>
      <trkpt lat="46.35822" lon="-0.54801">
        <ele>69.58348</ele>
        <time>2013-02-21T15:12:07Z</time>
      </trkpt>
      <trkpt lat="46.35818" lon="-0.54794">
        <ele>69.8413</ele>
        <time>2013-02-21T15:12:12Z</time>
      </trkpt>
      <trkpt lat="46.35817" lon="-0.54791">
        <ele>69.8413</ele>
        <time>2013-02-21T15:12:17Z</time>
      </trkpt>
      <trkpt lat="46.35815" lon="-0.54784">
        <ele>69.8413</ele>
        <time>2013-02-21T15:12:22Z</time>
      </trkpt>
      <trkpt lat="46.35814" lon="-0.54779">
        <ele>70.20908</ele>
        <time>2013-02-21T15:12:27Z</time>
      </trkpt>
      <trkpt lat="46.35812" lon="-0.54772">
        <ele>70.20908</ele>
        <time>2013-02-21T15:12:32Z</time>
      </trkpt>
      <trkpt lat="46.3581" lon="-0.54765">
        <ele>70.3034</ele>
        <time>2013-02-21T15:12:37Z</time>
      </trkpt>
      <trkpt lat="46.35809" lon="-0.54759">
        <ele>70.3034</ele>
        <time>2013-02-21T15:12:42Z</time>
      </trkpt>
      <trkpt lat="46.35806" lon="-0.54753">
        <ele>70.216484</ele>
        <time>2013-02-21T15:12:47Z</time>
      </trkpt>
      <trkpt lat="46.35804" lon="-0.54747">
        <ele>70.216484</ele>
        <time>2013-02-21T15:12:52Z</time>
      </trkpt>
      <trkpt lat="46.35801" lon="-0.5474">
        <ele>70.13515</ele>
        <time>2013-02-21T15:12:57Z</time>
      </trkpt>
      <trkpt lat="46.35799" lon="-0.54731">
        <ele>70.13515</ele>
        <time>2013-02-21T15:13:02Z</time>
      </trkpt>
      <trkpt lat="46.35798" lon="-0.54731">
        <ele>70.13515</ele>
        <time>2013-02-21T15:13:07Z</time>
      </trkpt>
      <trkpt lat="46.35798" lon="-0.54729">
        <ele>70.13515</ele>
        <time>2013-02-21T15:13:12Z</time>
      </trkpt>
      <trkpt lat="46.35799" lon="-0.54727">
        <ele>69.75687</ele>
        <time>2013-02-21T15:13:17Z</time>
      </trkpt>
      <trkpt lat="46.35799" lon="-0.54727">
        <ele>69.75687</ele>
        <time>2013-02-21T15:13:22Z</time>
      </trkpt>
      <trkpt lat="46.358" lon="-0.54726">
        <ele>69.75687</ele>
        <time>2013-02-21T15:13:27Z</time>
      </trkpt>
      <trkpt lat="46.35799" lon="-0.54725">
        <ele>69.75687</ele>
        <time>2013-02-21T15:13:32Z</time>
      </trkpt>
      <trkpt lat="46.35796" lon="-0.54719">
        <ele>69.75687</ele>
        <time>2013-02-21T15:13:37Z</time>
      </trkpt>
      <trkpt lat="46.35794" lon="-0.54714">
        <ele>69.681244</ele>
        <time>2013-02-21T15:13:42Z</time>
      </trkpt>
      <trkpt lat="46.35792" lon="-0.54706">
        <ele>69.681244</ele>
        <time>2013-02-21T15:13:47Z</time>
      </trkpt>
      <trkpt lat="46.35788" lon="-0.54696">
        <ele>69.627106</ele>
        <time>2013-02-21T15:13:52Z</time>
      </trkpt>
      <trkpt lat="46.35784" lon="-0.54688">
        <ele>69.627106</ele>
        <time>2013-02-21T15:13:57Z</time>
      </trkpt>
      <trkpt lat="46.35784" lon="-0.54685">
        <ele>69.627106</ele>
        <time>2013-02-21T15:14:02Z</time>
      </trkpt>
      <trkpt lat="46.35782" lon="-0.5468">
        <ele>70.16971</ele>
        <time>2013-02-21T15:14:07Z</time>
      </trkpt>
      <trkpt lat="46.3578" lon="-0.54676">
        <ele>70.16971</ele>
        <time>2013-02-21T15:14:12Z</time>
      </trkpt>
      <trkpt lat="46.35778" lon="-0.5467">
        <ele>70.16971</ele>
        <time>2013-02-21T15:14:17Z</time>
      </trkpt>
      <trkpt lat="46.35777" lon="-0.54666">
        <ele>70.629814</ele>
        <time>2013-02-21T15:14:22Z</time>
      </trkpt>
      <trkpt lat="46.35774" lon="-0.5466">
        <ele>70.629814</ele>
        <time>2013-02-21T15:14:27Z</time>
      </trkpt>
      <trkpt lat="46.35772" lon="-0.54656">
        <ele>70.629814</ele>
        <time>2013-02-21T15:14:32Z</time>
      </trkpt>
      <trkpt lat="46.3577" lon="-0.54648">
        <ele>71.156494</ele>
        <time>2013-02-21T15:14:37Z</time>
      </trkpt>
      <trkpt lat="46.35769" lon="-0.54644">
        <ele>71.156494</ele>
        <time>2013-02-21T15:14:42Z</time>
      </trkpt>
      <trkpt lat="46.35766" lon="-0.54638">
        <ele>71.156494</ele>
        <time>2013-02-21T15:14:47Z</time>
      </trkpt>
      <trkpt lat="46.35764" lon="-0.54631">
        <ele>71.65709</ele>
        <time>2013-02-21T15:14:52Z</time>
      </trkpt>
      <trkpt lat="46.35762" lon="-0.54626">
        <ele>71.65709</ele>
        <time>2013-02-21T15:14:57Z</time>
      </trkpt>
      <trkpt lat="46.3576" lon="-0.54623">
        <ele>71.65709</ele>
        <time>2013-02-21T15:15:02Z</time>
      </trkpt>
      <trkpt lat="46.35759" lon="-0.54621">
        <ele>71.65709</ele>
        <time>2013-02-21T15:15:07Z</time>
      </trkpt>
      <trkpt lat="46.35758" lon="-0.54615">
        <ele>71.98818</ele>
        <time>2013-02-21T15:15:12Z</time>
      </trkpt>
      <trkpt lat="46.35756" lon="-0.54609">
        <ele>71.98818</ele>
        <time>2013-02-21T15:15:17Z</time>
      </trkpt>
      <trkpt lat="46.35753" lon="-0.54604">
        <ele>72.33439</ele>
        <time>2013-02-21T15:15:22Z</time>
      </trkpt>
      <trkpt lat="46.35751" lon="-0.54597">
        <ele>72.33439</ele>
        <time>2013-02-21T15:15:27Z</time>
      </trkpt>
      <trkpt lat="46.3575" lon="-0.54591">
        <ele>72.50645</ele>
        <time>2013-02-21T15:15:32Z</time>
      </trkpt>
      <trkpt lat="46.35747" lon="-0.54585">
        <ele>72.50645</ele>
        <time>2013-02-21T15:15:37Z</time>
      </trkpt>
      <trkpt lat="46.35746" lon="-0.5458">
        <ele>72.50645</ele>
        <time>2013-02-21T15:15:42Z</time>
      </trkpt>
      <trkpt lat="46.35747" lon="-0.5458">
        <ele>72.50645</ele>
        <time>2013-02-21T15:15:47Z</time>
      </trkpt>
      <trkpt lat="46.35744" lon="-0.54574">
        <ele>72.545654</ele>
        <time>2013-02-21T15:15:52Z</time>
      </trkpt>
      <trkpt lat="46.35742" lon="-0.54567">
        <ele>72.545654</ele>
        <time>2013-02-21T15:15:57Z</time>
      </trkpt>
      <trkpt lat="46.3574" lon="-0.54558">
        <ele>72.678</ele>
        <time>2013-02-21T15:16:02Z</time>
      </trkpt>
      <trkpt lat="46.35737" lon="-0.5455">
        <ele>72.678</ele>
        <time>2013-02-21T15:16:07Z</time>
      </trkpt>
      <trkpt lat="46.35735" lon="-0.54543">
        <ele>72.72351</ele>
        <time>2013-02-21T15:16:12Z</time>
      </trkpt>
      <trkpt lat="46.35733" lon="-0.54536">
        <ele>72.72351</ele>
        <time>2013-02-21T15:16:17Z</time>
      </trkpt>
      <trkpt lat="46.35731" lon="-0.5453">
        <ele>72.50125</ele>
        <time>2013-02-21T15:16:22Z</time>
      </trkpt>
      <trkpt lat="46.35729" lon="-0.54523">
        <ele>72.50125</ele>
        <time>2013-02-21T15:16:27Z</time>
      </trkpt>
      <trkpt lat="46.35726" lon="-0.54516">
        <ele>72.44961</ele>
        <time>2013-02-21T15:16:32Z</time>
      </trkpt>
      <trkpt lat="46.35724" lon="-0.54509">
        <ele>72.44961</ele>
        <time>2013-02-21T15:16:37Z</time>
      </trkpt>
      <trkpt lat="46.35722" lon="-0.54502">
        <ele>72.48432</ele>
        <time>2013-02-21T15:16:42Z</time>
      </trkpt>
      <trkpt lat="46.3572" lon="-0.54497">
        <ele>72.48432</ele>
        <time>2013-02-21T15:16:47Z</time>
      </trkpt>
      <trkpt lat="46.35718" lon="-0.54491">
        <ele>72.555885</ele>
        <time>2013-02-21T15:16:52Z</time>
      </trkpt>
      <trkpt lat="46.35715" lon="-0.54482">
        <ele>72.555885</ele>
        <time>2013-02-21T15:16:57Z</time>
      </trkpt>
      <trkpt lat="46.35713" lon="-0.54476">
        <ele>72.77685</ele>
        <time>2013-02-21T15:17:02Z</time>
      </trkpt>
      <trkpt lat="46.3571" lon="-0.5447">
        <ele>72.77685</ele>
        <time>2013-02-21T15:17:07Z</time>
      </trkpt>
      <trkpt lat="46.35708" lon="-0.54463">
        <ele>73.265495</ele>
        <time>2013-02-21T15:17:12Z</time>
      </trkpt>
      <trkpt lat="46.35706" lon="-0.54457">
        <ele>73.265495</ele>
        <time>2013-02-21T15:17:17Z</time>
      </trkpt>
      <trkpt lat="46.35704" lon="-0.5445">
        <ele>73.91448</ele>
        <time>2013-02-21T15:17:22Z</time>
      </trkpt>
      <trkpt lat="46.35702" lon="-0.54442">
        <ele>73.91448</ele>
        <time>2013-02-21T15:17:27Z</time>
      </trkpt>
      <trkpt lat="46.357" lon="-0.54435">
        <ele>74.623924</ele>
        <time>2013-02-21T15:17:32Z</time>
      </trkpt>
      <trkpt lat="46.35696" lon="-0.54428">
        <ele>74.623924</ele>
        <time>2013-02-21T15:17:37Z</time>
      </trkpt>
      <trkpt lat="46.35695" lon="-0.54422">
        <ele>75.402</ele>
        <time>2013-02-21T15:17:42Z</time>
      </trkpt>
      <trkpt lat="46.35692" lon="-0.54416">
        <ele>75.402</ele>
        <time>2013-02-21T15:17:47Z</time>
      </trkpt>
      <trkpt lat="46.35691" lon="-0.5441">
        <ele>75.953445</ele>
        <time>2013-02-21T15:17:52Z</time>
      </trkpt>
      <trkpt lat="46.35688" lon="-0.54403">
        <ele>75.953445</ele>
        <time>2013-02-21T15:17:57Z</time>
      </trkpt>
      <trkpt lat="46.35686" lon="-0.54396">
        <ele>76.25036</ele>
        <time>2013-02-21T15:18:02Z</time>
      </trkpt>
      <trkpt lat="46.35683" lon="-0.54391">
        <ele>76.25036</ele>
        <time>2013-02-21T15:18:07Z</time>
      </trkpt>
      <trkpt lat="46.35681" lon="-0.54384">
        <ele>76.49818</ele>
        <time>2013-02-21T15:18:12Z</time>
      </trkpt>
      <trkpt lat="46.35678" lon="-0.54377">
        <ele>76.49818</ele>
        <time>2013-02-21T15:18:17Z</time>
      </trkpt>
      <trkpt lat="46.35676" lon="-0.54371">
        <ele>76.541534</ele>
        <time>2013-02-21T15:18:22Z</time>
      </trkpt>
      <trkpt lat="46.35674" lon="-0.54364">
        <ele>76.541534</ele>
        <time>2013-02-21T15:18:27Z</time>
      </trkpt>
      <trkpt lat="46.35671" lon="-0.54357">
        <ele>76.66943</ele>
        <time>2013-02-21T15:18:32Z</time>
      </trkpt>
      <trkpt lat="46.35669" lon="-0.54351">
        <ele>76.66943</ele>
        <time>2013-02-21T15:18:37Z</time>
      </trkpt>
      <trkpt lat="46.35667" lon="-0.54344">
        <ele>76.861176</ele>
        <time>2013-02-21T15:18:42Z</time>
      </trkpt>
      <trkpt lat="46.35665" lon="-0.54337">
        <ele>76.861176</ele>
        <time>2013-02-21T15:18:47Z</time>
      </trkpt>
      <trkpt lat="46.35662" lon="-0.54331">
        <ele>76.89569</ele>
        <time>2013-02-21T15:18:52Z</time>
      </trkpt>
      <trkpt lat="46.3566" lon="-0.54324">
        <ele>76.89569</ele>
        <time>2013-02-21T15:18:57Z</time>
      </trkpt>
      <trkpt lat="46.35659" lon="-0.54318">
        <ele>76.74151</ele>
        <time>2013-02-21T15:19:02Z</time>
      </trkpt>
      <trkpt lat="46.35658" lon="-0.54313">
        <ele>76.74151</ele>
        <time>2013-02-21T15:19:07Z</time>
      </trkpt>
      <trkpt lat="46.35655" lon="-0.54306">
        <ele>76.49974</ele>
        <time>2013-02-21T15:19:12Z</time>
      </trkpt>
      <trkpt lat="46.35653" lon="-0.54299">
        <ele>76.49974</ele>
        <time>2013-02-21T15:19:17Z</time>
      </trkpt>
      <trkpt lat="46.3565" lon="-0.5429">
        <ele>76.55254</ele>
        <time>2013-02-21T15:19:22Z</time>
      </trkpt>
      <trkpt lat="46.35647" lon="-0.54283">
        <ele>76.55254</ele>
        <time>2013-02-21T15:19:27Z</time>
      </trkpt>
      <trkpt lat="46.35645" lon="-0.54274">
        <ele>76.604675</ele>
        <time>2013-02-21T15:19:32Z</time>
      </trkpt>
      <trkpt lat="46.35642" lon="-0.54269">
        <ele>76.604675</ele>
        <time>2013-02-21T15:19:37Z</time>
      </trkpt>
      <trkpt lat="46.3564" lon="-0.54264">
        <ele>76.74288</ele>
        <time>2013-02-21T15:19:42Z</time>
      </trkpt>
      <trkpt lat="46.35638" lon="-0.5426">
        <ele>76.74288</ele>
        <time>2013-02-21T15:19:47Z</time>
      </trkpt>
      <trkpt lat="46.35635" lon="-0.54255">
        <ele>76.74288</ele>
        <time>2013-02-21T15:19:52Z</time>
      </trkpt>
      <trkpt lat="46.35636" lon="-0.54255">
        <ele>76.74288</ele>
        <time>2013-02-21T15:19:57Z</time>
      </trkpt>
      <trkpt lat="46.35634" lon="-0.54248">
        <ele>76.60054</ele>
        <time>2013-02-21T15:20:02Z</time>
      </trkpt>
      <trkpt lat="46.35632" lon="-0.54242">
        <ele>76.60054</ele>
        <time>2013-02-21T15:20:07Z</time>
      </trkpt>
      <trkpt lat="46.35631" lon="-0.5424">
        <ele>76.60054</ele>
        <time>2013-02-21T15:20:12Z</time>
      </trkpt>
      <trkpt lat="46.35629" lon="-0.54232">
        <ele>76.41521</ele>
        <time>2013-02-21T15:20:17Z</time>
      </trkpt>
      <trkpt lat="46.35627" lon="-0.54224">
        <ele>76.41521</ele>
        <time>2013-02-21T15:20:22Z</time>
      </trkpt>
      <trkpt lat="46.35623" lon="-0.54211">
        <ele>76.30623</ele>
        <time>2013-02-21T15:20:27Z</time>
      </trkpt>
      <trkpt lat="46.35622" lon="-0.54206">
        <ele>76.30623</ele>
        <time>2013-02-21T15:20:32Z</time>
      </trkpt>
      <trkpt lat="46.35618" lon="-0.542">
        <ele>76.311905</ele>
        <time>2013-02-21T15:20:37Z</time>
      </trkpt>
      <trkpt lat="46.35614" lon="-0.54192">
        <ele>76.311905</ele>
        <time>2013-02-21T15:20:42Z</time>
      </trkpt>
      <trkpt lat="46.35611" lon="-0.54184">
        <ele>76.52507</ele>
        <time>2013-02-21T15:20:47Z</time>
      </trkpt>
      <trkpt lat="46.3561" lon="-0.54177">
        <ele>76.52507</ele>
        <time>2013-02-21T15:20:52Z</time>
      </trkpt>
      <trkpt lat="46.35608" lon="-0.54171">
        <ele>76.56996</ele>
        <time>2013-02-21T15:20:57Z</time>
      </trkpt>
      <trkpt lat="46.35606" lon="-0.54165">
        <ele>76.56996</ele>
        <time>2013-02-21T15:21:02Z</time>
      </trkpt>
      <trkpt lat="46.35605" lon="-0.54158">
        <ele>76.47361</ele>
        <time>2013-02-21T15:21:07Z</time>
      </trkpt>
      <trkpt lat="46.35605" lon="-0.54153">
        <ele>76.47361</ele>
        <time>2013-02-21T15:21:12Z</time>
      </trkpt>
      <trkpt lat="46.35602" lon="-0.54147">
        <ele>76.47361</ele>
        <time>2013-02-21T15:21:17Z</time>
      </trkpt>
      <trkpt lat="46.356" lon="-0.54138">
        <ele>76.24702</ele>
        <time>2013-02-21T15:21:22Z</time>
      </trkpt>
      <trkpt lat="46.35597" lon="-0.54131">
        <ele>76.24702</ele>
        <time>2013-02-21T15:21:27Z</time>
      </trkpt>
      <trkpt lat="46.35595" lon="-0.54125">
        <ele>75.87193</ele>
        <time>2013-02-21T15:21:32Z</time>
      </trkpt>
      <trkpt lat="46.35593" lon="-0.54119">
        <ele>75.87193</ele>
        <time>2013-02-21T15:21:37Z</time>
      </trkpt>
      <trkpt lat="46.3559" lon="-0.54112">
        <ele>75.64889</ele>
        <time>2013-02-21T15:21:42Z</time>
      </trkpt>
      <trkpt lat="46.35588" lon="-0.54107">
        <ele>75.64889</ele>
        <time>2013-02-21T15:21:47Z</time>
      </trkpt>
      <trkpt lat="46.35585" lon="-0.54101">
        <ele>75.55327</ele>
        <time>2013-02-21T15:21:52Z</time>
      </trkpt>
      <trkpt lat="46.35582" lon="-0.54097">
        <ele>75.55327</ele>
        <time>2013-02-21T15:21:57Z</time>
      </trkpt>
      <trkpt lat="46.3558" lon="-0.54092">
        <ele>75.55327</ele>
        <time>2013-02-21T15:22:02Z</time>
      </trkpt>
      <trkpt lat="46.35575" lon="-0.54088">
        <ele>75.40337</ele>
        <time>2013-02-21T15:22:07Z</time>
      </trkpt>
      <trkpt lat="46.35572" lon="-0.54082">
        <ele>75.40337</ele>
        <time>2013-02-21T15:22:12Z</time>
      </trkpt>
      <trkpt lat="46.3557" lon="-0.54077">
        <ele>75.59304</ele>
        <time>2013-02-21T15:22:17Z</time>
      </trkpt>
      <trkpt lat="46.35566" lon="-0.54073">
        <ele>75.59304</ele>
        <time>2013-02-21T15:22:22Z</time>
      </trkpt>
      <trkpt lat="46.35564" lon="-0.54069">
        <ele>75.59304</ele>
        <time>2013-02-21T15:22:27Z</time>
      </trkpt>
      <trkpt lat="46.35561" lon="-0.54065">
        <ele>75.75121</ele>
        <time>2013-02-21T15:22:32Z</time>
      </trkpt>
      <trkpt lat="46.35558" lon="-0.5406">
        <ele>75.75121</ele>
        <time>2013-02-21T15:22:37Z</time>
      </trkpt>
      <trkpt lat="46.35555" lon="-0.54056">
        <ele>75.75121</ele>
        <time>2013-02-21T15:22:42Z</time>
      </trkpt>
      <trkpt lat="46.35551" lon="-0.54052">
        <ele>75.99535</ele>
        <time>2013-02-21T15:22:47Z</time>
      </trkpt>
      <trkpt lat="46.35548" lon="-0.54048">
        <ele>75.99535</ele>
        <time>2013-02-21T15:22:52Z</time>
      </trkpt>
      <trkpt lat="46.35544" lon="-0.54042">
        <ele>76.24667</ele>
        <time>2013-02-21T15:22:57Z</time>
      </trkpt>
      <trkpt lat="46.35541" lon="-0.54036">
        <ele>76.24667</ele>
        <time>2013-02-21T15:23:02Z</time>
      </trkpt>
      <trkpt lat="46.3554" lon="-0.54034">
        <ele>76.24667</ele>
        <time>2013-02-21T15:23:07Z</time>
      </trkpt>
      <trkpt lat="46.35539" lon="-0.54031">
        <ele>76.24667</ele>
        <time>2013-02-21T15:23:12Z</time>
      </trkpt>
      <trkpt lat="46.35538" lon="-0.5403">
        <ele>76.21598</ele>
        <time>2013-02-21T15:23:17Z</time>
      </trkpt>
      <trkpt lat="46.35535" lon="-0.54022">
        <ele>76.21598</ele>
        <time>2013-02-21T15:23:22Z</time>
      </trkpt>
      <trkpt lat="46.35531" lon="-0.54013">
        <ele>76.19816</ele>
        <time>2013-02-21T15:23:27Z</time>
      </trkpt>
      <trkpt lat="46.35527" lon="-0.54006">
        <ele>76.19816</ele>
        <time>2013-02-21T15:23:32Z</time>
      </trkpt>
      <trkpt lat="46.35523" lon="-0.54">
        <ele>76.293434</ele>
        <time>2013-02-21T15:23:37Z</time>
      </trkpt>
      <trkpt lat="46.35519" lon="-0.53992">
        <ele>76.293434</ele>
        <time>2013-02-21T15:23:42Z</time>
      </trkpt>
      <trkpt lat="46.35516" lon="-0.53985">
        <ele>76.37819</ele>
        <time>2013-02-21T15:23:47Z</time>
      </trkpt>
      <trkpt lat="46.35513" lon="-0.53978">
        <ele>76.37819</ele>
        <time>2013-02-21T15:23:52Z</time>
      </trkpt>
      <trkpt lat="46.3551" lon="-0.53972">
        <ele>76.33789</ele>
        <time>2013-02-21T15:23:57Z</time>
      </trkpt>
      <trkpt lat="46.35508" lon="-0.53965">
        <ele>76.33789</ele>
        <time>2013-02-21T15:24:02Z</time>
      </trkpt>
      <trkpt lat="46.35506" lon="-0.53962">
        <ele>76.33789</ele>
        <time>2013-02-21T15:24:07Z</time>
      </trkpt>
      <trkpt lat="46.35503" lon="-0.53956">
        <ele>76.311775</ele>
        <time>2013-02-21T15:24:12Z</time>
      </trkpt>
      <trkpt lat="46.355" lon="-0.53952">
        <ele>76.311775</ele>
        <time>2013-02-21T15:24:17Z</time>
      </trkpt>
      <trkpt lat="46.35496" lon="-0.53947">
        <ele>76.3135</ele>
        <time>2013-02-21T15:24:22Z</time>
      </trkpt>
      <trkpt lat="46.35493" lon="-0.53944">
        <ele>76.3135</ele>
        <time>2013-02-21T15:24:27Z</time>
      </trkpt>
      <trkpt lat="46.35491" lon="-0.53941">
        <ele>76.3135</ele>
        <time>2013-02-21T15:24:32Z</time>
      </trkpt>
      <trkpt lat="46.35492" lon="-0.53941">
        <ele>76.3135</ele>
        <time>2013-02-21T15:24:37Z</time>
      </trkpt>
      <trkpt lat="46.35492" lon="-0.53941">
        <ele>76.3135</ele>
        <time>2013-02-21T15:24:47Z</time>
      </trkpt>
      <trkpt lat="46.35492" lon="-0.53941">
        <ele>76.3135</ele>
        <time>2013-02-21T15:24:52Z</time>
      </trkpt>
      <trkpt lat="46.35492" lon="-0.53942">
        <ele>76.3135</ele>
        <time>2013-02-21T15:25:22Z</time>
      </trkpt>
      <trkpt lat="46.35495" lon="-0.5394">
        <ele>76.25476</ele>
        <time>2013-02-21T15:25:27Z</time>
      </trkpt>
      <trkpt lat="46.35497" lon="-0.53933">
        <ele>76.25476</ele>
        <time>2013-02-21T15:25:32Z</time>
      </trkpt>
      <trkpt lat="46.35497" lon="-0.53926">
        <ele>76.06831</ele>
        <time>2013-02-21T15:25:37Z</time>
      </trkpt>
      <trkpt lat="46.35493" lon="-0.53918">
        <ele>76.06831</ele>
        <time>2013-02-21T15:25:42Z</time>
      </trkpt>
      <trkpt lat="46.35489" lon="-0.53913">
        <ele>75.74984</ele>
        <time>2013-02-21T15:25:47Z</time>
      </trkpt>
      <trkpt lat="46.35486" lon="-0.5391">
        <ele>75.74984</ele>
        <time>2013-02-21T15:25:52Z</time>
      </trkpt>
      <trkpt lat="46.35482" lon="-0.53905">
        <ele>75.74984</ele>
        <time>2013-02-21T15:25:57Z</time>
      </trkpt>
      <trkpt lat="46.35477" lon="-0.53895">
        <ele>75.45422</ele>
        <time>2013-02-21T15:26:02Z</time>
      </trkpt>
      <trkpt lat="46.35475" lon="-0.53887">
        <ele>75.45422</ele>
        <time>2013-02-21T15:26:07Z</time>
      </trkpt>
      <trkpt lat="46.35474" lon="-0.53879">
        <ele>75.382545</ele>
        <time>2013-02-21T15:26:12Z</time>
      </trkpt>
      <trkpt lat="46.35471" lon="-0.5387">
        <ele>75.382545</ele>
        <time>2013-02-21T15:26:17Z</time>
      </trkpt>
      <trkpt lat="46.35468" lon="-0.53863">
        <ele>75.41783</ele>
        <time>2013-02-21T15:26:22Z</time>
      </trkpt>
      <trkpt lat="46.35464" lon="-0.53857">
        <ele>75.41783</ele>
        <time>2013-02-21T15:26:27Z</time>
      </trkpt>
      <trkpt lat="46.35461" lon="-0.53851">
        <ele>75.55227</ele>
        <time>2013-02-21T15:26:32Z</time>
      </trkpt>
      <trkpt lat="46.3546" lon="-0.53847">
        <ele>75.55227</ele>
        <time>2013-02-21T15:26:37Z</time>
      </trkpt>
      <trkpt lat="46.35457" lon="-0.5384">
        <ele>75.55227</ele>
        <time>2013-02-21T15:26:42Z</time>
      </trkpt>
      <trkpt lat="46.35455" lon="-0.53835">
        <ele>75.25953</ele>
        <time>2013-02-21T15:26:47Z</time>
      </trkpt>
      <trkpt lat="46.35453" lon="-0.53828">
        <ele>75.25953</ele>
        <time>2013-02-21T15:26:52Z</time>
      </trkpt>
      <trkpt lat="46.3545" lon="-0.53823">
        <ele>75.03309</ele>
        <time>2013-02-21T15:26:57Z</time>
      </trkpt>
      <trkpt lat="46.35449" lon="-0.53815">
        <ele>75.03309</ele>
        <time>2013-02-21T15:27:02Z</time>
      </trkpt>
      <trkpt lat="46.35445" lon="-0.5381">
        <ele>75.08498</ele>
        <time>2013-02-21T15:27:07Z</time>
      </trkpt>
      <trkpt lat="46.35444" lon="-0.53807">
        <ele>75.08498</ele>
        <time>2013-02-21T15:27:12Z</time>
      </trkpt>
      <trkpt lat="46.35441" lon="-0.53799">
        <ele>75.08498</ele>
        <time>2013-02-21T15:27:17Z</time>
      </trkpt>
      <trkpt lat="46.35437" lon="-0.53793">
        <ele>75.12088</ele>
        <time>2013-02-21T15:27:22Z</time>
      </trkpt>
      <trkpt lat="46.35434" lon="-0.53787">
        <ele>75.12088</ele>
        <time>2013-02-21T15:27:27Z</time>
      </trkpt>
      <trkpt lat="46.35432" lon="-0.53779">
        <ele>74.9402</ele>
        <time>2013-02-21T15:27:32Z</time>
      </trkpt>
      <trkpt lat="46.35429" lon="-0.53773">
        <ele>74.9402</ele>
        <time>2013-02-21T15:27:37Z</time>
      </trkpt>
      <trkpt lat="46.35427" lon="-0.53768">
        <ele>74.77557</ele>
        <time>2013-02-21T15:27:42Z</time>
      </trkpt>
      <trkpt lat="46.35423" lon="-0.5376">
        <ele>74.77557</ele>
        <time>2013-02-21T15:27:47Z</time>
      </trkpt>
      <trkpt lat="46.3542" lon="-0.53754">
        <ele>74.79927</ele>
        <time>2013-02-21T15:27:52Z</time>
      </trkpt>
      <trkpt lat="46.35417" lon="-0.53747">
        <ele>74.79927</ele>
        <time>2013-02-21T15:27:57Z</time>
      </trkpt>
      <trkpt lat="46.35415" lon="-0.53742">
        <ele>74.82449</ele>
        <time>2013-02-21T15:28:02Z</time>
      </trkpt>
      <trkpt lat="46.35412" lon="-0.53735">
        <ele>74.82449</ele>
        <time>2013-02-21T15:28:07Z</time>
      </trkpt>
      <trkpt lat="46.35411" lon="-0.5373">
        <ele>74.64932</ele>
        <time>2013-02-21T15:28:12Z</time>
      </trkpt>
      <trkpt lat="46.35408" lon="-0.53723">
        <ele>74.64932</ele>
        <time>2013-02-21T15:28:17Z</time>
      </trkpt>
      <trkpt lat="46.35404" lon="-0.53717">
        <ele>74.44751</ele>
        <time>2013-02-21T15:28:22Z</time>
      </trkpt>
      <trkpt lat="46.35401" lon="-0.5371">
        <ele>74.44751</ele>
        <time>2013-02-21T15:28:27Z</time>
      </trkpt>
      <trkpt lat="46.35397" lon="-0.53704">
        <ele>74.04864</ele>
        <time>2013-02-21T15:28:32Z</time>
      </trkpt>
      <trkpt lat="46.35395" lon="-0.53698">
        <ele>74.04864</ele>
        <time>2013-02-21T15:28:37Z</time>
      </trkpt>
      <trkpt lat="46.35393" lon="-0.53692">
        <ele>73.42506</ele>
        <time>2013-02-21T15:28:42Z</time>
      </trkpt>
      <trkpt lat="46.3539" lon="-0.53685">
        <ele>73.42506</ele>
        <time>2013-02-21T15:28:47Z</time>
      </trkpt>
      <trkpt lat="46.35387" lon="-0.53678">
        <ele>72.72469</ele>
        <time>2013-02-21T15:28:52Z</time>
      </trkpt>
      <trkpt lat="46.35384" lon="-0.53672">
        <ele>72.72469</ele>
        <time>2013-02-21T15:28:57Z</time>
      </trkpt>
      <trkpt lat="46.35381" lon="-0.53664">
        <ele>71.95509</ele>
        <time>2013-02-21T15:29:02Z</time>
      </trkpt>
      <trkpt lat="46.35378" lon="-0.53657">
        <ele>71.95509</ele>
        <time>2013-02-21T15:29:07Z</time>
      </trkpt>
      <trkpt lat="46.35374" lon="-0.5365">
        <ele>71.32518</ele>
        <time>2013-02-21T15:29:12Z</time>
      </trkpt>
      <trkpt lat="46.35371" lon="-0.53642">
        <ele>71.32518</ele>
        <time>2013-02-21T15:29:17Z</time>
      </trkpt>
      <trkpt lat="46.35368" lon="-0.53635">
        <ele>70.82636</ele>
        <time>2013-02-21T15:29:22Z</time>
      </trkpt>
      <trkpt lat="46.35363" lon="-0.53628">
        <ele>70.82636</ele>
        <time>2013-02-21T15:29:27Z</time>
      </trkpt>
      <trkpt lat="46.3536" lon="-0.53622">
        <ele>70.69527</ele>
        <time>2013-02-21T15:29:32Z</time>
      </trkpt>
      <trkpt lat="46.35358" lon="-0.53616">
        <ele>70.69527</ele>
        <time>2013-02-21T15:29:37Z</time>
      </trkpt>
      <trkpt lat="46.35355" lon="-0.5361">
        <ele>70.55921</ele>
        <time>2013-02-21T15:29:42Z</time>
      </trkpt>
      <trkpt lat="46.35352" lon="-0.53603">
        <ele>70.55921</ele>
        <time>2013-02-21T15:29:47Z</time>
      </trkpt>
      <trkpt lat="46.35348" lon="-0.53598">
        <ele>70.01524</ele>
        <time>2013-02-21T15:29:52Z</time>
      </trkpt>
      <trkpt lat="46.35346" lon="-0.53593">
        <ele>70.01524</ele>
        <time>2013-02-21T15:29:57Z</time>
      </trkpt>
      <trkpt lat="46.35344" lon="-0.53586">
        <ele>69.42608</ele>
        <time>2013-02-21T15:30:02Z</time>
      </trkpt>
      <trkpt lat="46.35344" lon="-0.5358">
        <ele>69.42608</ele>
        <time>2013-02-21T15:30:07Z</time>
      </trkpt>
      <trkpt lat="46.35343" lon="-0.53576">
        <ele>69.42608</ele>
        <time>2013-02-21T15:30:12Z</time>
      </trkpt>
      <trkpt lat="46.3534" lon="-0.53571">
        <ele>68.176765</ele>
        <time>2013-02-21T15:30:17Z</time>
      </trkpt>
      <trkpt lat="46.35336" lon="-0.53565">
        <ele>68.176765</ele>
        <time>2013-02-21T15:30:22Z</time>
      </trkpt>
      <trkpt lat="46.35335" lon="-0.53562">
        <ele>68.176765</ele>
        <time>2013-02-21T15:30:27Z</time>
      </trkpt>
      <trkpt lat="46.35329" lon="-0.53553">
        <ele>67.37101</ele>
        <time>2013-02-21T15:30:32Z</time>
      </trkpt>
      <trkpt lat="46.35325" lon="-0.53548">
        <ele>67.37101</ele>
        <time>2013-02-21T15:30:37Z</time>
      </trkpt>
      <trkpt lat="46.35322" lon="-0.53542">
        <ele>66.90611</ele>
        <time>2013-02-21T15:30:42Z</time>
      </trkpt>
      <trkpt lat="46.3532" lon="-0.53536">
        <ele>66.90611</ele>
        <time>2013-02-21T15:30:47Z</time>
      </trkpt>
      <trkpt lat="46.35319" lon="-0.53534">
        <ele>66.90611</ele>
        <time>2013-02-21T15:30:52Z</time>
      </trkpt>
      <trkpt lat="46.35319" lon="-0.53533">
        <ele>66.90611</ele>
        <time>2013-02-21T15:30:57Z</time>
      </trkpt>
      <trkpt lat="46.35315" lon="-0.53526">
        <ele>66.57062</ele>
        <time>2013-02-21T15:31:02Z</time>
      </trkpt>
      <trkpt lat="46.35312" lon="-0.53519">
        <ele>66.57062</ele>
        <time>2013-02-21T15:31:07Z</time>
      </trkpt>
      <trkpt lat="46.35307" lon="-0.53512">
        <ele>66.312325</ele>
        <time>2013-02-21T15:31:12Z</time>
      </trkpt>
      <trkpt lat="46.35303" lon="-0.53505">
        <ele>66.312325</ele>
        <time>2013-02-21T15:31:17Z</time>
      </trkpt>
      <trkpt lat="46.353" lon="-0.53498">
        <ele>66.05377</ele>
        <time>2013-02-21T15:31:22Z</time>
      </trkpt>
      <trkpt lat="46.35297" lon="-0.53491">
        <ele>66.05377</ele>
        <time>2013-02-21T15:31:27Z</time>
      </trkpt>
      <trkpt lat="46.35293" lon="-0.53483">
        <ele>65.86728</ele>
        <time>2013-02-21T15:31:32Z</time>
      </trkpt>
      <trkpt lat="46.35291" lon="-0.53477">
        <ele>65.86728</ele>
        <time>2013-02-21T15:31:37Z</time>
      </trkpt>
      <trkpt lat="46.35288" lon="-0.53473">
        <ele>65.86284</ele>
        <time>2013-02-21T15:31:42Z</time>
      </trkpt>
      <trkpt lat="46.35285" lon="-0.53466">
        <ele>65.86284</ele>
        <time>2013-02-21T15:31:47Z</time>
      </trkpt>
      <trkpt lat="46.35282" lon="-0.53458">
        <ele>65.767136</ele>
        <time>2013-02-21T15:31:52Z</time>
      </trkpt>
      <trkpt lat="46.35279" lon="-0.53449">
        <ele>65.767136</ele>
        <time>2013-02-21T15:31:57Z</time>
      </trkpt>
      <trkpt lat="46.35276" lon="-0.53444">
        <ele>65.51449</ele>
        <time>2013-02-21T15:32:02Z</time>
      </trkpt>
      <trkpt lat="46.35274" lon="-0.53438">
        <ele>65.51449</ele>
        <time>2013-02-21T15:32:07Z</time>
      </trkpt>
      <trkpt lat="46.35271" lon="-0.5343">
        <ele>65.145355</ele>
        <time>2013-02-21T15:32:12Z</time>
      </trkpt>
      <trkpt lat="46.35267" lon="-0.53422">
        <ele>65.145355</ele>
        <time>2013-02-21T15:32:17Z</time>
      </trkpt>
      <trkpt lat="46.35264" lon="-0.53414">
        <ele>64.56782</ele>
        <time>2013-02-21T15:32:22Z</time>
      </trkpt>
      <trkpt lat="46.3526" lon="-0.53407">
        <ele>64.56782</ele>
        <time>2013-02-21T15:32:27Z</time>
      </trkpt>
      <trkpt lat="46.35255" lon="-0.534">
        <ele>64.34575</ele>
        <time>2013-02-21T15:32:32Z</time>
      </trkpt>
      <trkpt lat="46.35253" lon="-0.53393">
        <ele>64.34575</ele>
        <time>2013-02-21T15:32:37Z</time>
      </trkpt>
      <trkpt lat="46.35249" lon="-0.53388">
        <ele>64.29446</ele>
        <time>2013-02-21T15:32:42Z</time>
      </trkpt>
      <trkpt lat="46.35248" lon="-0.53383">
        <ele>64.29446</ele>
        <time>2013-02-21T15:32:47Z</time>
      </trkpt>
      <trkpt lat="46.35244" lon="-0.53376">
        <ele>64.14144</ele>
        <time>2013-02-21T15:32:52Z</time>
      </trkpt>
      <trkpt lat="46.3524" lon="-0.53368">
        <ele>64.14144</ele>
        <time>2013-02-21T15:32:57Z</time>
      </trkpt>
      <trkpt lat="46.35237" lon="-0.53361">
        <ele>63.792988</ele>
        <time>2013-02-21T15:33:02Z</time>
      </trkpt>
      <trkpt lat="46.35233" lon="-0.53352">
        <ele>63.792988</ele>
        <time>2013-02-21T15:33:07Z</time>
      </trkpt>
      <trkpt lat="46.35229" lon="-0.53347">
        <ele>63.407803</ele>
        <time>2013-02-21T15:33:12Z</time>
      </trkpt>
      <trkpt lat="46.35226" lon="-0.53339">
        <ele>63.407803</ele>
        <time>2013-02-21T15:33:17Z</time>
      </trkpt>
      <trkpt lat="46.35223" lon="-0.53332">
        <ele>63.00331</ele>
        <time>2013-02-21T15:33:22Z</time>
      </trkpt>
      <trkpt lat="46.35222" lon="-0.5333">
        <ele>63.00331</ele>
        <time>2013-02-21T15:33:27Z</time>
      </trkpt>
      <trkpt lat="46.35219" lon="-0.53322">
        <ele>63.00331</ele>
        <time>2013-02-21T15:33:32Z</time>
      </trkpt>
      <trkpt lat="46.35216" lon="-0.53316">
        <ele>62.494823</ele>
        <time>2013-02-21T15:33:37Z</time>
      </trkpt>
      <trkpt lat="46.35212" lon="-0.53308">
        <ele>62.494823</ele>
        <time>2013-02-21T15:33:42Z</time>
      </trkpt>
      <trkpt lat="46.35208" lon="-0.53301">
        <ele>62.1356</ele>
        <time>2013-02-21T15:33:47Z</time>
      </trkpt>
      <trkpt lat="46.35204" lon="-0.53294">
        <ele>62.1356</ele>
        <time>2013-02-21T15:33:52Z</time>
      </trkpt>
      <trkpt lat="46.35201" lon="-0.53289">
        <ele>61.799583</ele>
        <time>2013-02-21T15:33:57Z</time>
      </trkpt>
      <trkpt lat="46.35197" lon="-0.53281">
        <ele>61.799583</ele>
        <time>2013-02-21T15:34:02Z</time>
      </trkpt>
      <trkpt lat="46.35194" lon="-0.53278">
        <ele>61.254604</ele>
        <time>2013-02-21T15:34:07Z</time>
      </trkpt>
      <trkpt lat="46.35191" lon="-0.53272">
        <ele>61.254604</ele>
        <time>2013-02-21T15:34:12Z</time>
      </trkpt>
      <trkpt lat="46.35188" lon="-0.53266">
        <ele>60.646404</ele>
        <time>2013-02-21T15:34:17Z</time>
      </trkpt>
      <trkpt lat="46.35184" lon="-0.5326">
        <ele>60.646404</ele>
        <time>2013-02-21T15:34:22Z</time>
      </trkpt>
      <trkpt lat="46.3518" lon="-0.53253">
        <ele>60.225464</ele>
        <time>2013-02-21T15:34:27Z</time>
      </trkpt>
      <trkpt lat="46.35175" lon="-0.53246">
        <ele>60.225464</ele>
        <time>2013-02-21T15:34:32Z</time>
      </trkpt>
      <trkpt lat="46.35173" lon="-0.53243">
        <ele>59.747757</ele>
        <time>2013-02-21T15:34:37Z</time>
      </trkpt>
      <trkpt lat="46.3517" lon="-0.53238">
        <ele>59.747757</ele>
        <time>2013-02-21T15:34:42Z</time>
      </trkpt>
      <trkpt lat="46.35168" lon="-0.53233">
        <ele>59.747757</ele>
        <time>2013-02-21T15:34:47Z</time>
      </trkpt>
      <trkpt lat="46.35162" lon="-0.53225">
        <ele>59.01614</ele>
        <time>2013-02-21T15:34:52Z</time>
      </trkpt>
      <trkpt lat="46.35158" lon="-0.53217">
        <ele>59.01614</ele>
        <time>2013-02-21T15:34:57Z</time>
      </trkpt>
      <trkpt lat="46.35154" lon="-0.53212">
        <ele>58.41069</ele>
        <time>2013-02-21T15:35:02Z</time>
      </trkpt>
      <trkpt lat="46.3515" lon="-0.53206">
        <ele>58.41069</ele>
        <time>2013-02-21T15:35:07Z</time>
      </trkpt>
      <trkpt lat="46.35146" lon="-0.53199">
        <ele>57.533806</ele>
        <time>2013-02-21T15:35:12Z</time>
      </trkpt>
      <trkpt lat="46.35144" lon="-0.53195">
        <ele>57.533806</ele>
        <time>2013-02-21T15:35:17Z</time>
      </trkpt>
      <trkpt lat="46.35141" lon="-0.5319">
        <ele>57.533806</ele>
        <time>2013-02-21T15:35:22Z</time>
      </trkpt>
      <trkpt lat="46.35136" lon="-0.53185">
        <ele>56.853683</ele>
        <time>2013-02-21T15:35:27Z</time>
      </trkpt>
      <trkpt lat="46.35135" lon="-0.5318">
        <ele>56.853683</ele>
        <time>2013-02-21T15:35:32Z</time>
      </trkpt>
      <trkpt lat="46.35129" lon="-0.53172">
        <ele>56.12623</ele>
        <time>2013-02-21T15:35:37Z</time>
      </trkpt>
      <trkpt lat="46.35124" lon="-0.53165">
        <ele>56.12623</ele>
        <time>2013-02-21T15:35:42Z</time>
      </trkpt>
      <trkpt lat="46.3512" lon="-0.53159">
        <ele>55.860344</ele>
        <time>2013-02-21T15:35:47Z</time>
      </trkpt>
      <trkpt lat="46.35116" lon="-0.53154">
        <ele>55.860344</ele>
        <time>2013-02-21T15:35:52Z</time>
      </trkpt>
      <trkpt lat="46.35114" lon="-0.53152">
        <ele>55.860344</ele>
        <time>2013-02-21T15:35:57Z</time>
      </trkpt>
      <trkpt lat="46.35111" lon="-0.53149">
        <ele>55.90657</ele>
        <time>2013-02-21T15:36:02Z</time>
      </trkpt>
      <trkpt lat="46.35107" lon="-0.53149">
        <ele>55.90657</ele>
        <time>2013-02-21T15:36:12Z</time>
      </trkpt>
      <trkpt lat="46.35102" lon="-0.53149">
        <ele>55.77965</ele>
        <time>2013-02-21T15:36:17Z</time>
      </trkpt>
      <trkpt lat="46.35097" lon="-0.5315">
        <ele>55.77965</ele>
        <time>2013-02-21T15:36:22Z</time>
      </trkpt>
      <trkpt lat="46.35092" lon="-0.53152">
        <ele>55.56366</ele>
        <time>2013-02-21T15:36:27Z</time>
      </trkpt>
      <trkpt lat="46.35087" lon="-0.53153">
        <ele>55.56366</ele>
        <time>2013-02-21T15:36:32Z</time>
      </trkpt>
      <trkpt lat="46.35084" lon="-0.53155">
        <ele>55.235855</ele>
        <time>2013-02-21T15:36:37Z</time>
      </trkpt>
      <trkpt lat="46.35078" lon="-0.53157">
        <ele>55.235855</ele>
        <time>2013-02-21T15:36:42Z</time>
      </trkpt>
      <trkpt lat="46.35073" lon="-0.53159">
        <ele>54.93398</ele>
        <time>2013-02-21T15:36:47Z</time>
      </trkpt>
      <trkpt lat="46.35068" lon="-0.5316">
        <ele>54.93398</ele>
        <time>2013-02-21T15:36:52Z</time>
      </trkpt>
      <trkpt lat="46.35063" lon="-0.53161">
        <ele>54.641476</ele>
        <time>2013-02-21T15:36:57Z</time>
      </trkpt>
      <trkpt lat="46.35057" lon="-0.53162">
        <ele>54.641476</ele>
        <time>2013-02-21T15:37:02Z</time>
      </trkpt>
      <trkpt lat="46.35052" lon="-0.53164">
        <ele>54.285313</ele>
        <time>2013-02-21T15:37:07Z</time>
      </trkpt>
      <trkpt lat="46.35046" lon="-0.53163">
        <ele>54.285313</ele>
        <time>2013-02-21T15:37:12Z</time>
      </trkpt>
      <trkpt lat="46.35041" lon="-0.53164">
        <ele>53.942112</ele>
        <time>2013-02-21T15:37:17Z</time>
      </trkpt>
      <trkpt lat="46.35036" lon="-0.53166">
        <ele>53.942112</ele>
        <time>2013-02-21T15:37:23Z</time>
      </trkpt>
      <trkpt lat="46.35033" lon="-0.53166">
        <ele>53.942112</ele>
        <time>2013-02-21T15:37:27Z</time>
      </trkpt>
      <trkpt lat="46.35028" lon="-0.53167">
        <ele>53.553123</ele>
        <time>2013-02-21T15:37:32Z</time>
      </trkpt>
      <trkpt lat="46.35023" lon="-0.53166">
        <ele>53.553123</ele>
        <time>2013-02-21T15:37:37Z</time>
      </trkpt>
      <trkpt lat="46.35019" lon="-0.53162">
        <ele>53.17932</ele>
        <time>2013-02-21T15:37:42Z</time>
      </trkpt>
      <trkpt lat="46.35015" lon="-0.53162">
        <ele>53.17932</ele>
        <time>2013-02-21T15:37:47Z</time>
      </trkpt>
      <trkpt lat="46.35015" lon="-0.53161">
        <ele>53.17932</ele>
        <time>2013-02-21T15:37:52Z</time>
      </trkpt>
      <trkpt lat="46.35016" lon="-0.5316">
        <ele>53.17932</ele>
        <time>2013-02-21T15:37:57Z</time>
      </trkpt>
      <trkpt lat="46.35015" lon="-0.53161">
        <ele>53.17932</ele>
        <time>2013-02-21T15:38:02Z</time>
      </trkpt>
      <trkpt lat="46.35016" lon="-0.53162">
        <ele>53.17932</ele>
        <time>2013-02-21T15:38:07Z</time>
      </trkpt>
      <trkpt lat="46.35015" lon="-0.53162">
        <ele>53.17932</ele>
        <time>2013-02-21T15:38:12Z</time>
      </trkpt>
      <trkpt lat="46.35015" lon="-0.53155">
        <ele>53.25185</ele>
        <time>2013-02-21T15:38:17Z</time>
      </trkpt>
      <trkpt lat="46.35012" lon="-0.53149">
        <ele>53.25185</ele>
        <time>2013-02-21T15:38:22Z</time>
      </trkpt>
      <trkpt lat="46.35012" lon="-0.5314">
        <ele>53.47719</ele>
        <time>2013-02-21T15:38:27Z</time>
      </trkpt>
      <trkpt lat="46.35011" lon="-0.53132">
        <ele>53.47719</ele>
        <time>2013-02-21T15:38:32Z</time>
      </trkpt>
      <trkpt lat="46.3501" lon="-0.53128">
        <ele>53.47719</ele>
        <time>2013-02-21T15:38:37Z</time>
      </trkpt>
      <trkpt lat="46.35007" lon="-0.53123">
        <ele>53.827938</ele>
        <time>2013-02-21T15:38:42Z</time>
      </trkpt>
      <trkpt lat="46.35003" lon="-0.53122">
        <ele>53.827938</ele>
        <time>2013-02-21T15:38:47Z</time>
      </trkpt>
      <trkpt lat="46.34998" lon="-0.53124">
        <ele>53.827938</ele>
        <time>2013-02-21T15:38:52Z</time>
      </trkpt>
      <trkpt lat="46.34994" lon="-0.53126">
        <ele>54.19191</ele>
        <time>2013-02-21T15:38:57Z</time>
      </trkpt>
      <trkpt lat="46.34991" lon="-0.53128">
        <ele>54.19191</ele>
        <time>2013-02-21T15:39:02Z</time>
      </trkpt>
      <trkpt lat="46.34986" lon="-0.5313">
        <ele>54.19191</ele>
        <time>2013-02-21T15:39:07Z</time>
      </trkpt>
      <trkpt lat="46.34982" lon="-0.53133">
        <ele>54.36424</ele>
        <time>2013-02-21T15:39:12Z</time>
      </trkpt>
      <trkpt lat="46.34978" lon="-0.53136">
        <ele>54.36424</ele>
        <time>2013-02-21T15:39:17Z</time>
      </trkpt>
      <trkpt lat="46.34973" lon="-0.53139">
        <ele>54.515953</ele>
        <time>2013-02-21T15:39:22Z</time>
      </trkpt>
      <trkpt lat="46.34967" lon="-0.53139">
        <ele>54.515953</ele>
        <time>2013-02-21T15:39:27Z</time>
      </trkpt>
      <trkpt lat="46.34962" lon="-0.53143">
        <ele>54.546192</ele>
        <time>2013-02-21T15:39:32Z</time>
      </trkpt>
      <trkpt lat="46.34957" lon="-0.53145">
        <ele>54.546192</ele>
        <time>2013-02-21T15:39:37Z</time>
      </trkpt>
      <trkpt lat="46.34953" lon="-0.53147">
        <ele>54.77978</ele>
        <time>2013-02-21T15:39:42Z</time>
      </trkpt>
      <trkpt lat="46.34947" lon="-0.53151">
        <ele>54.77978</ele>
        <time>2013-02-21T15:39:47Z</time>
      </trkpt>
      <trkpt lat="46.34942" lon="-0.53153">
        <ele>54.926292</ele>
        <time>2013-02-21T15:39:52Z</time>
      </trkpt>
      <trkpt lat="46.34938" lon="-0.53155">
        <ele>54.926292</ele>
        <time>2013-02-21T15:39:57Z</time>
      </trkpt>
      <trkpt lat="46.34934" lon="-0.53159">
        <ele>55.178062</ele>
        <time>2013-02-21T15:40:02Z</time>
      </trkpt>
      <trkpt lat="46.34929" lon="-0.53161">
        <ele>55.178062</ele>
        <time>2013-02-21T15:40:07Z</time>
      </trkpt>
      <trkpt lat="46.34925" lon="-0.53164">
        <ele>55.453625</ele>
        <time>2013-02-21T15:40:12Z</time>
      </trkpt>
      <trkpt lat="46.3492" lon="-0.53166">
        <ele>55.453625</ele>
        <time>2013-02-21T15:40:17Z</time>
      </trkpt>
      <trkpt lat="46.34915" lon="-0.53169">
        <ele>55.763943</ele>
        <time>2013-02-21T15:40:22Z</time>
      </trkpt>
      <trkpt lat="46.34911" lon="-0.53171">
        <ele>55.763943</ele>
        <time>2013-02-21T15:40:27Z</time>
      </trkpt>
      <trkpt lat="46.34907" lon="-0.53174">
        <ele>55.902935</ele>
        <time>2013-02-21T15:40:32Z</time>
      </trkpt>
      <trkpt lat="46.34901" lon="-0.53176">
        <ele>55.902935</ele>
        <time>2013-02-21T15:40:37Z</time>
      </trkpt>
      <trkpt lat="46.34897" lon="-0.53179">
        <ele>56.098103</ele>
        <time>2013-02-21T15:40:42Z</time>
      </trkpt>
      <trkpt lat="46.34892" lon="-0.53182">
        <ele>56.098103</ele>
        <time>2013-02-21T15:40:47Z</time>
      </trkpt>
      <trkpt lat="46.34888" lon="-0.53184">
        <ele>56.15661</ele>
        <time>2013-02-21T15:40:52Z</time>
      </trkpt>
      <trkpt lat="46.34883" lon="-0.53187">
        <ele>56.15661</ele>
        <time>2013-02-21T15:40:57Z</time>
      </trkpt>
      <trkpt lat="46.34878" lon="-0.5319">
        <ele>56.174015</ele>
        <time>2013-02-21T15:41:02Z</time>
      </trkpt>
      <trkpt lat="46.34874" lon="-0.53193">
        <ele>56.174015</ele>
        <time>2013-02-21T15:41:07Z</time>
      </trkpt>
      <trkpt lat="46.34868" lon="-0.53195">
        <ele>55.921967</ele>
        <time>2013-02-21T15:41:12Z</time>
      </trkpt>
      <trkpt lat="46.34864" lon="-0.53198">
        <ele>55.921967</ele>
        <time>2013-02-21T15:41:17Z</time>
      </trkpt>
      <trkpt lat="46.34858" lon="-0.53201">
        <ele>55.54996</ele>
        <time>2013-02-21T15:41:22Z</time>
      </trkpt>
      <trkpt lat="46.34853" lon="-0.53204">
        <ele>55.54996</ele>
        <time>2013-02-21T15:41:27Z</time>
      </trkpt>
      <trkpt lat="46.34848" lon="-0.53207">
        <ele>55.384235</ele>
        <time>2013-02-21T15:41:32Z</time>
      </trkpt>
      <trkpt lat="46.34842" lon="-0.53209">
        <ele>55.384235</ele>
        <time>2013-02-21T15:41:37Z</time>
      </trkpt>
      <trkpt lat="46.34838" lon="-0.53211">
        <ele>54.99154</ele>
        <time>2013-02-21T15:41:42Z</time>
      </trkpt>
      <trkpt lat="46.34834" lon="-0.53215">
        <ele>54.99154</ele>
        <time>2013-02-21T15:41:47Z</time>
      </trkpt>
      <trkpt lat="46.34828" lon="-0.53218">
        <ele>54.51874</ele>
        <time>2013-02-21T15:41:52Z</time>
      </trkpt>
      <trkpt lat="46.34823" lon="-0.5322">
        <ele>54.51874</ele>
        <time>2013-02-21T15:41:57Z</time>
      </trkpt>
      <trkpt lat="46.34817" lon="-0.53222">
        <ele>54.21747</ele>
        <time>2013-02-21T15:42:02Z</time>
      </trkpt>
      <trkpt lat="46.34813" lon="-0.53225">
        <ele>54.21747</ele>
        <time>2013-02-21T15:42:07Z</time>
      </trkpt>
      <trkpt lat="46.34806" lon="-0.53228">
        <ele>54.118637</ele>
        <time>2013-02-21T15:42:12Z</time>
      </trkpt>
      <trkpt lat="46.34801" lon="-0.53231">
        <ele>54.118637</ele>
        <time>2013-02-21T15:42:17Z</time>
      </trkpt>
      <trkpt lat="46.34796" lon="-0.53234">
        <ele>54.1783</ele>
        <time>2013-02-21T15:42:22Z</time>
      </trkpt>
      <trkpt lat="46.34791" lon="-0.53236">
        <ele>54.1783</ele>
        <time>2013-02-21T15:42:27Z</time>
      </trkpt>
      <trkpt lat="46.34786" lon="-0.53239">
        <ele>54.283253</ele>
        <time>2013-02-21T15:42:32Z</time>
      </trkpt>
      <trkpt lat="46.34781" lon="-0.53241">
        <ele>54.283253</ele>
        <time>2013-02-21T15:42:37Z</time>
      </trkpt>
      <trkpt lat="46.34776" lon="-0.53243">
        <ele>54.45821</ele>
        <time>2013-02-21T15:42:42Z</time>
      </trkpt>
      <trkpt lat="46.34771" lon="-0.53245">
        <ele>54.45821</ele>
        <time>2013-02-21T15:42:47Z</time>
      </trkpt>
      <trkpt lat="46.34765" lon="-0.53243">
        <ele>54.58177</ele>
        <time>2013-02-21T15:42:52Z</time>
      </trkpt>
      <trkpt lat="46.34761" lon="-0.53239">
        <ele>54.58177</ele>
        <time>2013-02-21T15:42:57Z</time>
      </trkpt>
      <trkpt lat="46.34755" lon="-0.53234">
        <ele>54.671326</ele>
        <time>2013-02-21T15:43:02Z</time>
      </trkpt>
      <trkpt lat="46.34749" lon="-0.53232">
        <ele>54.671326</ele>
        <time>2013-02-21T15:43:07Z</time>
      </trkpt>
      <trkpt lat="46.34744" lon="-0.53233">
        <ele>54.80075</ele>
        <time>2013-02-21T15:43:12Z</time>
      </trkpt>
      <trkpt lat="46.34739" lon="-0.53234">
        <ele>54.80075</ele>
        <time>2013-02-21T15:43:17Z</time>
      </trkpt>
      <trkpt lat="46.34734" lon="-0.53237">
        <ele>54.923115</ele>
        <time>2013-02-21T15:43:22Z</time>
      </trkpt>
      <trkpt lat="46.34729" lon="-0.5324">
        <ele>54.923115</ele>
        <time>2013-02-21T15:43:27Z</time>
      </trkpt>
      <trkpt lat="46.34724" lon="-0.5324">
        <ele>55.110268</ele>
        <time>2013-02-21T15:43:32Z</time>
      </trkpt>
      <trkpt lat="46.34721" lon="-0.53242">
        <ele>55.110268</ele>
        <time>2013-02-21T15:43:37Z</time>
      </trkpt>
      <trkpt lat="46.34717" lon="-0.53243">
        <ele>55.110268</ele>
        <time>2013-02-21T15:43:42Z</time>
      </trkpt>
      <trkpt lat="46.34712" lon="-0.53247">
        <ele>55.16922</ele>
        <time>2013-02-21T15:43:47Z</time>
      </trkpt>
      <trkpt lat="46.34707" lon="-0.53251">
        <ele>55.16922</ele>
        <time>2013-02-21T15:43:52Z</time>
      </trkpt>
      <trkpt lat="46.34702" lon="-0.53254">
        <ele>55.224182</ele>
        <time>2013-02-21T15:43:57Z</time>
      </trkpt>
      <trkpt lat="46.34696" lon="-0.53256">
        <ele>55.224182</ele>
        <time>2013-02-21T15:44:02Z</time>
      </trkpt>
      <trkpt lat="46.34691" lon="-0.53259">
        <ele>55.28939</ele>
        <time>2013-02-21T15:44:07Z</time>
      </trkpt>
      <trkpt lat="46.34687" lon="-0.53263">
        <ele>55.28939</ele>
        <time>2013-02-21T15:44:12Z</time>
      </trkpt>
      <trkpt lat="46.34682" lon="-0.53265">
        <ele>55.032177</ele>
        <time>2013-02-21T15:44:17Z</time>
      </trkpt>
      <trkpt lat="46.34677" lon="-0.53268">
        <ele>55.032177</ele>
        <time>2013-02-21T15:44:22Z</time>
      </trkpt>
      <trkpt lat="46.34672" lon="-0.53271">
        <ele>54.6352</ele>
        <time>2013-02-21T15:44:27Z</time>
      </trkpt>
      <trkpt lat="46.34667" lon="-0.53272">
        <ele>54.6352</ele>
        <time>2013-02-21T15:44:32Z</time>
      </trkpt>
      <trkpt lat="46.34662" lon="-0.53277">
        <ele>54.008717</ele>
        <time>2013-02-21T15:44:37Z</time>
      </trkpt>
      <trkpt lat="46.3466" lon="-0.53282">
        <ele>54.008717</ele>
        <time>2013-02-21T15:44:42Z</time>
      </trkpt>
      <trkpt lat="46.34657" lon="-0.53287">
        <ele>52.897305</ele>
        <time>2013-02-21T15:44:47Z</time>
      </trkpt>
      <trkpt lat="46.34656" lon="-0.53293">
        <ele>52.897305</ele>
        <time>2013-02-21T15:44:52Z</time>
      </trkpt>
      <trkpt lat="46.34654" lon="-0.53301">
        <ele>51.42595</ele>
        <time>2013-02-21T15:44:57Z</time>
      </trkpt>
      <trkpt lat="46.34652" lon="-0.53304">
        <ele>51.42595</ele>
        <time>2013-02-21T15:45:02Z</time>
      </trkpt>
      <trkpt lat="46.34647" lon="-0.53309">
        <ele>49.91321</ele>
        <time>2013-02-21T15:45:07Z</time>
      </trkpt>
      <trkpt lat="46.34642" lon="-0.53314">
        <ele>49.91321</ele>
        <time>2013-02-21T15:45:12Z</time>
      </trkpt>
      <trkpt lat="46.34636" lon="-0.53317">
        <ele>48.510258</ele>
        <time>2013-02-21T15:45:17Z</time>
      </trkpt>
      <trkpt lat="46.34632" lon="-0.5332">
        <ele>48.510258</ele>
        <time>2013-02-21T15:45:22Z</time>
      </trkpt>
      <trkpt lat="46.34627" lon="-0.53324">
        <ele>47.068584</ele>
        <time>2013-02-21T15:45:27Z</time>
      </trkpt>
      <trkpt lat="46.34622" lon="-0.53328">
        <ele>47.068584</ele>
        <time>2013-02-21T15:45:32Z</time>
      </trkpt>
      <trkpt lat="46.34617" lon="-0.5333">
        <ele>45.782143</ele>
        <time>2013-02-21T15:45:37Z</time>
      </trkpt>
      <trkpt lat="46.34611" lon="-0.53331">
        <ele>45.782143</ele>
        <time>2013-02-21T15:45:42Z</time>
      </trkpt>
      <trkpt lat="46.34607" lon="-0.53333">
        <ele>44.55634</ele>
        <time>2013-02-21T15:45:47Z</time>
      </trkpt>
      <trkpt lat="46.34602" lon="-0.53336">
        <ele>44.55634</ele>
        <time>2013-02-21T15:45:52Z</time>
      </trkpt>
      <trkpt lat="46.34598" lon="-0.53339">
        <ele>43.605957</ele>
        <time>2013-02-21T15:45:57Z</time>
      </trkpt>
      <trkpt lat="46.34592" lon="-0.53341">
        <ele>43.605957</ele>
        <time>2013-02-21T15:46:02Z</time>
      </trkpt>
      <trkpt lat="46.34587" lon="-0.53343">
        <ele>42.451843</ele>
        <time>2013-02-21T15:46:07Z</time>
      </trkpt>
      <trkpt lat="46.34582" lon="-0.53346">
        <ele>42.451843</ele>
        <time>2013-02-21T15:46:12Z</time>
      </trkpt>
      <trkpt lat="46.34577" lon="-0.53348">
        <ele>41.616116</ele>
        <time>2013-02-21T15:46:17Z</time>
      </trkpt>
      <trkpt lat="46.34572" lon="-0.53351">
        <ele>41.616116</ele>
        <time>2013-02-21T15:46:22Z</time>
      </trkpt>
      <trkpt lat="46.34567" lon="-0.53353">
        <ele>40.832195</ele>
        <time>2013-02-21T15:46:27Z</time>
      </trkpt>
      <trkpt lat="46.34563" lon="-0.53358">
        <ele>40.832195</ele>
        <time>2013-02-21T15:46:32Z</time>
      </trkpt>
      <trkpt lat="46.34557" lon="-0.53358">
        <ele>40.19876</ele>
        <time>2013-02-21T15:46:37Z</time>
      </trkpt>
      <trkpt lat="46.34552" lon="-0.5336">
        <ele>40.19876</ele>
        <time>2013-02-21T15:46:42Z</time>
      </trkpt>
      <trkpt lat="46.34548" lon="-0.53363">
        <ele>39.432056</ele>
        <time>2013-02-21T15:46:47Z</time>
      </trkpt>
      <trkpt lat="46.34543" lon="-0.53364">
        <ele>39.432056</ele>
        <time>2013-02-21T15:46:52Z</time>
      </trkpt>
      <trkpt lat="46.34539" lon="-0.53366">
        <ele>38.399197</ele>
        <time>2013-02-21T15:46:57Z</time>
      </trkpt>
      <trkpt lat="46.34533" lon="-0.53368">
        <ele>38.399197</ele>
        <time>2013-02-21T15:47:02Z</time>
      </trkpt>
      <trkpt lat="46.34528" lon="-0.53371">
        <ele>37.265957</ele>
        <time>2013-02-21T15:47:07Z</time>
      </trkpt>
      <trkpt lat="46.34522" lon="-0.53375">
        <ele>37.265957</ele>
        <time>2013-02-21T15:47:12Z</time>
      </trkpt>
      <trkpt lat="46.34517" lon="-0.53379">
        <ele>36.54644</ele>
        <time>2013-02-21T15:47:17Z</time>
      </trkpt>
      <trkpt lat="46.34512" lon="-0.53382">
        <ele>36.54644</ele>
        <time>2013-02-21T15:47:22Z</time>
      </trkpt>
      <trkpt lat="46.34507" lon="-0.53384">
        <ele>36.15372</ele>
        <time>2013-02-21T15:47:27Z</time>
      </trkpt>
      <trkpt lat="46.34503" lon="-0.53388">
        <ele>36.15372</ele>
        <time>2013-02-21T15:47:32Z</time>
      </trkpt>
      <trkpt lat="46.34498" lon="-0.53391">
        <ele>35.804527</ele>
        <time>2013-02-21T15:47:37Z</time>
      </trkpt>
      <trkpt lat="46.34493" lon="-0.53393">
        <ele>35.804527</ele>
        <time>2013-02-21T15:47:42Z</time>
      </trkpt>
      <trkpt lat="46.34488" lon="-0.53395">
        <ele>35.481213</ele>
        <time>2013-02-21T15:47:47Z</time>
      </trkpt>
      <trkpt lat="46.34483" lon="-0.53398">
        <ele>35.481213</ele>
        <time>2013-02-21T15:47:52Z</time>
      </trkpt>
      <trkpt lat="46.34478" lon="-0.534">
        <ele>35.167297</ele>
        <time>2013-02-21T15:47:57Z</time>
      </trkpt>
      <trkpt lat="46.34474" lon="-0.53403">
        <ele>35.167297</ele>
        <time>2013-02-21T15:48:02Z</time>
      </trkpt>
      <trkpt lat="46.34468" lon="-0.53406">
        <ele>35.005955</ele>
        <time>2013-02-21T15:48:07Z</time>
      </trkpt>
      <trkpt lat="46.34464" lon="-0.53409">
        <ele>35.005955</ele>
        <time>2013-02-21T15:48:12Z</time>
      </trkpt>
      <trkpt lat="46.34459" lon="-0.53411">
        <ele>34.97085</ele>
        <time>2013-02-21T15:48:17Z</time>
      </trkpt>
      <trkpt lat="46.34454" lon="-0.53415">
        <ele>34.97085</ele>
        <time>2013-02-21T15:48:22Z</time>
      </trkpt>
      <trkpt lat="46.34449" lon="-0.53416">
        <ele>35.181313</ele>
        <time>2013-02-21T15:48:27Z</time>
      </trkpt>
      <trkpt lat="46.34445" lon="-0.53417">
        <ele>35.181313</ele>
        <time>2013-02-21T15:48:32Z</time>
      </trkpt>
      <trkpt lat="46.3444" lon="-0.5342">
        <ele>35.372475</ele>
        <time>2013-02-21T15:48:37Z</time>
      </trkpt>
      <trkpt lat="46.34434" lon="-0.53423">
        <ele>35.372475</ele>
        <time>2013-02-21T15:48:42Z</time>
      </trkpt>
      <trkpt lat="46.34429" lon="-0.53426">
        <ele>35.198093</ele>
        <time>2013-02-21T15:48:47Z</time>
      </trkpt>
      <trkpt lat="46.34424" lon="-0.53429">
        <ele>35.198093</ele>
        <time>2013-02-21T15:48:52Z</time>
      </trkpt>
      <trkpt lat="46.34419" lon="-0.53431">
        <ele>35.17421</ele>
        <time>2013-02-21T15:48:57Z</time>
      </trkpt>
      <trkpt lat="46.34415" lon="-0.53433">
        <ele>35.17421</ele>
        <time>2013-02-21T15:49:02Z</time>
      </trkpt>
      <trkpt lat="46.3441" lon="-0.53435">
        <ele>35.547935</ele>
        <time>2013-02-21T15:49:07Z</time>
      </trkpt>
      <trkpt lat="46.34408" lon="-0.53434">
        <ele>35.547935</ele>
        <time>2013-02-21T15:49:12Z</time>
      </trkpt>
      <trkpt lat="46.34407" lon="-0.53435">
        <ele>35.547935</ele>
        <time>2013-02-21T15:49:17Z</time>
      </trkpt>
      <trkpt lat="46.34403" lon="-0.5344">
        <ele>35.547935</ele>
        <time>2013-02-21T15:49:22Z</time>
      </trkpt>
      <trkpt lat="46.34398" lon="-0.53443">
        <ele>36.158016</ele>
        <time>2013-02-21T15:49:27Z</time>
      </trkpt>
      <trkpt lat="46.34392" lon="-0.53446">
        <ele>36.158016</ele>
        <time>2013-02-21T15:49:32Z</time>
      </trkpt>
      <trkpt lat="46.34387" lon="-0.53447">
        <ele>36.83997</ele>
        <time>2013-02-21T15:49:37Z</time>
      </trkpt>
      <trkpt lat="46.34381" lon="-0.5345">
        <ele>36.83997</ele>
        <time>2013-02-21T15:49:42Z</time>
      </trkpt>
      <trkpt lat="46.34375" lon="-0.53453">
        <ele>37.253853</ele>
        <time>2013-02-21T15:49:47Z</time>
      </trkpt>
      <trkpt lat="46.34375" lon="-0.53453">
        <ele>37.253853</ele>
        <time>2013-02-21T15:49:52Z</time>
      </trkpt>
      <trkpt lat="46.34372" lon="-0.53455">
        <ele>37.253853</ele>
        <time>2013-02-21T15:49:57Z</time>
      </trkpt>
      <trkpt lat="46.3437" lon="-0.53456">
        <ele>37.253853</ele>
        <time>2013-02-21T15:50:02Z</time>
      </trkpt>
      <trkpt lat="46.34365" lon="-0.53459">
        <ele>37.31604</ele>
        <time>2013-02-21T15:50:07Z</time>
      </trkpt>
      <trkpt lat="46.3436" lon="-0.53462">
        <ele>37.31604</ele>
        <time>2013-02-21T15:50:12Z</time>
      </trkpt>
      <trkpt lat="46.34355" lon="-0.53463">
        <ele>37.166225</ele>
        <time>2013-02-21T15:50:17Z</time>
      </trkpt>
      <trkpt lat="46.34349" lon="-0.53468">
        <ele>37.166225</ele>
        <time>2013-02-21T15:50:22Z</time>
      </trkpt>
      <trkpt lat="46.34345" lon="-0.53469">
        <ele>37.39562</ele>
        <time>2013-02-21T15:50:27Z</time>
      </trkpt>
      <trkpt lat="46.3434" lon="-0.53472">
        <ele>37.39562</ele>
        <time>2013-02-21T15:50:32Z</time>
      </trkpt>
      <trkpt lat="46.34334" lon="-0.53477">
        <ele>37.844814</ele>
        <time>2013-02-21T15:50:37Z</time>
      </trkpt>
      <trkpt lat="46.34329" lon="-0.53477">
        <ele>37.844814</ele>
        <time>2013-02-21T15:50:42Z</time>
      </trkpt>
      <trkpt lat="46.34324" lon="-0.53479">
        <ele>38.408768</ele>
        <time>2013-02-21T15:50:47Z</time>
      </trkpt>
      <trkpt lat="46.3432" lon="-0.53482">
        <ele>38.408768</ele>
        <time>2013-02-21T15:50:52Z</time>
      </trkpt>
      <trkpt lat="46.34314" lon="-0.53483">
        <ele>38.874577</ele>
        <time>2013-02-21T15:50:57Z</time>
      </trkpt>
      <trkpt lat="46.34309" lon="-0.53486">
        <ele>38.874577</ele>
        <time>2013-02-21T15:51:02Z</time>
      </trkpt>
      <trkpt lat="46.34304" lon="-0.53489">
        <ele>39.391155</ele>
        <time>2013-02-21T15:51:07Z</time>
      </trkpt>
      <trkpt lat="46.34299" lon="-0.53491">
        <ele>39.391155</ele>
        <time>2013-02-21T15:51:12Z</time>
      </trkpt>
      <trkpt lat="46.34297" lon="-0.53493">
        <ele>39.391155</ele>
        <time>2013-02-21T15:51:17Z</time>
      </trkpt>
      <trkpt lat="46.34292" lon="-0.53495">
        <ele>40.110798</ele>
        <time>2013-02-21T15:51:22Z</time>
      </trkpt>
      <trkpt lat="46.34286" lon="-0.53497">
        <ele>40.110798</ele>
        <time>2013-02-21T15:51:27Z</time>
      </trkpt>
      <trkpt lat="46.34282" lon="-0.53499">
        <ele>40.65529</ele>
        <time>2013-02-21T15:51:32Z</time>
      </trkpt>
      <trkpt lat="46.34277" lon="-0.53502">
        <ele>40.65529</ele>
        <time>2013-02-21T15:51:37Z</time>
      </trkpt>
      <trkpt lat="46.34271" lon="-0.53505">
        <ele>41.19354</ele>
        <time>2013-02-21T15:51:42Z</time>
      </trkpt>
      <trkpt lat="46.34267" lon="-0.53507">
        <ele>41.19354</ele>
        <time>2013-02-21T15:51:47Z</time>
      </trkpt>
      <trkpt lat="46.34261" lon="-0.53509">
        <ele>41.709198</ele>
        <time>2013-02-21T15:51:52Z</time>
      </trkpt>
      <trkpt lat="46.34256" lon="-0.53512">
        <ele>41.709198</ele>
        <time>2013-02-21T15:51:57Z</time>
      </trkpt>
      <trkpt lat="46.34252" lon="-0.53515">
        <ele>42.230465</ele>
        <time>2013-02-21T15:52:02Z</time>
      </trkpt>
      <trkpt lat="46.34247" lon="-0.53517">
        <ele>42.230465</ele>
        <time>2013-02-21T15:52:07Z</time>
      </trkpt>
      <trkpt lat="46.34242" lon="-0.53519">
        <ele>42.668236</ele>
        <time>2013-02-21T15:52:12Z</time>
      </trkpt>
      <trkpt lat="46.34112" lon="-0.53524">
        <ele>39.84403</ele>
        <time>2013-02-21T16:27:45Z</time>
      </trkpt>
    </trkseg>
  </trk>
</gpx>